<?xml version="1.0" encoding="UTF-8" standalone="no" ?><gpx xmlns="http://www.topografix.com/GPX/1/1" xmlns:gpxx="http://www.garmin.com/xmlschemas/GpxExtensions/v3" xmlns:wptx1="http://www.garmin.com/xmlschemas/WaypointExtension/v1" xmlns:gpxtpx="http://www.garmin.com/xmlschemas/TrackPointExtension/v1" creator="GuideVTT.com" version="1.1" xmlns:xsi="http://www.w3.org/2001/XMLSchema-instance" xsi:schemaLocation="http://www.topografix.com/GPX/1/1 http://www.topografix.com/GPX/1/1/gpx.xsd http://www.garmin.com/xmlschemas/GpxExtensions/v3 http://www8.garmin.com/xmlschemas/GpxExtensionsv3.xsd http://www.garmin.com/xmlschemas/WaypointExtension/v1 http://www8.garmin.com/xmlschemas/WaypointExtensionv1.xsd http://www.garmin.com/xmlschemas/TrackPointExtension/v1 http://www.garmin.com/xmlschemas/TrackPointExtensionv1.xsd">
<metadata><link href="http://www.garmin.com"><text>Garmin International</text></link><time>2013-06-22T15:13:50Z</time></metadata>
<trk><name>2023rp15.gpx</name><extensions><gpxx:TrackExtension><gpxx:DisplayColor>Cyan</gpxx:DisplayColor></gpxx:TrackExtension></extensions><trkseg>
<trkpt lat="46.74004" lon="6.45668"><ele></ele><time>2024-11-27T12:56:13Z</time></trkpt>
<trkpt lat="46.74006" lon="6.45667"><ele></ele><time>2024-11-27T12:56:16Z</time></trkpt>
<trkpt lat="46.74016" lon="6.45665"><ele></ele><time>2024-11-27T12:56:19Z</time></trkpt>
<trkpt lat="46.74025" lon="6.45659"><ele></ele><time>2024-11-27T12:56:22Z</time></trkpt>
<trkpt lat="46.74028" lon="6.45659"><ele></ele><time>2024-11-27T12:56:25Z</time></trkpt>
<trkpt lat="46.74031" lon="6.45658"><ele></ele><time>2024-11-27T12:56:28Z</time></trkpt>
<trkpt lat="46.74034" lon="6.45657"><ele></ele><time>2024-11-27T12:56:31Z</time></trkpt>
<trkpt lat="46.74036" lon="6.45657"><ele></ele><time>2024-11-27T12:56:34Z</time></trkpt>
<trkpt lat="46.74038" lon="6.45656"><ele></ele><time>2024-11-27T12:56:37Z</time></trkpt>
<trkpt lat="46.74041" lon="6.45658"><ele></ele><time>2024-11-27T12:56:40Z</time></trkpt>
<trkpt lat="46.74044" lon="6.45663"><ele></ele><time>2024-11-27T12:56:43Z</time></trkpt>
<trkpt lat="46.74046" lon="6.45664"><ele></ele><time>2024-11-27T12:56:46Z</time></trkpt>
<trkpt lat="46.74047" lon="6.45665"><ele></ele><time>2024-11-27T12:56:49Z</time></trkpt>
<trkpt lat="46.7405" lon="6.4567"><ele></ele><time>2024-11-27T12:56:52Z</time></trkpt>
<trkpt lat="46.7405" lon="6.45671"><ele></ele><time>2024-11-27T12:56:55Z</time></trkpt>
<trkpt lat="46.74052" lon="6.45671"><ele></ele><time>2024-11-27T12:56:58Z</time></trkpt>
<trkpt lat="46.74054" lon="6.4567"><ele></ele><time>2024-11-27T12:57:1Z</time></trkpt>
<trkpt lat="46.74055" lon="6.45669"><ele></ele><time>2024-11-27T12:57:4Z</time></trkpt>
<trkpt lat="46.74056" lon="6.45668"><ele></ele><time>2024-11-27T12:57:7Z</time></trkpt>
<trkpt lat="46.74061" lon="6.45666"><ele></ele><time>2024-11-27T12:57:10Z</time></trkpt>
<trkpt lat="46.74063" lon="6.45666"><ele></ele><time>2024-11-27T12:57:13Z</time></trkpt>
<trkpt lat="46.74064" lon="6.45665"><ele></ele><time>2024-11-27T12:57:16Z</time></trkpt>
<trkpt lat="46.74071" lon="6.45663"><ele></ele><time>2024-11-27T12:57:19Z</time></trkpt>
<trkpt lat="46.74073" lon="6.45662"><ele></ele><time>2024-11-27T12:57:22Z</time></trkpt>
<trkpt lat="46.74077" lon="6.4566"><ele></ele><time>2024-11-27T12:57:25Z</time></trkpt>
<trkpt lat="46.74084" lon="6.45656"><ele></ele><time>2024-11-27T12:57:28Z</time></trkpt>
<trkpt lat="46.74085" lon="6.45656"><ele></ele><time>2024-11-27T12:57:31Z</time></trkpt>
<trkpt lat="46.74092" lon="6.45651"><ele></ele><time>2024-11-27T12:57:34Z</time></trkpt>
<trkpt lat="46.74093" lon="6.45651"><ele></ele><time>2024-11-27T12:57:37Z</time></trkpt>
<trkpt lat="46.74101" lon="6.45651"><ele></ele><time>2024-11-27T12:57:40Z</time></trkpt>
<trkpt lat="46.74112" lon="6.4565"><ele></ele><time>2024-11-27T12:57:43Z</time></trkpt>
<trkpt lat="46.74116" lon="6.45649"><ele></ele><time>2024-11-27T12:57:46Z</time></trkpt>
<trkpt lat="46.74119" lon="6.45649"><ele></ele><time>2024-11-27T12:57:49Z</time></trkpt>
<trkpt lat="46.74124" lon="6.45655"><ele></ele><time>2024-11-27T12:57:52Z</time></trkpt>
<trkpt lat="46.74125" lon="6.45656"><ele></ele><time>2024-11-27T12:57:55Z</time></trkpt>
<trkpt lat="46.74128" lon="6.45657"><ele></ele><time>2024-11-27T12:57:58Z</time></trkpt>
<trkpt lat="46.7413" lon="6.45663"><ele></ele><time>2024-11-27T12:58:1Z</time></trkpt>
<trkpt lat="46.74136" lon="6.45673"><ele></ele><time>2024-11-27T12:58:4Z</time></trkpt>
<trkpt lat="46.74137" lon="6.45674"><ele></ele><time>2024-11-27T12:58:7Z</time></trkpt>
<trkpt lat="46.74141" lon="6.45682"><ele></ele><time>2024-11-27T12:58:10Z</time></trkpt>
<trkpt lat="46.74145" lon="6.45687"><ele></ele><time>2024-11-27T12:58:13Z</time></trkpt>
<trkpt lat="46.74149" lon="6.45691"><ele></ele><time>2024-11-27T12:58:16Z</time></trkpt>
<trkpt lat="46.74151" lon="6.45692"><ele></ele><time>2024-11-27T12:58:19Z</time></trkpt>
<trkpt lat="46.74156" lon="6.45695"><ele></ele><time>2024-11-27T12:58:22Z</time></trkpt>
<trkpt lat="46.74158" lon="6.45696"><ele></ele><time>2024-11-27T12:58:25Z</time></trkpt>
<trkpt lat="46.74161" lon="6.45697"><ele></ele><time>2024-11-27T12:58:28Z</time></trkpt>
<trkpt lat="46.74166" lon="6.45696"><ele></ele><time>2024-11-27T12:58:31Z</time></trkpt>
<trkpt lat="46.7417" lon="6.45693"><ele></ele><time>2024-11-27T12:58:34Z</time></trkpt>
<trkpt lat="46.74177" lon="6.45683"><ele></ele><time>2024-11-27T12:58:37Z</time></trkpt>
<trkpt lat="46.7418" lon="6.45679"><ele></ele><time>2024-11-27T12:58:40Z</time></trkpt>
<trkpt lat="46.74184" lon="6.45671"><ele></ele><time>2024-11-27T12:58:43Z</time></trkpt>
<trkpt lat="46.74188" lon="6.45666"><ele></ele><time>2024-11-27T12:58:46Z</time></trkpt>
<trkpt lat="46.74192" lon="6.4566"><ele></ele><time>2024-11-27T12:58:49Z</time></trkpt>
<trkpt lat="46.74192" lon="6.45658"><ele></ele><time>2024-11-27T12:58:52Z</time></trkpt>
<trkpt lat="46.74192" lon="6.45649"><ele></ele><time>2024-11-27T12:58:55Z</time></trkpt>
<trkpt lat="46.74194" lon="6.45636"><ele></ele><time>2024-11-27T12:58:58Z</time></trkpt>
<trkpt lat="46.74194" lon="6.45634"><ele></ele><time>2024-11-27T12:59:1Z</time></trkpt>
<trkpt lat="46.74195" lon="6.45622"><ele></ele><time>2024-11-27T12:59:4Z</time></trkpt>
<trkpt lat="46.74195" lon="6.45616"><ele></ele><time>2024-11-27T12:59:7Z</time></trkpt>
<trkpt lat="46.74197" lon="6.45607"><ele></ele><time>2024-11-27T12:59:10Z</time></trkpt>
<trkpt lat="46.74197" lon="6.45603"><ele></ele><time>2024-11-27T12:59:13Z</time></trkpt>
<trkpt lat="46.742" lon="6.4558"><ele></ele><time>2024-11-27T12:59:16Z</time></trkpt>
<trkpt lat="46.742" lon="6.45577"><ele></ele><time>2024-11-27T12:59:19Z</time></trkpt>
<trkpt lat="46.74202" lon="6.45557"><ele></ele><time>2024-11-27T12:59:22Z</time></trkpt>
<trkpt lat="46.74202" lon="6.45552"><ele></ele><time>2024-11-27T12:59:25Z</time></trkpt>
<trkpt lat="46.74204" lon="6.45532"><ele></ele><time>2024-11-27T12:59:28Z</time></trkpt>
<trkpt lat="46.74206" lon="6.45519"><ele></ele><time>2024-11-27T12:59:31Z</time></trkpt>
<trkpt lat="46.74208" lon="6.45503"><ele></ele><time>2024-11-27T12:59:34Z</time></trkpt>
<trkpt lat="46.74208" lon="6.45501"><ele></ele><time>2024-11-27T12:59:37Z</time></trkpt>
<trkpt lat="46.7421" lon="6.45483"><ele></ele><time>2024-11-27T12:59:40Z</time></trkpt>
<trkpt lat="46.7421" lon="6.45476"><ele></ele><time>2024-11-27T12:59:43Z</time></trkpt>
<trkpt lat="46.74212" lon="6.45461"><ele></ele><time>2024-11-27T12:59:46Z</time></trkpt>
<trkpt lat="46.74212" lon="6.45453"><ele></ele><time>2024-11-27T12:59:49Z</time></trkpt>
<trkpt lat="46.74214" lon="6.45434"><ele></ele><time>2024-11-27T12:59:52Z</time></trkpt>
<trkpt lat="46.74215" lon="6.45419"><ele></ele><time>2024-11-27T12:59:55Z</time></trkpt>
<trkpt lat="46.74216" lon="6.45411"><ele></ele><time>2024-11-27T12:59:58Z</time></trkpt>
<trkpt lat="46.74216" lon="6.45402"><ele></ele><time>2024-11-27T13:0:1Z</time></trkpt>
<trkpt lat="46.74215" lon="6.45384"><ele></ele><time>2024-11-27T13:0:4Z</time></trkpt>
<trkpt lat="46.74215" lon="6.45379"><ele></ele><time>2024-11-27T13:0:7Z</time></trkpt>
<trkpt lat="46.74214" lon="6.45365"><ele></ele><time>2024-11-27T13:0:10Z</time></trkpt>
<trkpt lat="46.74214" lon="6.45358"><ele></ele><time>2024-11-27T13:0:13Z</time></trkpt>
<trkpt lat="46.74214" lon="6.45343"><ele></ele><time>2024-11-27T13:0:16Z</time></trkpt>
<trkpt lat="46.74214" lon="6.45341"><ele></ele><time>2024-11-27T13:0:19Z</time></trkpt>
<trkpt lat="46.74217" lon="6.45323"><ele></ele><time>2024-11-27T13:0:22Z</time></trkpt>
<trkpt lat="46.74217" lon="6.45319"><ele></ele><time>2024-11-27T13:0:25Z</time></trkpt>
<trkpt lat="46.74217" lon="6.45309"><ele></ele><time>2024-11-27T13:0:28Z</time></trkpt>
<trkpt lat="46.74217" lon="6.45303"><ele></ele><time>2024-11-27T13:0:31Z</time></trkpt>
<trkpt lat="46.74218" lon="6.45294"><ele></ele><time>2024-11-27T13:0:34Z</time></trkpt>
<trkpt lat="46.74218" lon="6.45288"><ele></ele><time>2024-11-27T13:0:37Z</time></trkpt>
<trkpt lat="46.74217" lon="6.4528"><ele></ele><time>2024-11-27T13:0:40Z</time></trkpt>
<trkpt lat="46.74217" lon="6.45269"><ele></ele><time>2024-11-27T13:0:43Z</time></trkpt>
<trkpt lat="46.74217" lon="6.4526"><ele></ele><time>2024-11-27T13:0:46Z</time></trkpt>
<trkpt lat="46.74218" lon="6.45253"><ele></ele><time>2024-11-27T13:0:49Z</time></trkpt>
<trkpt lat="46.74217" lon="6.45242"><ele></ele><time>2024-11-27T13:0:52Z</time></trkpt>
<trkpt lat="46.74217" lon="6.45235"><ele></ele><time>2024-11-27T13:0:55Z</time></trkpt>
<trkpt lat="46.74217" lon="6.45232"><ele></ele><time>2024-11-27T13:0:58Z</time></trkpt>
<trkpt lat="46.74216" lon="6.45219"><ele></ele><time>2024-11-27T13:1:1Z</time></trkpt>
<trkpt lat="46.74216" lon="6.45215"><ele></ele><time>2024-11-27T13:1:4Z</time></trkpt>
<trkpt lat="46.74215" lon="6.45203"><ele></ele><time>2024-11-27T13:1:7Z</time></trkpt>
<trkpt lat="46.74216" lon="6.45199"><ele></ele><time>2024-11-27T13:1:10Z</time></trkpt>
<trkpt lat="46.74215" lon="6.45189"><ele></ele><time>2024-11-27T13:1:13Z</time></trkpt>
<trkpt lat="46.74215" lon="6.45184"><ele></ele><time>2024-11-27T13:1:16Z</time></trkpt>
<trkpt lat="46.74213" lon="6.4517"><ele></ele><time>2024-11-27T13:1:19Z</time></trkpt>
<trkpt lat="46.74213" lon="6.45167"><ele></ele><time>2024-11-27T13:1:22Z</time></trkpt>
<trkpt lat="46.74212" lon="6.45165"><ele></ele><time>2024-11-27T13:1:25Z</time></trkpt>
<trkpt lat="46.7421" lon="6.45159"><ele></ele><time>2024-11-27T13:1:28Z</time></trkpt>
<trkpt lat="46.7421" lon="6.45153"><ele></ele><time>2024-11-27T13:1:31Z</time></trkpt>
<trkpt lat="46.74208" lon="6.45142"><ele></ele><time>2024-11-27T13:1:34Z</time></trkpt>
<trkpt lat="46.74208" lon="6.45137"><ele></ele><time>2024-11-27T13:1:37Z</time></trkpt>
<trkpt lat="46.74206" lon="6.45121"><ele></ele><time>2024-11-27T13:1:40Z</time></trkpt>
<trkpt lat="46.74206" lon="6.45119"><ele></ele><time>2024-11-27T13:1:43Z</time></trkpt>
<trkpt lat="46.74201" lon="6.45104"><ele></ele><time>2024-11-27T13:1:46Z</time></trkpt>
<trkpt lat="46.742" lon="6.451"><ele></ele><time>2024-11-27T13:1:49Z</time></trkpt>
<trkpt lat="46.74198" lon="6.45086"><ele></ele><time>2024-11-27T13:1:52Z</time></trkpt>
<trkpt lat="46.74197" lon="6.45081"><ele></ele><time>2024-11-27T13:1:55Z</time></trkpt>
<trkpt lat="46.74195" lon="6.45071"><ele></ele><time>2024-11-27T13:1:58Z</time></trkpt>
<trkpt lat="46.74193" lon="6.45065"><ele></ele><time>2024-11-27T13:2:1Z</time></trkpt>
<trkpt lat="46.74189" lon="6.45052"><ele></ele><time>2024-11-27T13:2:4Z</time></trkpt>
<trkpt lat="46.74187" lon="6.45043"><ele></ele><time>2024-11-27T13:2:7Z</time></trkpt>
<trkpt lat="46.74184" lon="6.45034"><ele></ele><time>2024-11-27T13:2:10Z</time></trkpt>
<trkpt lat="46.74181" lon="6.45022"><ele></ele><time>2024-11-27T13:2:13Z</time></trkpt>
<trkpt lat="46.74181" lon="6.45019"><ele></ele><time>2024-11-27T13:2:16Z</time></trkpt>
<trkpt lat="46.74179" lon="6.45004"><ele></ele><time>2024-11-27T13:2:19Z</time></trkpt>
<trkpt lat="46.74178" lon="6.45002"><ele></ele><time>2024-11-27T13:2:22Z</time></trkpt>
<trkpt lat="46.74175" lon="6.44988"><ele></ele><time>2024-11-27T13:2:25Z</time></trkpt>
<trkpt lat="46.74173" lon="6.44981"><ele></ele><time>2024-11-27T13:2:28Z</time></trkpt>
<trkpt lat="46.74171" lon="6.44967"><ele></ele><time>2024-11-27T13:2:31Z</time></trkpt>
<trkpt lat="46.74169" lon="6.44961"><ele></ele><time>2024-11-27T13:2:34Z</time></trkpt>
<trkpt lat="46.74166" lon="6.44956"><ele></ele><time>2024-11-27T13:2:37Z</time></trkpt>
<trkpt lat="46.74166" lon="6.4495"><ele></ele><time>2024-11-27T13:2:40Z</time></trkpt>
<trkpt lat="46.74166" lon="6.44948"><ele></ele><time>2024-11-27T13:2:43Z</time></trkpt>
<trkpt lat="46.74166" lon="6.44942"><ele></ele><time>2024-11-27T13:2:46Z</time></trkpt>
<trkpt lat="46.74165" lon="6.44939"><ele></ele><time>2024-11-27T13:2:49Z</time></trkpt>
<trkpt lat="46.74161" lon="6.44929"><ele></ele><time>2024-11-27T13:2:52Z</time></trkpt>
<trkpt lat="46.74158" lon="6.44922"><ele></ele><time>2024-11-27T13:2:55Z</time></trkpt>
<trkpt lat="46.74157" lon="6.44916"><ele></ele><time>2024-11-27T13:2:58Z</time></trkpt>
<trkpt lat="46.74157" lon="6.44911"><ele></ele><time>2024-11-27T13:3:1Z</time></trkpt>
<trkpt lat="46.74154" lon="6.44902"><ele></ele><time>2024-11-27T13:3:4Z</time></trkpt>
<trkpt lat="46.74153" lon="6.44899"><ele></ele><time>2024-11-27T13:3:7Z</time></trkpt>
<trkpt lat="46.7415" lon="6.44892"><ele></ele><time>2024-11-27T13:3:10Z</time></trkpt>
<trkpt lat="46.74148" lon="6.44889"><ele></ele><time>2024-11-27T13:3:13Z</time></trkpt>
<trkpt lat="46.74146" lon="6.44885"><ele></ele><time>2024-11-27T13:3:16Z</time></trkpt>
<trkpt lat="46.74146" lon="6.44881"><ele></ele><time>2024-11-27T13:3:19Z</time></trkpt>
<trkpt lat="46.74143" lon="6.44876"><ele></ele><time>2024-11-27T13:3:22Z</time></trkpt>
<trkpt lat="46.74141" lon="6.44872"><ele></ele><time>2024-11-27T13:3:25Z</time></trkpt>
<trkpt lat="46.74141" lon="6.4487"><ele></ele><time>2024-11-27T13:3:28Z</time></trkpt>
<trkpt lat="46.74141" lon="6.44867"><ele></ele><time>2024-11-27T13:3:31Z</time></trkpt>
<trkpt lat="46.7414" lon="6.44865"><ele></ele><time>2024-11-27T13:3:34Z</time></trkpt>
<trkpt lat="46.7414" lon="6.44863"><ele></ele><time>2024-11-27T13:3:37Z</time></trkpt>
<trkpt lat="46.74142" lon="6.44858"><ele></ele><time>2024-11-27T13:3:40Z</time></trkpt>
<trkpt lat="46.74141" lon="6.44855"><ele></ele><time>2024-11-27T13:3:43Z</time></trkpt>
<trkpt lat="46.7414" lon="6.4485"><ele></ele><time>2024-11-27T13:3:46Z</time></trkpt>
<trkpt lat="46.7414" lon="6.44848"><ele></ele><time>2024-11-27T13:3:49Z</time></trkpt>
<trkpt lat="46.74144" lon="6.44839"><ele></ele><time>2024-11-27T13:3:52Z</time></trkpt>
<trkpt lat="46.74146" lon="6.44839"><ele></ele><time>2024-11-27T13:3:55Z</time></trkpt>
<trkpt lat="46.74153" lon="6.4484"><ele></ele><time>2024-11-27T13:3:58Z</time></trkpt>
<trkpt lat="46.74161" lon="6.44846"><ele></ele><time>2024-11-27T13:4:1Z</time></trkpt>
<trkpt lat="46.74162" lon="6.44847"><ele></ele><time>2024-11-27T13:4:4Z</time></trkpt>
<trkpt lat="46.74171" lon="6.44861"><ele></ele><time>2024-11-27T13:4:7Z</time></trkpt>
<trkpt lat="46.74176" lon="6.44874"><ele></ele><time>2024-11-27T13:4:10Z</time></trkpt>
<trkpt lat="46.74178" lon="6.44879"><ele></ele><time>2024-11-27T13:4:13Z</time></trkpt>
<trkpt lat="46.74187" lon="6.44889"><ele></ele><time>2024-11-27T13:4:16Z</time></trkpt>
<trkpt lat="46.74198" lon="6.44902"><ele></ele><time>2024-11-27T13:4:19Z</time></trkpt>
<trkpt lat="46.742" lon="6.44905"><ele></ele><time>2024-11-27T13:4:22Z</time></trkpt>
<trkpt lat="46.74209" lon="6.44912"><ele></ele><time>2024-11-27T13:4:25Z</time></trkpt>
<trkpt lat="46.74213" lon="6.44917"><ele></ele><time>2024-11-27T13:4:28Z</time></trkpt>
<trkpt lat="46.7422" lon="6.44925"><ele></ele><time>2024-11-27T13:4:31Z</time></trkpt>
<trkpt lat="46.74228" lon="6.44932"><ele></ele><time>2024-11-27T13:4:34Z</time></trkpt>
<trkpt lat="46.74232" lon="6.44937"><ele></ele><time>2024-11-27T13:4:37Z</time></trkpt>
<trkpt lat="46.74235" lon="6.4494"><ele></ele><time>2024-11-27T13:4:40Z</time></trkpt>
<trkpt lat="46.74241" lon="6.44948"><ele></ele><time>2024-11-27T13:4:43Z</time></trkpt>
<trkpt lat="46.74244" lon="6.44951"><ele></ele><time>2024-11-27T13:4:46Z</time></trkpt>
<trkpt lat="46.74252" lon="6.4496"><ele></ele><time>2024-11-27T13:4:49Z</time></trkpt>
<trkpt lat="46.74259" lon="6.44965"><ele></ele><time>2024-11-27T13:4:52Z</time></trkpt>
<trkpt lat="46.7426" lon="6.44966"><ele></ele><time>2024-11-27T13:4:55Z</time></trkpt>
<trkpt lat="46.7427" lon="6.44975"><ele></ele><time>2024-11-27T13:4:58Z</time></trkpt>
<trkpt lat="46.74271" lon="6.44976"><ele></ele><time>2024-11-27T13:5:1Z</time></trkpt>
<trkpt lat="46.74281" lon="6.44988"><ele></ele><time>2024-11-27T13:5:4Z</time></trkpt>
<trkpt lat="46.74286" lon="6.44993"><ele></ele><time>2024-11-27T13:5:7Z</time></trkpt>
<trkpt lat="46.74292" lon="6.44998"><ele></ele><time>2024-11-27T13:5:10Z</time></trkpt>
<trkpt lat="46.74298" lon="6.45004"><ele></ele><time>2024-11-27T13:5:13Z</time></trkpt>
<trkpt lat="46.74301" lon="6.45007"><ele></ele><time>2024-11-27T13:5:16Z</time></trkpt>
<trkpt lat="46.74309" lon="6.45014"><ele></ele><time>2024-11-27T13:5:19Z</time></trkpt>
<trkpt lat="46.74313" lon="6.45017"><ele></ele><time>2024-11-27T13:5:22Z</time></trkpt>
<trkpt lat="46.74318" lon="6.45021"><ele></ele><time>2024-11-27T13:5:25Z</time></trkpt>
<trkpt lat="46.74322" lon="6.45025"><ele></ele><time>2024-11-27T13:5:28Z</time></trkpt>
<trkpt lat="46.74327" lon="6.45033"><ele></ele><time>2024-11-27T13:5:31Z</time></trkpt>
<trkpt lat="46.74329" lon="6.45035"><ele></ele><time>2024-11-27T13:5:34Z</time></trkpt>
<trkpt lat="46.74336" lon="6.45045"><ele></ele><time>2024-11-27T13:5:37Z</time></trkpt>
<trkpt lat="46.74339" lon="6.45047"><ele></ele><time>2024-11-27T13:5:40Z</time></trkpt>
<trkpt lat="46.74343" lon="6.4505"><ele></ele><time>2024-11-27T13:5:43Z</time></trkpt>
<trkpt lat="46.74348" lon="6.45055"><ele></ele><time>2024-11-27T13:5:46Z</time></trkpt>
<trkpt lat="46.74353" lon="6.45061"><ele></ele><time>2024-11-27T13:5:49Z</time></trkpt>
<trkpt lat="46.74356" lon="6.45063"><ele></ele><time>2024-11-27T13:5:52Z</time></trkpt>
<trkpt lat="46.7436" lon="6.45067"><ele></ele><time>2024-11-27T13:5:55Z</time></trkpt>
<trkpt lat="46.74362" lon="6.45068"><ele></ele><time>2024-11-27T13:5:58Z</time></trkpt>
<trkpt lat="46.74369" lon="6.45071"><ele></ele><time>2024-11-27T13:6:1Z</time></trkpt>
<trkpt lat="46.7437" lon="6.45072"><ele></ele><time>2024-11-27T13:6:4Z</time></trkpt>
<trkpt lat="46.74376" lon="6.45071"><ele></ele><time>2024-11-27T13:6:7Z</time></trkpt>
<trkpt lat="46.74379" lon="6.45071"><ele></ele><time>2024-11-27T13:6:10Z</time></trkpt>
<trkpt lat="46.74386" lon="6.45075"><ele></ele><time>2024-11-27T13:6:13Z</time></trkpt>
<trkpt lat="46.74387" lon="6.45075"><ele></ele><time>2024-11-27T13:6:16Z</time></trkpt>
<trkpt lat="46.74393" lon="6.45079"><ele></ele><time>2024-11-27T13:6:19Z</time></trkpt>
<trkpt lat="46.74394" lon="6.45079"><ele></ele><time>2024-11-27T13:6:22Z</time></trkpt>
<trkpt lat="46.74402" lon="6.45083"><ele></ele><time>2024-11-27T13:6:25Z</time></trkpt>
<trkpt lat="46.74412" lon="6.45088"><ele></ele><time>2024-11-27T13:6:28Z</time></trkpt>
<trkpt lat="46.74414" lon="6.45089"><ele></ele><time>2024-11-27T13:6:31Z</time></trkpt>
<trkpt lat="46.74422" lon="6.45095"><ele></ele><time>2024-11-27T13:6:34Z</time></trkpt>
<trkpt lat="46.74425" lon="6.45098"><ele></ele><time>2024-11-27T13:6:37Z</time></trkpt>
<trkpt lat="46.74427" lon="6.45101"><ele></ele><time>2024-11-27T13:6:40Z</time></trkpt>
<trkpt lat="46.74432" lon="6.45111"><ele></ele><time>2024-11-27T13:6:43Z</time></trkpt>
<trkpt lat="46.74434" lon="6.45114"><ele></ele><time>2024-11-27T13:6:46Z</time></trkpt>
<trkpt lat="46.74439" lon="6.45124"><ele></ele><time>2024-11-27T13:6:49Z</time></trkpt>
<trkpt lat="46.74448" lon="6.45137"><ele></ele><time>2024-11-27T13:6:52Z</time></trkpt>
<trkpt lat="46.7445" lon="6.45138"><ele></ele><time>2024-11-27T13:6:55Z</time></trkpt>
<trkpt lat="46.74458" lon="6.45143"><ele></ele><time>2024-11-27T13:6:58Z</time></trkpt>
<trkpt lat="46.74459" lon="6.45143"><ele></ele><time>2024-11-27T13:7:1Z</time></trkpt>
<trkpt lat="46.74469" lon="6.45147"><ele></ele><time>2024-11-27T13:7:4Z</time></trkpt>
<trkpt lat="46.7447" lon="6.45148"><ele></ele><time>2024-11-27T13:7:7Z</time></trkpt>
<trkpt lat="46.74472" lon="6.45148"><ele></ele><time>2024-11-27T13:7:10Z</time></trkpt>
<trkpt lat="46.74478" lon="6.45148"><ele></ele><time>2024-11-27T13:7:13Z</time></trkpt>
<trkpt lat="46.74486" lon="6.45152"><ele></ele><time>2024-11-27T13:7:16Z</time></trkpt>
<trkpt lat="46.7449" lon="6.45155"><ele></ele><time>2024-11-27T13:7:19Z</time></trkpt>
<trkpt lat="46.74493" lon="6.45158"><ele></ele><time>2024-11-27T13:7:22Z</time></trkpt>
<trkpt lat="46.74496" lon="6.45162"><ele></ele><time>2024-11-27T13:7:25Z</time></trkpt>
<trkpt lat="46.74498" lon="6.45167"><ele></ele><time>2024-11-27T13:7:28Z</time></trkpt>
<trkpt lat="46.74501" lon="6.45172"><ele></ele><time>2024-11-27T13:7:31Z</time></trkpt>
<trkpt lat="46.74504" lon="6.4518"><ele></ele><time>2024-11-27T13:7:34Z</time></trkpt>
<trkpt lat="46.74507" lon="6.45186"><ele></ele><time>2024-11-27T13:7:37Z</time></trkpt>
<trkpt lat="46.74508" lon="6.45188"><ele></ele><time>2024-11-27T13:7:40Z</time></trkpt>
<trkpt lat="46.74509" lon="6.45189"><ele></ele><time>2024-11-27T13:7:43Z</time></trkpt>
<trkpt lat="46.74515" lon="6.45197"><ele></ele><time>2024-11-27T13:7:46Z</time></trkpt>
<trkpt lat="46.74517" lon="6.452"><ele></ele><time>2024-11-27T13:7:49Z</time></trkpt>
<trkpt lat="46.74523" lon="6.45205"><ele></ele><time>2024-11-27T13:7:52Z</time></trkpt>
<trkpt lat="46.74527" lon="6.4521"><ele></ele><time>2024-11-27T13:7:55Z</time></trkpt>
<trkpt lat="46.74533" lon="6.45215"><ele></ele><time>2024-11-27T13:7:58Z</time></trkpt>
<trkpt lat="46.74536" lon="6.45219"><ele></ele><time>2024-11-27T13:8:1Z</time></trkpt>
<trkpt lat="46.7454" lon="6.45224"><ele></ele><time>2024-11-27T13:8:4Z</time></trkpt>
<trkpt lat="46.74547" lon="6.45229"><ele></ele><time>2024-11-27T13:8:7Z</time></trkpt>
<trkpt lat="46.74551" lon="6.45232"><ele></ele><time>2024-11-27T13:8:10Z</time></trkpt>
<trkpt lat="46.74556" lon="6.45235"><ele></ele><time>2024-11-27T13:8:13Z</time></trkpt>
<trkpt lat="46.74558" lon="6.45236"><ele></ele><time>2024-11-27T13:8:16Z</time></trkpt>
<trkpt lat="46.74563" lon="6.45239"><ele></ele><time>2024-11-27T13:8:19Z</time></trkpt>
<trkpt lat="46.74569" lon="6.45242"><ele></ele><time>2024-11-27T13:8:22Z</time></trkpt>
<trkpt lat="46.74572" lon="6.45245"><ele></ele><time>2024-11-27T13:8:25Z</time></trkpt>
<trkpt lat="46.74578" lon="6.45248"><ele></ele><time>2024-11-27T13:8:28Z</time></trkpt>
<trkpt lat="46.7458" lon="6.45248"><ele></ele><time>2024-11-27T13:8:31Z</time></trkpt>
<trkpt lat="46.74585" lon="6.45249"><ele></ele><time>2024-11-27T13:8:34Z</time></trkpt>
<trkpt lat="46.74589" lon="6.45248"><ele></ele><time>2024-11-27T13:8:37Z</time></trkpt>
<trkpt lat="46.74596" lon="6.45249"><ele></ele><time>2024-11-27T13:8:40Z</time></trkpt>
<trkpt lat="46.74599" lon="6.45251"><ele></ele><time>2024-11-27T13:8:43Z</time></trkpt>
<trkpt lat="46.74604" lon="6.45253"><ele></ele><time>2024-11-27T13:8:46Z</time></trkpt>
<trkpt lat="46.74613" lon="6.45254"><ele></ele><time>2024-11-27T13:8:49Z</time></trkpt>
<trkpt lat="46.74619" lon="6.45253"><ele></ele><time>2024-11-27T13:8:52Z</time></trkpt>
<trkpt lat="46.74622" lon="6.45253"><ele></ele><time>2024-11-27T13:8:55Z</time></trkpt>
<trkpt lat="46.74628" lon="6.45252"><ele></ele><time>2024-11-27T13:8:58Z</time></trkpt>
<trkpt lat="46.7463" lon="6.45252"><ele></ele><time>2024-11-27T13:9:1Z</time></trkpt>
<trkpt lat="46.74639" lon="6.45253"><ele></ele><time>2024-11-27T13:9:4Z</time></trkpt>
<trkpt lat="46.74642" lon="6.45252"><ele></ele><time>2024-11-27T13:9:7Z</time></trkpt>
<trkpt lat="46.74648" lon="6.4525"><ele></ele><time>2024-11-27T13:9:10Z</time></trkpt>
<trkpt lat="46.74652" lon="6.45249"><ele></ele><time>2024-11-27T13:9:13Z</time></trkpt>
<trkpt lat="46.74656" lon="6.45248"><ele></ele><time>2024-11-27T13:9:16Z</time></trkpt>
<trkpt lat="46.74664" lon="6.45245"><ele></ele><time>2024-11-27T13:9:19Z</time></trkpt>
<trkpt lat="46.74672" lon="6.45242"><ele></ele><time>2024-11-27T13:9:22Z</time></trkpt>
<trkpt lat="46.74673" lon="6.45242"><ele></ele><time>2024-11-27T13:9:25Z</time></trkpt>
<trkpt lat="46.74686" lon="6.45244"><ele></ele><time>2024-11-27T13:9:28Z</time></trkpt>
<trkpt lat="46.74695" lon="6.45252"><ele></ele><time>2024-11-27T13:9:31Z</time></trkpt>
<trkpt lat="46.74696" lon="6.45254"><ele></ele><time>2024-11-27T13:9:34Z</time></trkpt>
<trkpt lat="46.74699" lon="6.45268"><ele></ele><time>2024-11-27T13:9:37Z</time></trkpt>
<trkpt lat="46.74701" lon="6.45283"><ele></ele><time>2024-11-27T13:9:40Z</time></trkpt>
<trkpt lat="46.74701" lon="6.45284"><ele></ele><time>2024-11-27T13:9:43Z</time></trkpt>
<trkpt lat="46.747" lon="6.453"><ele></ele><time>2024-11-27T13:9:46Z</time></trkpt>
<trkpt lat="46.747" lon="6.45302"><ele></ele><time>2024-11-27T13:9:49Z</time></trkpt>
<trkpt lat="46.74702" lon="6.45313"><ele></ele><time>2024-11-27T13:9:52Z</time></trkpt>
<trkpt lat="46.74702" lon="6.45315"><ele></ele><time>2024-11-27T13:9:55Z</time></trkpt>
<trkpt lat="46.74705" lon="6.4533"><ele></ele><time>2024-11-27T13:9:58Z</time></trkpt>
<trkpt lat="46.74706" lon="6.45332"><ele></ele><time>2024-11-27T13:10:1Z</time></trkpt>
<trkpt lat="46.74713" lon="6.45345"><ele></ele><time>2024-11-27T13:10:4Z</time></trkpt>
<trkpt lat="46.74714" lon="6.45347"><ele></ele><time>2024-11-27T13:10:7Z</time></trkpt>
<trkpt lat="46.74717" lon="6.45354"><ele></ele><time>2024-11-27T13:10:10Z</time></trkpt>
<trkpt lat="46.74719" lon="6.45359"><ele></ele><time>2024-11-27T13:10:13Z</time></trkpt>
<trkpt lat="46.74723" lon="6.45363"><ele></ele><time>2024-11-27T13:10:16Z</time></trkpt>
<trkpt lat="46.74727" lon="6.45368"><ele></ele><time>2024-11-27T13:10:19Z</time></trkpt>
<trkpt lat="46.7473" lon="6.45372"><ele></ele><time>2024-11-27T13:10:22Z</time></trkpt>
<trkpt lat="46.74733" lon="6.45378"><ele></ele><time>2024-11-27T13:10:25Z</time></trkpt>
<trkpt lat="46.74735" lon="6.45384"><ele></ele><time>2024-11-27T13:10:28Z</time></trkpt>
<trkpt lat="46.74736" lon="6.45389"><ele></ele><time>2024-11-27T13:10:31Z</time></trkpt>
<trkpt lat="46.74736" lon="6.45397"><ele></ele><time>2024-11-27T13:10:34Z</time></trkpt>
<trkpt lat="46.74734" lon="6.45407"><ele></ele><time>2024-11-27T13:10:37Z</time></trkpt>
<trkpt lat="46.74733" lon="6.4541"><ele></ele><time>2024-11-27T13:10:40Z</time></trkpt>
<trkpt lat="46.7473" lon="6.45416"><ele></ele><time>2024-11-27T13:10:43Z</time></trkpt>
<trkpt lat="46.74728" lon="6.4542"><ele></ele><time>2024-11-27T13:10:46Z</time></trkpt>
<trkpt lat="46.74728" lon="6.45424"><ele></ele><time>2024-11-27T13:10:49Z</time></trkpt>
<trkpt lat="46.74727" lon="6.4543"><ele></ele><time>2024-11-27T13:10:52Z</time></trkpt>
<trkpt lat="46.74726" lon="6.45436"><ele></ele><time>2024-11-27T13:10:55Z</time></trkpt>
<trkpt lat="46.74725" lon="6.45441"><ele></ele><time>2024-11-27T13:10:58Z</time></trkpt>
<trkpt lat="46.74726" lon="6.45449"><ele></ele><time>2024-11-27T13:11:1Z</time></trkpt>
<trkpt lat="46.74726" lon="6.45451"><ele></ele><time>2024-11-27T13:11:4Z</time></trkpt>
<trkpt lat="46.7473" lon="6.45458"><ele></ele><time>2024-11-27T13:11:7Z</time></trkpt>
<trkpt lat="46.74736" lon="6.45463"><ele></ele><time>2024-11-27T13:11:10Z</time></trkpt>
<trkpt lat="46.7474" lon="6.45464"><ele></ele><time>2024-11-27T13:11:13Z</time></trkpt>
<trkpt lat="46.74743" lon="6.45464"><ele></ele><time>2024-11-27T13:11:16Z</time></trkpt>
<trkpt lat="46.74747" lon="6.45462"><ele></ele><time>2024-11-27T13:11:19Z</time></trkpt>
<trkpt lat="46.74748" lon="6.45461"><ele></ele><time>2024-11-27T13:11:22Z</time></trkpt>
<trkpt lat="46.74752" lon="6.45458"><ele></ele><time>2024-11-27T13:11:25Z</time></trkpt>
<trkpt lat="46.74754" lon="6.45455"><ele></ele><time>2024-11-27T13:11:28Z</time></trkpt>
<trkpt lat="46.74756" lon="6.4545"><ele></ele><time>2024-11-27T13:11:31Z</time></trkpt>
<trkpt lat="46.74759" lon="6.45444"><ele></ele><time>2024-11-27T13:11:34Z</time></trkpt>
<trkpt lat="46.74761" lon="6.4544"><ele></ele><time>2024-11-27T13:11:37Z</time></trkpt>
<trkpt lat="46.74766" lon="6.4543"><ele></ele><time>2024-11-27T13:11:40Z</time></trkpt>
<trkpt lat="46.74774" lon="6.45419"><ele></ele><time>2024-11-27T13:11:43Z</time></trkpt>
<trkpt lat="46.74783" lon="6.45403"><ele></ele><time>2024-11-27T13:11:46Z</time></trkpt>
<trkpt lat="46.74783" lon="6.45401"><ele></ele><time>2024-11-27T13:11:49Z</time></trkpt>
<trkpt lat="46.74785" lon="6.45381"><ele></ele><time>2024-11-27T13:11:52Z</time></trkpt>
<trkpt lat="46.74786" lon="6.45379"><ele></ele><time>2024-11-27T13:11:55Z</time></trkpt>
<trkpt lat="46.74783" lon="6.45361"><ele></ele><time>2024-11-27T13:11:58Z</time></trkpt>
<trkpt lat="46.74782" lon="6.45356"><ele></ele><time>2024-11-27T13:12:1Z</time></trkpt>
<trkpt lat="46.74774" lon="6.45339"><ele></ele><time>2024-11-27T13:12:4Z</time></trkpt>
<trkpt lat="46.74764" lon="6.45317"><ele></ele><time>2024-11-27T13:12:7Z</time></trkpt>
<trkpt lat="46.74758" lon="6.45299"><ele></ele><time>2024-11-27T13:12:10Z</time></trkpt>
<trkpt lat="46.74758" lon="6.45293"><ele></ele><time>2024-11-27T13:12:13Z</time></trkpt>
<trkpt lat="46.74759" lon="6.45277"><ele></ele><time>2024-11-27T13:12:16Z</time></trkpt>
<trkpt lat="46.7476" lon="6.45272"><ele></ele><time>2024-11-27T13:12:19Z</time></trkpt>
<trkpt lat="46.74765" lon="6.45257"><ele></ele><time>2024-11-27T13:12:22Z</time></trkpt>
<trkpt lat="46.7477" lon="6.45248"><ele></ele><time>2024-11-27T13:12:25Z</time></trkpt>
<trkpt lat="46.74775" lon="6.45239"><ele></ele><time>2024-11-27T13:12:28Z</time></trkpt>
<trkpt lat="46.74782" lon="6.45231"><ele></ele><time>2024-11-27T13:12:31Z</time></trkpt>
<trkpt lat="46.74786" lon="6.45226"><ele></ele><time>2024-11-27T13:12:34Z</time></trkpt>
<trkpt lat="46.74793" lon="6.45218"><ele></ele><time>2024-11-27T13:12:37Z</time></trkpt>
<trkpt lat="46.74798" lon="6.4521"><ele></ele><time>2024-11-27T13:12:40Z</time></trkpt>
<trkpt lat="46.74802" lon="6.45199"><ele></ele><time>2024-11-27T13:12:43Z</time></trkpt>
<trkpt lat="46.74804" lon="6.45189"><ele></ele><time>2024-11-27T13:12:46Z</time></trkpt>
<trkpt lat="46.74807" lon="6.4518"><ele></ele><time>2024-11-27T13:12:49Z</time></trkpt>
<trkpt lat="46.74807" lon="6.45178"><ele></ele><time>2024-11-27T13:12:52Z</time></trkpt>
<trkpt lat="46.74812" lon="6.45163"><ele></ele><time>2024-11-27T13:12:55Z</time></trkpt>
<trkpt lat="46.74814" lon="6.45156"><ele></ele><time>2024-11-27T13:12:58Z</time></trkpt>
<trkpt lat="46.74816" lon="6.45147"><ele></ele><time>2024-11-27T13:13:1Z</time></trkpt>
<trkpt lat="46.74818" lon="6.45134"><ele></ele><time>2024-11-27T13:13:4Z</time></trkpt>
<trkpt lat="46.74818" lon="6.45127"><ele></ele><time>2024-11-27T13:13:7Z</time></trkpt>
<trkpt lat="46.74816" lon="6.45116"><ele></ele><time>2024-11-27T13:13:10Z</time></trkpt>
<trkpt lat="46.7481" lon="6.45105"><ele></ele><time>2024-11-27T13:13:13Z</time></trkpt>
<trkpt lat="46.74806" lon="6.45101"><ele></ele><time>2024-11-27T13:13:16Z</time></trkpt>
<trkpt lat="46.74798" lon="6.45097"><ele></ele><time>2024-11-27T13:13:19Z</time></trkpt>
<trkpt lat="46.74791" lon="6.45097"><ele></ele><time>2024-11-27T13:13:22Z</time></trkpt>
<trkpt lat="46.74786" lon="6.45097"><ele></ele><time>2024-11-27T13:13:25Z</time></trkpt>
<trkpt lat="46.74775" lon="6.45095"><ele></ele><time>2024-11-27T13:13:28Z</time></trkpt>
<trkpt lat="46.74773" lon="6.45094"><ele></ele><time>2024-11-27T13:13:31Z</time></trkpt>
<trkpt lat="46.74762" lon="6.45092"><ele></ele><time>2024-11-27T13:13:34Z</time></trkpt>
<trkpt lat="46.7476" lon="6.45092"><ele></ele><time>2024-11-27T13:13:37Z</time></trkpt>
<trkpt lat="46.74749" lon="6.45091"><ele></ele><time>2024-11-27T13:13:40Z</time></trkpt>
<trkpt lat="46.74747" lon="6.4509"><ele></ele><time>2024-11-27T13:13:43Z</time></trkpt>
<trkpt lat="46.74736" lon="6.45085"><ele></ele><time>2024-11-27T13:13:46Z</time></trkpt>
<trkpt lat="46.74723" lon="6.45076"><ele></ele><time>2024-11-27T13:13:49Z</time></trkpt>
<trkpt lat="46.74712" lon="6.45071"><ele></ele><time>2024-11-27T13:13:52Z</time></trkpt>
<trkpt lat="46.7471" lon="6.45069"><ele></ele><time>2024-11-27T13:13:55Z</time></trkpt>
<trkpt lat="46.74701" lon="6.45056"><ele></ele><time>2024-11-27T13:13:58Z</time></trkpt>
<trkpt lat="46.747" lon="6.45054"><ele></ele><time>2024-11-27T13:14:1Z</time></trkpt>
<trkpt lat="46.74698" lon="6.45045"><ele></ele><time>2024-11-27T13:14:4Z</time></trkpt>
<trkpt lat="46.74697" lon="6.4504"><ele></ele><time>2024-11-27T13:14:7Z</time></trkpt>
<trkpt lat="46.74697" lon="6.45028"><ele></ele><time>2024-11-27T13:14:10Z</time></trkpt>
<trkpt lat="46.74697" lon="6.45016"><ele></ele><time>2024-11-27T13:14:13Z</time></trkpt>
<trkpt lat="46.74696" lon="6.45011"><ele></ele><time>2024-11-27T13:14:16Z</time></trkpt>
<trkpt lat="46.74694" lon="6.44992"><ele></ele><time>2024-11-27T13:14:19Z</time></trkpt>
<trkpt lat="46.74691" lon="6.44981"><ele></ele><time>2024-11-27T13:14:22Z</time></trkpt>
<trkpt lat="46.74688" lon="6.44971"><ele></ele><time>2024-11-27T13:14:25Z</time></trkpt>
<trkpt lat="46.74687" lon="6.4497"><ele></ele><time>2024-11-27T13:14:28Z</time></trkpt>
<trkpt lat="46.74683" lon="6.44954"><ele></ele><time>2024-11-27T13:14:31Z</time></trkpt>
<trkpt lat="46.74683" lon="6.44951"><ele></ele><time>2024-11-27T13:14:34Z</time></trkpt>
<trkpt lat="46.7468" lon="6.44936"><ele></ele><time>2024-11-27T13:14:37Z</time></trkpt>
<trkpt lat="46.74677" lon="6.4493"><ele></ele><time>2024-11-27T13:14:40Z</time></trkpt>
<trkpt lat="46.74675" lon="6.44925"><ele></ele><time>2024-11-27T13:14:43Z</time></trkpt>
<trkpt lat="46.74671" lon="6.44918"><ele></ele><time>2024-11-27T13:14:46Z</time></trkpt>
<trkpt lat="46.74668" lon="6.44915"><ele></ele><time>2024-11-27T13:14:49Z</time></trkpt>
<trkpt lat="46.74661" lon="6.44905"><ele></ele><time>2024-11-27T13:14:52Z</time></trkpt>
<trkpt lat="46.74658" lon="6.44902"><ele></ele><time>2024-11-27T13:14:55Z</time></trkpt>
<trkpt lat="46.74652" lon="6.44895"><ele></ele><time>2024-11-27T13:14:58Z</time></trkpt>
<trkpt lat="46.74649" lon="6.44892"><ele></ele><time>2024-11-27T13:15:1Z</time></trkpt>
<trkpt lat="46.74643" lon="6.44882"><ele></ele><time>2024-11-27T13:15:4Z</time></trkpt>
<trkpt lat="46.7464" lon="6.44877"><ele></ele><time>2024-11-27T13:15:7Z</time></trkpt>
<trkpt lat="46.74637" lon="6.44865"><ele></ele><time>2024-11-27T13:15:10Z</time></trkpt>
<trkpt lat="46.74636" lon="6.44863"><ele></ele><time>2024-11-27T13:15:13Z</time></trkpt>
<trkpt lat="46.74635" lon="6.44847"><ele></ele><time>2024-11-27T13:15:16Z</time></trkpt>
<trkpt lat="46.74635" lon="6.44844"><ele></ele><time>2024-11-27T13:15:19Z</time></trkpt>
<trkpt lat="46.74636" lon="6.44833"><ele></ele><time>2024-11-27T13:15:22Z</time></trkpt>
<trkpt lat="46.74635" lon="6.44825"><ele></ele><time>2024-11-27T13:15:25Z</time></trkpt>
<trkpt lat="46.74633" lon="6.44817"><ele></ele><time>2024-11-27T13:15:28Z</time></trkpt>
<trkpt lat="46.74632" lon="6.44813"><ele></ele><time>2024-11-27T13:15:31Z</time></trkpt>
<trkpt lat="46.7463" lon="6.44806"><ele></ele><time>2024-11-27T13:15:34Z</time></trkpt>
<trkpt lat="46.74628" lon="6.44801"><ele></ele><time>2024-11-27T13:15:37Z</time></trkpt>
<trkpt lat="46.74626" lon="6.44798"><ele></ele><time>2024-11-27T13:15:40Z</time></trkpt>
<trkpt lat="46.74622" lon="6.44796"><ele></ele><time>2024-11-27T13:15:43Z</time></trkpt>
<trkpt lat="46.74619" lon="6.44795"><ele></ele><time>2024-11-27T13:15:46Z</time></trkpt>
<trkpt lat="46.74613" lon="6.44789"><ele></ele><time>2024-11-27T13:15:49Z</time></trkpt>
<trkpt lat="46.7461" lon="6.44788"><ele></ele><time>2024-11-27T13:15:52Z</time></trkpt>
<trkpt lat="46.74603" lon="6.44785"><ele></ele><time>2024-11-27T13:15:55Z</time></trkpt>
<trkpt lat="46.74596" lon="6.44781"><ele></ele><time>2024-11-27T13:15:58Z</time></trkpt>
<trkpt lat="46.74593" lon="6.4478"><ele></ele><time>2024-11-27T13:16:1Z</time></trkpt>
<trkpt lat="46.74584" lon="6.44773"><ele></ele><time>2024-11-27T13:16:4Z</time></trkpt>
<trkpt lat="46.74583" lon="6.44771"><ele></ele><time>2024-11-27T13:16:7Z</time></trkpt>
<trkpt lat="46.74576" lon="6.44763"><ele></ele><time>2024-11-27T13:16:10Z</time></trkpt>
<trkpt lat="46.74574" lon="6.44762"><ele></ele><time>2024-11-27T13:16:13Z</time></trkpt>
<trkpt lat="46.74565" lon="6.44754"><ele></ele><time>2024-11-27T13:16:16Z</time></trkpt>
<trkpt lat="46.74562" lon="6.44751"><ele></ele><time>2024-11-27T13:16:19Z</time></trkpt>
<trkpt lat="46.74555" lon="6.44745"><ele></ele><time>2024-11-27T13:16:22Z</time></trkpt>
<trkpt lat="46.74544" lon="6.44739"><ele></ele><time>2024-11-27T13:16:25Z</time></trkpt>
<trkpt lat="46.74544" lon="6.44738"><ele></ele><time>2024-11-27T13:16:28Z</time></trkpt>
<trkpt lat="46.74537" lon="6.44732"><ele></ele><time>2024-11-27T13:16:31Z</time></trkpt>
<trkpt lat="46.74534" lon="6.4473"><ele></ele><time>2024-11-27T13:16:34Z</time></trkpt>
<trkpt lat="46.74527" lon="6.44722"><ele></ele><time>2024-11-27T13:16:37Z</time></trkpt>
<trkpt lat="46.74525" lon="6.44718"><ele></ele><time>2024-11-27T13:16:40Z</time></trkpt>
<trkpt lat="46.7452" lon="6.44709"><ele></ele><time>2024-11-27T13:16:43Z</time></trkpt>
<trkpt lat="46.74519" lon="6.44707"><ele></ele><time>2024-11-27T13:16:46Z</time></trkpt>
<trkpt lat="46.74512" lon="6.44698"><ele></ele><time>2024-11-27T13:16:49Z</time></trkpt>
<trkpt lat="46.7451" lon="6.44696"><ele></ele><time>2024-11-27T13:16:52Z</time></trkpt>
<trkpt lat="46.74502" lon="6.44687"><ele></ele><time>2024-11-27T13:16:55Z</time></trkpt>
<trkpt lat="46.74499" lon="6.44684"><ele></ele><time>2024-11-27T13:16:58Z</time></trkpt>
<trkpt lat="46.74493" lon="6.44679"><ele></ele><time>2024-11-27T13:17:1Z</time></trkpt>
<trkpt lat="46.74489" lon="6.44676"><ele></ele><time>2024-11-27T13:17:4Z</time></trkpt>
<trkpt lat="46.74485" lon="6.44669"><ele></ele><time>2024-11-27T13:17:7Z</time></trkpt>
<trkpt lat="46.74481" lon="6.44665"><ele></ele><time>2024-11-27T13:17:10Z</time></trkpt>
<trkpt lat="46.74468" lon="6.44654"><ele></ele><time>2024-11-27T13:17:13Z</time></trkpt>
<trkpt lat="46.74454" lon="6.44638"><ele></ele><time>2024-11-27T13:17:16Z</time></trkpt>
<trkpt lat="46.7445" lon="6.44634"><ele></ele><time>2024-11-27T13:17:19Z</time></trkpt>
<trkpt lat="46.74442" lon="6.44627"><ele></ele><time>2024-11-27T13:17:22Z</time></trkpt>
<trkpt lat="46.74437" lon="6.44622"><ele></ele><time>2024-11-27T13:17:25Z</time></trkpt>
<trkpt lat="46.74424" lon="6.44608"><ele></ele><time>2024-11-27T13:17:28Z</time></trkpt>
<trkpt lat="46.74417" lon="6.44601"><ele></ele><time>2024-11-27T13:17:31Z</time></trkpt>
<trkpt lat="46.74409" lon="6.44591"><ele></ele><time>2024-11-27T13:17:34Z</time></trkpt>
<trkpt lat="46.74401" lon="6.44582"><ele></ele><time>2024-11-27T13:17:37Z</time></trkpt>
<trkpt lat="46.74393" lon="6.44573"><ele></ele><time>2024-11-27T13:17:40Z</time></trkpt>
<trkpt lat="46.7438" lon="6.44558"><ele></ele><time>2024-11-27T13:17:43Z</time></trkpt>
<trkpt lat="46.74378" lon="6.44556"><ele></ele><time>2024-11-27T13:17:46Z</time></trkpt>
<trkpt lat="46.74359" lon="6.44534"><ele></ele><time>2024-11-27T13:17:49Z</time></trkpt>
<trkpt lat="46.74357" lon="6.44532"><ele></ele><time>2024-11-27T13:17:52Z</time></trkpt>
<trkpt lat="46.7434" lon="6.44512"><ele></ele><time>2024-11-27T13:17:55Z</time></trkpt>
<trkpt lat="46.74335" lon="6.44507"><ele></ele><time>2024-11-27T13:17:58Z</time></trkpt>
<trkpt lat="46.74324" lon="6.44494"><ele></ele><time>2024-11-27T13:18:1Z</time></trkpt>
<trkpt lat="46.74308" lon="6.4447"><ele></ele><time>2024-11-27T13:18:4Z</time></trkpt>
<trkpt lat="46.74306" lon="6.44464"><ele></ele><time>2024-11-27T13:18:7Z</time></trkpt>
<trkpt lat="46.74304" lon="6.44455"><ele></ele><time>2024-11-27T13:18:10Z</time></trkpt>
<trkpt lat="46.74303" lon="6.44453"><ele></ele><time>2024-11-27T13:18:13Z</time></trkpt>
<trkpt lat="46.74298" lon="6.4444"><ele></ele><time>2024-11-27T13:18:16Z</time></trkpt>
<trkpt lat="46.74293" lon="6.44424"><ele></ele><time>2024-11-27T13:18:19Z</time></trkpt>
<trkpt lat="46.74293" lon="6.44422"><ele></ele><time>2024-11-27T13:18:22Z</time></trkpt>
<trkpt lat="46.74288" lon="6.44409"><ele></ele><time>2024-11-27T13:18:25Z</time></trkpt>
<trkpt lat="46.74288" lon="6.44406"><ele></ele><time>2024-11-27T13:18:28Z</time></trkpt>
<trkpt lat="46.74285" lon="6.44393"><ele></ele><time>2024-11-27T13:18:31Z</time></trkpt>
<trkpt lat="46.74285" lon="6.4439"><ele></ele><time>2024-11-27T13:18:34Z</time></trkpt>
<trkpt lat="46.74279" lon="6.44374"><ele></ele><time>2024-11-27T13:18:37Z</time></trkpt>
<trkpt lat="46.74274" lon="6.44359"><ele></ele><time>2024-11-27T13:18:40Z</time></trkpt>
<trkpt lat="46.74274" lon="6.44356"><ele></ele><time>2024-11-27T13:18:43Z</time></trkpt>
<trkpt lat="46.7427" lon="6.44343"><ele></ele><time>2024-11-27T13:18:46Z</time></trkpt>
<trkpt lat="46.7427" lon="6.44341"><ele></ele><time>2024-11-27T13:18:49Z</time></trkpt>
<trkpt lat="46.74265" lon="6.44328"><ele></ele><time>2024-11-27T13:18:52Z</time></trkpt>
<trkpt lat="46.74263" lon="6.44323"><ele></ele><time>2024-11-27T13:18:55Z</time></trkpt>
<trkpt lat="46.74261" lon="6.44314"><ele></ele><time>2024-11-27T13:18:58Z</time></trkpt>
<trkpt lat="46.7426" lon="6.44305"><ele></ele><time>2024-11-27T13:19:1Z</time></trkpt>
<trkpt lat="46.7426" lon="6.44295"><ele></ele><time>2024-11-27T13:19:4Z</time></trkpt>
<trkpt lat="46.74259" lon="6.44286"><ele></ele><time>2024-11-27T13:19:7Z</time></trkpt>
<trkpt lat="46.74257" lon="6.44281"><ele></ele><time>2024-11-27T13:19:10Z</time></trkpt>
<trkpt lat="46.74257" lon="6.44279"><ele></ele><time>2024-11-27T13:19:13Z</time></trkpt>
<trkpt lat="46.74255" lon="6.44264"><ele></ele><time>2024-11-27T13:19:16Z</time></trkpt>
<trkpt lat="46.74255" lon="6.44262"><ele></ele><time>2024-11-27T13:19:19Z</time></trkpt>
<trkpt lat="46.74252" lon="6.44249"><ele></ele><time>2024-11-27T13:19:22Z</time></trkpt>
<trkpt lat="46.74251" lon="6.44245"><ele></ele><time>2024-11-27T13:19:25Z</time></trkpt>
<trkpt lat="46.74247" lon="6.44235"><ele></ele><time>2024-11-27T13:19:28Z</time></trkpt>
<trkpt lat="46.74244" lon="6.44228"><ele></ele><time>2024-11-27T13:19:31Z</time></trkpt>
<trkpt lat="46.74243" lon="6.44223"><ele></ele><time>2024-11-27T13:19:34Z</time></trkpt>
<trkpt lat="46.7424" lon="6.4421"><ele></ele><time>2024-11-27T13:19:37Z</time></trkpt>
<trkpt lat="46.7424" lon="6.44205"><ele></ele><time>2024-11-27T13:19:40Z</time></trkpt>
<trkpt lat="46.74236" lon="6.44191"><ele></ele><time>2024-11-27T13:19:43Z</time></trkpt>
<trkpt lat="46.74236" lon="6.44186"><ele></ele><time>2024-11-27T13:19:46Z</time></trkpt>
<trkpt lat="46.74233" lon="6.44171"><ele></ele><time>2024-11-27T13:19:49Z</time></trkpt>
<trkpt lat="46.74233" lon="6.44169"><ele></ele><time>2024-11-27T13:19:52Z</time></trkpt>
<trkpt lat="46.74228" lon="6.44156"><ele></ele><time>2024-11-27T13:19:55Z</time></trkpt>
<trkpt lat="46.74225" lon="6.44142"><ele></ele><time>2024-11-27T13:19:58Z</time></trkpt>
<trkpt lat="46.74223" lon="6.4413"><ele></ele><time>2024-11-27T13:20:1Z</time></trkpt>
<trkpt lat="46.74223" lon="6.44127"><ele></ele><time>2024-11-27T13:20:4Z</time></trkpt>
<trkpt lat="46.7422" lon="6.44117"><ele></ele><time>2024-11-27T13:20:7Z</time></trkpt>
<trkpt lat="46.74219" lon="6.44112"><ele></ele><time>2024-11-27T13:20:10Z</time></trkpt>
<trkpt lat="46.74217" lon="6.44101"><ele></ele><time>2024-11-27T13:20:13Z</time></trkpt>
<trkpt lat="46.74217" lon="6.44091"><ele></ele><time>2024-11-27T13:20:16Z</time></trkpt>
<trkpt lat="46.74216" lon="6.44083"><ele></ele><time>2024-11-27T13:20:19Z</time></trkpt>
<trkpt lat="46.74216" lon="6.44078"><ele></ele><time>2024-11-27T13:20:22Z</time></trkpt>
<trkpt lat="46.74215" lon="6.44074"><ele></ele><time>2024-11-27T13:20:25Z</time></trkpt>
<trkpt lat="46.74212" lon="6.44068"><ele></ele><time>2024-11-27T13:20:28Z</time></trkpt>
<trkpt lat="46.74211" lon="6.44065"><ele></ele><time>2024-11-27T13:20:31Z</time></trkpt>
<trkpt lat="46.74207" lon="6.44052"><ele></ele><time>2024-11-27T13:20:34Z</time></trkpt>
<trkpt lat="46.74208" lon="6.4405"><ele></ele><time>2024-11-27T13:20:37Z</time></trkpt>
<trkpt lat="46.74212" lon="6.44043"><ele></ele><time>2024-11-27T13:20:40Z</time></trkpt>
<trkpt lat="46.74214" lon="6.44031"><ele></ele><time>2024-11-27T13:20:43Z</time></trkpt>
<trkpt lat="46.74214" lon="6.44029"><ele></ele><time>2024-11-27T13:20:46Z</time></trkpt>
<trkpt lat="46.74214" lon="6.44016"><ele></ele><time>2024-11-27T13:20:49Z</time></trkpt>
<trkpt lat="46.74215" lon="6.4401"><ele></ele><time>2024-11-27T13:20:52Z</time></trkpt>
<trkpt lat="46.74215" lon="6.44003"><ele></ele><time>2024-11-27T13:20:55Z</time></trkpt>
<trkpt lat="46.74215" lon="6.43999"><ele></ele><time>2024-11-27T13:20:58Z</time></trkpt>
<trkpt lat="46.74215" lon="6.43998"><ele></ele><time>2024-11-27T13:21:1Z</time></trkpt>
<trkpt lat="46.74215" lon="6.43991"><ele></ele><time>2024-11-27T13:21:4Z</time></trkpt>
<trkpt lat="46.74215" lon="6.43983"><ele></ele><time>2024-11-27T13:21:7Z</time></trkpt>
<trkpt lat="46.74215" lon="6.43976"><ele></ele><time>2024-11-27T13:21:10Z</time></trkpt>
<trkpt lat="46.74216" lon="6.4396"><ele></ele><time>2024-11-27T13:21:13Z</time></trkpt>
<trkpt lat="46.74216" lon="6.43956"><ele></ele><time>2024-11-27T13:21:16Z</time></trkpt>
<trkpt lat="46.74217" lon="6.43946"><ele></ele><time>2024-11-27T13:21:19Z</time></trkpt>
<trkpt lat="46.74217" lon="6.4394"><ele></ele><time>2024-11-27T13:21:22Z</time></trkpt>
<trkpt lat="46.74217" lon="6.43934"><ele></ele><time>2024-11-27T13:21:25Z</time></trkpt>
<trkpt lat="46.74218" lon="6.43925"><ele></ele><time>2024-11-27T13:21:28Z</time></trkpt>
<trkpt lat="46.7422" lon="6.43919"><ele></ele><time>2024-11-27T13:21:31Z</time></trkpt>
<trkpt lat="46.74223" lon="6.43907"><ele></ele><time>2024-11-27T13:21:34Z</time></trkpt>
<trkpt lat="46.74223" lon="6.43905"><ele></ele><time>2024-11-27T13:21:37Z</time></trkpt>
<trkpt lat="46.74226" lon="6.43895"><ele></ele><time>2024-11-27T13:21:40Z</time></trkpt>
<trkpt lat="46.74228" lon="6.43891"><ele></ele><time>2024-11-27T13:21:43Z</time></trkpt>
<trkpt lat="46.7423" lon="6.43884"><ele></ele><time>2024-11-27T13:21:46Z</time></trkpt>
<trkpt lat="46.74231" lon="6.43875"><ele></ele><time>2024-11-27T13:21:49Z</time></trkpt>
<trkpt lat="46.74232" lon="6.43863"><ele></ele><time>2024-11-27T13:21:52Z</time></trkpt>
<trkpt lat="46.74232" lon="6.43858"><ele></ele><time>2024-11-27T13:21:55Z</time></trkpt>
<trkpt lat="46.7423" lon="6.43845"><ele></ele><time>2024-11-27T13:21:58Z</time></trkpt>
<trkpt lat="46.74229" lon="6.43841"><ele></ele><time>2024-11-27T13:22:1Z</time></trkpt>
<trkpt lat="46.74228" lon="6.43832"><ele></ele><time>2024-11-27T13:22:4Z</time></trkpt>
<trkpt lat="46.74227" lon="6.43828"><ele></ele><time>2024-11-27T13:22:7Z</time></trkpt>
<trkpt lat="46.74224" lon="6.43814"><ele></ele><time>2024-11-27T13:22:10Z</time></trkpt>
<trkpt lat="46.74223" lon="6.4381"><ele></ele><time>2024-11-27T13:22:13Z</time></trkpt>
<trkpt lat="46.74221" lon="6.43802"><ele></ele><time>2024-11-27T13:22:16Z</time></trkpt>
<trkpt lat="46.7422" lon="6.43789"><ele></ele><time>2024-11-27T13:22:19Z</time></trkpt>
<trkpt lat="46.7422" lon="6.43788"><ele></ele><time>2024-11-27T13:22:22Z</time></trkpt>
<trkpt lat="46.74218" lon="6.43776"><ele></ele><time>2024-11-27T13:22:25Z</time></trkpt>
<trkpt lat="46.74218" lon="6.43772"><ele></ele><time>2024-11-27T13:22:28Z</time></trkpt>
<trkpt lat="46.74218" lon="6.43764"><ele></ele><time>2024-11-27T13:22:31Z</time></trkpt>
<trkpt lat="46.74218" lon="6.43761"><ele></ele><time>2024-11-27T13:22:34Z</time></trkpt>
<trkpt lat="46.74217" lon="6.43747"><ele></ele><time>2024-11-27T13:22:37Z</time></trkpt>
<trkpt lat="46.74217" lon="6.43745"><ele></ele><time>2024-11-27T13:22:40Z</time></trkpt>
<trkpt lat="46.74221" lon="6.43731"><ele></ele><time>2024-11-27T13:22:43Z</time></trkpt>
<trkpt lat="46.74222" lon="6.43727"><ele></ele><time>2024-11-27T13:22:46Z</time></trkpt>
<trkpt lat="46.74225" lon="6.43716"><ele></ele><time>2024-11-27T13:22:49Z</time></trkpt>
<trkpt lat="46.74228" lon="6.43709"><ele></ele><time>2024-11-27T13:22:52Z</time></trkpt>
<trkpt lat="46.74231" lon="6.43701"><ele></ele><time>2024-11-27T13:22:55Z</time></trkpt>
<trkpt lat="46.74233" lon="6.43696"><ele></ele><time>2024-11-27T13:22:58Z</time></trkpt>
<trkpt lat="46.74234" lon="6.43687"><ele></ele><time>2024-11-27T13:23:1Z</time></trkpt>
<trkpt lat="46.74236" lon="6.43675"><ele></ele><time>2024-11-27T13:23:4Z</time></trkpt>
<trkpt lat="46.74237" lon="6.43673"><ele></ele><time>2024-11-27T13:23:7Z</time></trkpt>
<trkpt lat="46.7424" lon="6.43656"><ele></ele><time>2024-11-27T13:23:10Z</time></trkpt>
<trkpt lat="46.74241" lon="6.43654"><ele></ele><time>2024-11-27T13:23:13Z</time></trkpt>
<trkpt lat="46.74244" lon="6.43642"><ele></ele><time>2024-11-27T13:23:16Z</time></trkpt>
<trkpt lat="46.74245" lon="6.4364"><ele></ele><time>2024-11-27T13:23:19Z</time></trkpt>
<trkpt lat="46.74249" lon="6.43628"><ele></ele><time>2024-11-27T13:23:22Z</time></trkpt>
<trkpt lat="46.74254" lon="6.43615"><ele></ele><time>2024-11-27T13:23:25Z</time></trkpt>
<trkpt lat="46.74255" lon="6.43613"><ele></ele><time>2024-11-27T13:23:28Z</time></trkpt>
<trkpt lat="46.74259" lon="6.43601"><ele></ele><time>2024-11-27T13:23:31Z</time></trkpt>
<trkpt lat="46.74263" lon="6.43594"><ele></ele><time>2024-11-27T13:23:34Z</time></trkpt>
<trkpt lat="46.74265" lon="6.43589"><ele></ele><time>2024-11-27T13:23:37Z</time></trkpt>
<trkpt lat="46.74268" lon="6.43582"><ele></ele><time>2024-11-27T13:23:40Z</time></trkpt>
<trkpt lat="46.74271" lon="6.43575"><ele></ele><time>2024-11-27T13:23:43Z</time></trkpt>
<trkpt lat="46.74273" lon="6.43568"><ele></ele><time>2024-11-27T13:23:46Z</time></trkpt>
<trkpt lat="46.74276" lon="6.43564"><ele></ele><time>2024-11-27T13:23:49Z</time></trkpt>
<trkpt lat="46.74282" lon="6.43553"><ele></ele><time>2024-11-27T13:23:52Z</time></trkpt>
<trkpt lat="46.74286" lon="6.43541"><ele></ele><time>2024-11-27T13:23:55Z</time></trkpt>
<trkpt lat="46.74287" lon="6.43539"><ele></ele><time>2024-11-27T13:23:58Z</time></trkpt>
<trkpt lat="46.74293" lon="6.43528"><ele></ele><time>2024-11-27T13:24:1Z</time></trkpt>
<trkpt lat="46.74294" lon="6.43525"><ele></ele><time>2024-11-27T13:24:4Z</time></trkpt>
<trkpt lat="46.74298" lon="6.43517"><ele></ele><time>2024-11-27T13:24:7Z</time></trkpt>
<trkpt lat="46.743" lon="6.43511"><ele></ele><time>2024-11-27T13:24:10Z</time></trkpt>
<trkpt lat="46.74305" lon="6.43503"><ele></ele><time>2024-11-27T13:24:13Z</time></trkpt>
<trkpt lat="46.74307" lon="6.43498"><ele></ele><time>2024-11-27T13:24:16Z</time></trkpt>
<trkpt lat="46.74311" lon="6.43491"><ele></ele><time>2024-11-27T13:24:19Z</time></trkpt>
<trkpt lat="46.74313" lon="6.43487"><ele></ele><time>2024-11-27T13:24:22Z</time></trkpt>
<trkpt lat="46.74319" lon="6.43473"><ele></ele><time>2024-11-27T13:24:25Z</time></trkpt>
<trkpt lat="46.74326" lon="6.4346"><ele></ele><time>2024-11-27T13:24:28Z</time></trkpt>
<trkpt lat="46.74334" lon="6.43448"><ele></ele><time>2024-11-27T13:24:31Z</time></trkpt>
<trkpt lat="46.74336" lon="6.43445"><ele></ele><time>2024-11-27T13:24:34Z</time></trkpt>
<trkpt lat="46.74343" lon="6.43434"><ele></ele><time>2024-11-27T13:24:37Z</time></trkpt>
<trkpt lat="46.74347" lon="6.43427"><ele></ele><time>2024-11-27T13:24:40Z</time></trkpt>
<trkpt lat="46.7435" lon="6.4342"><ele></ele><time>2024-11-27T13:24:43Z</time></trkpt>
<trkpt lat="46.74353" lon="6.43415"><ele></ele><time>2024-11-27T13:24:46Z</time></trkpt>
<trkpt lat="46.7436" lon="6.43406"><ele></ele><time>2024-11-27T13:24:49Z</time></trkpt>
<trkpt lat="46.74362" lon="6.43403"><ele></ele><time>2024-11-27T13:24:52Z</time></trkpt>
<trkpt lat="46.74371" lon="6.43391"><ele></ele><time>2024-11-27T13:24:55Z</time></trkpt>
<trkpt lat="46.74375" lon="6.43385"><ele></ele><time>2024-11-27T13:24:58Z</time></trkpt>
<trkpt lat="46.74385" lon="6.4338"><ele></ele><time>2024-11-27T13:25:1Z</time></trkpt>
<trkpt lat="46.74391" lon="6.43379"><ele></ele><time>2024-11-27T13:25:4Z</time></trkpt>
<trkpt lat="46.74396" lon="6.43379"><ele></ele><time>2024-11-27T13:25:7Z</time></trkpt>
<trkpt lat="46.74402" lon="6.43381"><ele></ele><time>2024-11-27T13:25:10Z</time></trkpt>
<trkpt lat="46.74408" lon="6.43385"><ele></ele><time>2024-11-27T13:25:13Z</time></trkpt>
<trkpt lat="46.74415" lon="6.43391"><ele></ele><time>2024-11-27T13:25:16Z</time></trkpt>
<trkpt lat="46.74421" lon="6.43396"><ele></ele><time>2024-11-27T13:25:19Z</time></trkpt>
<trkpt lat="46.74426" lon="6.43401"><ele></ele><time>2024-11-27T13:25:22Z</time></trkpt>
<trkpt lat="46.74434" lon="6.43407"><ele></ele><time>2024-11-27T13:25:25Z</time></trkpt>
<trkpt lat="46.74439" lon="6.43412"><ele></ele><time>2024-11-27T13:25:28Z</time></trkpt>
<trkpt lat="46.74448" lon="6.43416"><ele></ele><time>2024-11-27T13:25:31Z</time></trkpt>
<trkpt lat="46.74457" lon="6.43421"><ele></ele><time>2024-11-27T13:25:34Z</time></trkpt>
<trkpt lat="46.74463" lon="6.43423"><ele></ele><time>2024-11-27T13:25:37Z</time></trkpt>
<trkpt lat="46.74474" lon="6.43425"><ele></ele><time>2024-11-27T13:25:40Z</time></trkpt>
<trkpt lat="46.74478" lon="6.43425"><ele></ele><time>2024-11-27T13:25:43Z</time></trkpt>
<trkpt lat="46.74481" lon="6.43424"><ele></ele><time>2024-11-27T13:25:46Z</time></trkpt>
<trkpt lat="46.74494" lon="6.43417"><ele></ele><time>2024-11-27T13:25:49Z</time></trkpt>
<trkpt lat="46.74508" lon="6.43405"><ele></ele><time>2024-11-27T13:25:52Z</time></trkpt>
<trkpt lat="46.74525" lon="6.43381"><ele></ele><time>2024-11-27T13:25:55Z</time></trkpt>
<trkpt lat="46.74531" lon="6.4337"><ele></ele><time>2024-11-27T13:25:58Z</time></trkpt>
<trkpt lat="46.74538" lon="6.43357"><ele></ele><time>2024-11-27T13:26:1Z</time></trkpt>
<trkpt lat="46.74547" lon="6.43338"><ele></ele><time>2024-11-27T13:26:4Z</time></trkpt>
<trkpt lat="46.74551" lon="6.43328"><ele></ele><time>2024-11-27T13:26:7Z</time></trkpt>
<trkpt lat="46.74555" lon="6.43306"><ele></ele><time>2024-11-27T13:26:10Z</time></trkpt>
<trkpt lat="46.74554" lon="6.43274"><ele></ele><time>2024-11-27T13:26:13Z</time></trkpt>
<trkpt lat="46.74546" lon="6.43215"><ele></ele><time>2024-11-27T13:26:16Z</time></trkpt>
<trkpt lat="46.74544" lon="6.43171"><ele></ele><time>2024-11-27T13:26:19Z</time></trkpt>
<trkpt lat="46.74545" lon="6.4316"><ele></ele><time>2024-11-27T13:26:22Z</time></trkpt>
<trkpt lat="46.7455" lon="6.4313"><ele></ele><time>2024-11-27T13:26:25Z</time></trkpt>
<trkpt lat="46.74551" lon="6.431"><ele></ele><time>2024-11-27T13:26:28Z</time></trkpt>
<trkpt lat="46.7455" lon="6.43094"><ele></ele><time>2024-11-27T13:26:31Z</time></trkpt>
<trkpt lat="46.74549" lon="6.43088"><ele></ele><time>2024-11-27T13:26:34Z</time></trkpt>
<trkpt lat="46.7454" lon="6.43064"><ele></ele><time>2024-11-27T13:26:37Z</time></trkpt>
<trkpt lat="46.74518" lon="6.43009"><ele></ele><time>2024-11-27T13:26:40Z</time></trkpt>
<trkpt lat="46.74507" lon="6.42977"><ele></ele><time>2024-11-27T13:26:43Z</time></trkpt>
<trkpt lat="46.74501" lon="6.42963"><ele></ele><time>2024-11-27T13:26:46Z</time></trkpt>
<trkpt lat="46.74487" lon="6.42927"><ele></ele><time>2024-11-27T13:26:49Z</time></trkpt>
<trkpt lat="46.74486" lon="6.42905"><ele></ele><time>2024-11-27T13:26:52Z</time></trkpt>
<trkpt lat="46.74488" lon="6.42902"><ele></ele><time>2024-11-27T13:26:55Z</time></trkpt>
<trkpt lat="46.74492" lon="6.42901"><ele></ele><time>2024-11-27T13:26:58Z</time></trkpt>
<trkpt lat="46.74495" lon="6.42903"><ele></ele><time>2024-11-27T13:27:1Z</time></trkpt>
<trkpt lat="46.74499" lon="6.42911"><ele></ele><time>2024-11-27T13:27:4Z</time></trkpt>
<trkpt lat="46.74503" lon="6.42921"><ele></ele><time>2024-11-27T13:27:7Z</time></trkpt>
<trkpt lat="46.74511" lon="6.42942"><ele></ele><time>2024-11-27T13:27:10Z</time></trkpt>
<trkpt lat="46.74514" lon="6.42948"><ele></ele><time>2024-11-27T13:27:13Z</time></trkpt>
<trkpt lat="46.74518" lon="6.42957"><ele></ele><time>2024-11-27T13:27:16Z</time></trkpt>
<trkpt lat="46.74523" lon="6.42966"><ele></ele><time>2024-11-27T13:27:19Z</time></trkpt>
<trkpt lat="46.74525" lon="6.42968"><ele></ele><time>2024-11-27T13:27:22Z</time></trkpt>
<trkpt lat="46.74536" lon="6.42984"><ele></ele><time>2024-11-27T13:27:25Z</time></trkpt>
<trkpt lat="46.74538" lon="6.4299"><ele></ele><time>2024-11-27T13:27:28Z</time></trkpt>
<trkpt lat="46.74546" lon="6.43"><ele></ele><time>2024-11-27T13:27:31Z</time></trkpt>
<trkpt lat="46.74549" lon="6.43007"><ele></ele><time>2024-11-27T13:27:34Z</time></trkpt>
<trkpt lat="46.74556" lon="6.43018"><ele></ele><time>2024-11-27T13:27:37Z</time></trkpt>
<trkpt lat="46.74557" lon="6.4302"><ele></ele><time>2024-11-27T13:27:40Z</time></trkpt>
<trkpt lat="46.74564" lon="6.43034"><ele></ele><time>2024-11-27T13:27:43Z</time></trkpt>
<trkpt lat="46.74567" lon="6.43038"><ele></ele><time>2024-11-27T13:27:46Z</time></trkpt>
<trkpt lat="46.74572" lon="6.43045"><ele></ele><time>2024-11-27T13:27:49Z</time></trkpt>
<trkpt lat="46.74577" lon="6.43054"><ele></ele><time>2024-11-27T13:27:52Z</time></trkpt>
<trkpt lat="46.74584" lon="6.43064"><ele></ele><time>2024-11-27T13:27:55Z</time></trkpt>
<trkpt lat="46.74588" lon="6.43068"><ele></ele><time>2024-11-27T13:27:58Z</time></trkpt>
<trkpt lat="46.74599" lon="6.43078"><ele></ele><time>2024-11-27T13:28:1Z</time></trkpt>
<trkpt lat="46.74601" lon="6.43079"><ele></ele><time>2024-11-27T13:28:4Z</time></trkpt>
<trkpt lat="46.74613" lon="6.43089"><ele></ele><time>2024-11-27T13:28:7Z</time></trkpt>
<trkpt lat="46.74624" lon="6.43101"><ele></ele><time>2024-11-27T13:28:10Z</time></trkpt>
<trkpt lat="46.74629" lon="6.43113"><ele></ele><time>2024-11-27T13:28:13Z</time></trkpt>
<trkpt lat="46.7463" lon="6.43117"><ele></ele><time>2024-11-27T13:28:16Z</time></trkpt>
<trkpt lat="46.74631" lon="6.43127"><ele></ele><time>2024-11-27T13:28:19Z</time></trkpt>
<trkpt lat="46.74633" lon="6.43132"><ele></ele><time>2024-11-27T13:28:22Z</time></trkpt>
<trkpt lat="46.74636" lon="6.43141"><ele></ele><time>2024-11-27T13:28:25Z</time></trkpt>
<trkpt lat="46.74636" lon="6.43143"><ele></ele><time>2024-11-27T13:28:28Z</time></trkpt>
<trkpt lat="46.74641" lon="6.43151"><ele></ele><time>2024-11-27T13:28:31Z</time></trkpt>
<trkpt lat="46.74642" lon="6.43153"><ele></ele><time>2024-11-27T13:28:34Z</time></trkpt>
<trkpt lat="46.74646" lon="6.43167"><ele></ele><time>2024-11-27T13:28:37Z</time></trkpt>
<trkpt lat="46.74647" lon="6.4317"><ele></ele><time>2024-11-27T13:28:40Z</time></trkpt>
<trkpt lat="46.74652" lon="6.43184"><ele></ele><time>2024-11-27T13:28:43Z</time></trkpt>
<trkpt lat="46.74655" lon="6.43196"><ele></ele><time>2024-11-27T13:28:46Z</time></trkpt>
<trkpt lat="46.74656" lon="6.43198"><ele></ele><time>2024-11-27T13:28:49Z</time></trkpt>
<trkpt lat="46.7466" lon="6.43209"><ele></ele><time>2024-11-27T13:28:52Z</time></trkpt>
<trkpt lat="46.74662" lon="6.43216"><ele></ele><time>2024-11-27T13:28:55Z</time></trkpt>
<trkpt lat="46.74667" lon="6.43225"><ele></ele><time>2024-11-27T13:28:58Z</time></trkpt>
<trkpt lat="46.7467" lon="6.43235"><ele></ele><time>2024-11-27T13:29:1Z</time></trkpt>
<trkpt lat="46.74672" lon="6.43241"><ele></ele><time>2024-11-27T13:29:4Z</time></trkpt>
<trkpt lat="46.74677" lon="6.43253"><ele></ele><time>2024-11-27T13:29:7Z</time></trkpt>
<trkpt lat="46.74677" lon="6.43255"><ele></ele><time>2024-11-27T13:29:10Z</time></trkpt>
<trkpt lat="46.74682" lon="6.43268"><ele></ele><time>2024-11-27T13:29:13Z</time></trkpt>
<trkpt lat="46.74685" lon="6.43273"><ele></ele><time>2024-11-27T13:29:16Z</time></trkpt>
<trkpt lat="46.7469" lon="6.43284"><ele></ele><time>2024-11-27T13:29:19Z</time></trkpt>
<trkpt lat="46.7469" lon="6.43286"><ele></ele><time>2024-11-27T13:29:22Z</time></trkpt>
<trkpt lat="46.74694" lon="6.43298"><ele></ele><time>2024-11-27T13:29:25Z</time></trkpt>
<trkpt lat="46.74696" lon="6.43302"><ele></ele><time>2024-11-27T13:29:28Z</time></trkpt>
<trkpt lat="46.747" lon="6.43312"><ele></ele><time>2024-11-27T13:29:31Z</time></trkpt>
<trkpt lat="46.74702" lon="6.43317"><ele></ele><time>2024-11-27T13:29:34Z</time></trkpt>
<trkpt lat="46.74707" lon="6.43327"><ele></ele><time>2024-11-27T13:29:37Z</time></trkpt>
<trkpt lat="46.74708" lon="6.43329"><ele></ele><time>2024-11-27T13:29:40Z</time></trkpt>
<trkpt lat="46.74713" lon="6.43345"><ele></ele><time>2024-11-27T13:29:43Z</time></trkpt>
<trkpt lat="46.74719" lon="6.4336"><ele></ele><time>2024-11-27T13:29:46Z</time></trkpt>
<trkpt lat="46.74723" lon="6.43375"><ele></ele><time>2024-11-27T13:29:49Z</time></trkpt>
<trkpt lat="46.74724" lon="6.43376"><ele></ele><time>2024-11-27T13:29:52Z</time></trkpt>
<trkpt lat="46.74726" lon="6.4339"><ele></ele><time>2024-11-27T13:29:55Z</time></trkpt>
<trkpt lat="46.74727" lon="6.43392"><ele></ele><time>2024-11-27T13:29:58Z</time></trkpt>
<trkpt lat="46.74729" lon="6.43407"><ele></ele><time>2024-11-27T13:30:1Z</time></trkpt>
<trkpt lat="46.74729" lon="6.43411"><ele></ele><time>2024-11-27T13:30:4Z</time></trkpt>
<trkpt lat="46.74731" lon="6.43426"><ele></ele><time>2024-11-27T13:30:7Z</time></trkpt>
<trkpt lat="46.74731" lon="6.43431"><ele></ele><time>2024-11-27T13:30:10Z</time></trkpt>
<trkpt lat="46.74733" lon="6.4344"><ele></ele><time>2024-11-27T13:30:13Z</time></trkpt>
<trkpt lat="46.74737" lon="6.43458"><ele></ele><time>2024-11-27T13:30:16Z</time></trkpt>
<trkpt lat="46.74738" lon="6.43463"><ele></ele><time>2024-11-27T13:30:19Z</time></trkpt>
<trkpt lat="46.7474" lon="6.4347"><ele></ele><time>2024-11-27T13:30:22Z</time></trkpt>
<trkpt lat="46.74743" lon="6.43479"><ele></ele><time>2024-11-27T13:30:25Z</time></trkpt>
<trkpt lat="46.74751" lon="6.43499"><ele></ele><time>2024-11-27T13:30:28Z</time></trkpt>
<trkpt lat="46.74758" lon="6.43516"><ele></ele><time>2024-11-27T13:30:31Z</time></trkpt>
<trkpt lat="46.7476" lon="6.43521"><ele></ele><time>2024-11-27T13:30:34Z</time></trkpt>
<trkpt lat="46.74762" lon="6.43534"><ele></ele><time>2024-11-27T13:30:37Z</time></trkpt>
<trkpt lat="46.74766" lon="6.43551"><ele></ele><time>2024-11-27T13:30:40Z</time></trkpt>
<trkpt lat="46.74767" lon="6.43557"><ele></ele><time>2024-11-27T13:30:43Z</time></trkpt>
<trkpt lat="46.7477" lon="6.43569"><ele></ele><time>2024-11-27T13:30:46Z</time></trkpt>
<trkpt lat="46.74775" lon="6.43588"><ele></ele><time>2024-11-27T13:30:49Z</time></trkpt>
<trkpt lat="46.74776" lon="6.43595"><ele></ele><time>2024-11-27T13:30:52Z</time></trkpt>
<trkpt lat="46.74778" lon="6.43624"><ele></ele><time>2024-11-27T13:30:55Z</time></trkpt>
<trkpt lat="46.74778" lon="6.43627"><ele></ele><time>2024-11-27T13:30:58Z</time></trkpt>
<trkpt lat="46.74778" lon="6.43645"><ele></ele><time>2024-11-27T13:31:1Z</time></trkpt>
<trkpt lat="46.74777" lon="6.43668"><ele></ele><time>2024-11-27T13:31:4Z</time></trkpt>
<trkpt lat="46.74776" lon="6.43681"><ele></ele><time>2024-11-27T13:31:7Z</time></trkpt>
<trkpt lat="46.74774" lon="6.43707"><ele></ele><time>2024-11-27T13:31:10Z</time></trkpt>
<trkpt lat="46.74774" lon="6.4371"><ele></ele><time>2024-11-27T13:31:13Z</time></trkpt>
<trkpt lat="46.74776" lon="6.4373"><ele></ele><time>2024-11-27T13:31:16Z</time></trkpt>
<trkpt lat="46.74776" lon="6.43734"><ele></ele><time>2024-11-27T13:31:19Z</time></trkpt>
<trkpt lat="46.74781" lon="6.43766"><ele></ele><time>2024-11-27T13:31:22Z</time></trkpt>
<trkpt lat="46.74785" lon="6.43785"><ele></ele><time>2024-11-27T13:31:25Z</time></trkpt>
<trkpt lat="46.74786" lon="6.43791"><ele></ele><time>2024-11-27T13:31:28Z</time></trkpt>
<trkpt lat="46.74787" lon="6.43794"><ele></ele><time>2024-11-27T13:31:31Z</time></trkpt>
<trkpt lat="46.7479" lon="6.43813"><ele></ele><time>2024-11-27T13:31:34Z</time></trkpt>
<trkpt lat="46.74791" lon="6.43821"><ele></ele><time>2024-11-27T13:31:37Z</time></trkpt>
<trkpt lat="46.74793" lon="6.43833"><ele></ele><time>2024-11-27T13:31:40Z</time></trkpt>
<trkpt lat="46.74794" lon="6.43844"><ele></ele><time>2024-11-27T13:31:43Z</time></trkpt>
<trkpt lat="46.74795" lon="6.43849"><ele></ele><time>2024-11-27T13:31:46Z</time></trkpt>
<trkpt lat="46.74799" lon="6.43869"><ele></ele><time>2024-11-27T13:31:49Z</time></trkpt>
<trkpt lat="46.748" lon="6.43874"><ele></ele><time>2024-11-27T13:31:52Z</time></trkpt>
<trkpt lat="46.74803" lon="6.43894"><ele></ele><time>2024-11-27T13:31:55Z</time></trkpt>
<trkpt lat="46.74803" lon="6.43897"><ele></ele><time>2024-11-27T13:31:58Z</time></trkpt>
<trkpt lat="46.74805" lon="6.43906"><ele></ele><time>2024-11-27T13:32:1Z</time></trkpt>
<trkpt lat="46.74806" lon="6.43914"><ele></ele><time>2024-11-27T13:32:4Z</time></trkpt>
<trkpt lat="46.7481" lon="6.43936"><ele></ele><time>2024-11-27T13:32:7Z</time></trkpt>
<trkpt lat="46.74812" lon="6.43953"><ele></ele><time>2024-11-27T13:32:10Z</time></trkpt>
<trkpt lat="46.74816" lon="6.43974"><ele></ele><time>2024-11-27T13:32:13Z</time></trkpt>
<trkpt lat="46.74816" lon="6.43976"><ele></ele><time>2024-11-27T13:32:16Z</time></trkpt>
<trkpt lat="46.7482" lon="6.43993"><ele></ele><time>2024-11-27T13:32:19Z</time></trkpt>
<trkpt lat="46.74821" lon="6.43998"><ele></ele><time>2024-11-27T13:32:22Z</time></trkpt>
<trkpt lat="46.74824" lon="6.4401"><ele></ele><time>2024-11-27T13:32:25Z</time></trkpt>
<trkpt lat="46.74827" lon="6.44017"><ele></ele><time>2024-11-27T13:32:28Z</time></trkpt>
<trkpt lat="46.74834" lon="6.44036"><ele></ele><time>2024-11-27T13:32:31Z</time></trkpt>
<trkpt lat="46.74836" lon="6.4404"><ele></ele><time>2024-11-27T13:32:34Z</time></trkpt>
<trkpt lat="46.74841" lon="6.44051"><ele></ele><time>2024-11-27T13:32:37Z</time></trkpt>
<trkpt lat="46.74845" lon="6.44058"><ele></ele><time>2024-11-27T13:32:40Z</time></trkpt>
<trkpt lat="46.74846" lon="6.4406"><ele></ele><time>2024-11-27T13:32:43Z</time></trkpt>
<trkpt lat="46.74851" lon="6.44069"><ele></ele><time>2024-11-27T13:32:46Z</time></trkpt>
<trkpt lat="46.74854" lon="6.44076"><ele></ele><time>2024-11-27T13:32:49Z</time></trkpt>
<trkpt lat="46.7486" lon="6.44088"><ele></ele><time>2024-11-27T13:32:52Z</time></trkpt>
<trkpt lat="46.74863" lon="6.44092"><ele></ele><time>2024-11-27T13:32:55Z</time></trkpt>
<trkpt lat="46.7487" lon="6.44098"><ele></ele><time>2024-11-27T13:32:58Z</time></trkpt>
<trkpt lat="46.74871" lon="6.44101"><ele></ele><time>2024-11-27T13:33:1Z</time></trkpt>
<trkpt lat="46.74872" lon="6.44104"><ele></ele><time>2024-11-27T13:33:4Z</time></trkpt>
<trkpt lat="46.7488" lon="6.44119"><ele></ele><time>2024-11-27T13:33:7Z</time></trkpt>
<trkpt lat="46.74889" lon="6.44135"><ele></ele><time>2024-11-27T13:33:10Z</time></trkpt>
<trkpt lat="46.74893" lon="6.44141"><ele></ele><time>2024-11-27T13:33:13Z</time></trkpt>
<trkpt lat="46.74897" lon="6.44151"><ele></ele><time>2024-11-27T13:33:16Z</time></trkpt>
<trkpt lat="46.74902" lon="6.44159"><ele></ele><time>2024-11-27T13:33:19Z</time></trkpt>
<trkpt lat="46.74906" lon="6.4417"><ele></ele><time>2024-11-27T13:33:22Z</time></trkpt>
<trkpt lat="46.74909" lon="6.4418"><ele></ele><time>2024-11-27T13:33:25Z</time></trkpt>
<trkpt lat="46.74913" lon="6.44189"><ele></ele><time>2024-11-27T13:33:28Z</time></trkpt>
<trkpt lat="46.74914" lon="6.44195"><ele></ele><time>2024-11-27T13:33:31Z</time></trkpt>
<trkpt lat="46.74919" lon="6.44207"><ele></ele><time>2024-11-27T13:33:34Z</time></trkpt>
<trkpt lat="46.74924" lon="6.4422"><ele></ele><time>2024-11-27T13:33:37Z</time></trkpt>
<trkpt lat="46.74925" lon="6.44222"><ele></ele><time>2024-11-27T13:33:40Z</time></trkpt>
<trkpt lat="46.74932" lon="6.44243"><ele></ele><time>2024-11-27T13:33:43Z</time></trkpt>
<trkpt lat="46.74933" lon="6.44246"><ele></ele><time>2024-11-27T13:33:46Z</time></trkpt>
<trkpt lat="46.74939" lon="6.44264"><ele></ele><time>2024-11-27T13:33:49Z</time></trkpt>
<trkpt lat="46.74941" lon="6.44269"><ele></ele><time>2024-11-27T13:33:52Z</time></trkpt>
<trkpt lat="46.74944" lon="6.44283"><ele></ele><time>2024-11-27T13:33:55Z</time></trkpt>
<trkpt lat="46.74945" lon="6.44291"><ele></ele><time>2024-11-27T13:33:58Z</time></trkpt>
<trkpt lat="46.74949" lon="6.44304"><ele></ele><time>2024-11-27T13:34:1Z</time></trkpt>
<trkpt lat="46.74954" lon="6.44319"><ele></ele><time>2024-11-27T13:34:4Z</time></trkpt>
<trkpt lat="46.74957" lon="6.44325"><ele></ele><time>2024-11-27T13:34:7Z</time></trkpt>
<trkpt lat="46.74961" lon="6.44337"><ele></ele><time>2024-11-27T13:34:10Z</time></trkpt>
<trkpt lat="46.74962" lon="6.4434"><ele></ele><time>2024-11-27T13:34:13Z</time></trkpt>
<trkpt lat="46.74967" lon="6.44353"><ele></ele><time>2024-11-27T13:34:16Z</time></trkpt>
<trkpt lat="46.74974" lon="6.44369"><ele></ele><time>2024-11-27T13:34:19Z</time></trkpt>
<trkpt lat="46.74982" lon="6.44381"><ele></ele><time>2024-11-27T13:34:22Z</time></trkpt>
<trkpt lat="46.74983" lon="6.44384"><ele></ele><time>2024-11-27T13:34:25Z</time></trkpt>
<trkpt lat="46.7499" lon="6.44392"><ele></ele><time>2024-11-27T13:34:28Z</time></trkpt>
<trkpt lat="46.74993" lon="6.44395"><ele></ele><time>2024-11-27T13:34:31Z</time></trkpt>
<trkpt lat="46.74998" lon="6.444"><ele></ele><time>2024-11-27T13:34:34Z</time></trkpt>
<trkpt lat="46.75005" lon="6.44406"><ele></ele><time>2024-11-27T13:34:37Z</time></trkpt>
<trkpt lat="46.75007" lon="6.44408"><ele></ele><time>2024-11-27T13:34:40Z</time></trkpt>
<trkpt lat="46.75016" lon="6.44415"><ele></ele><time>2024-11-27T13:34:43Z</time></trkpt>
<trkpt lat="46.7502" lon="6.44417"><ele></ele><time>2024-11-27T13:34:46Z</time></trkpt>
<trkpt lat="46.75025" lon="6.4442"><ele></ele><time>2024-11-27T13:34:49Z</time></trkpt>
<trkpt lat="46.75031" lon="6.44424"><ele></ele><time>2024-11-27T13:34:52Z</time></trkpt>
<trkpt lat="46.75036" lon="6.44429"><ele></ele><time>2024-11-27T13:34:55Z</time></trkpt>
<trkpt lat="46.75042" lon="6.44437"><ele></ele><time>2024-11-27T13:34:58Z</time></trkpt>
<trkpt lat="46.75046" lon="6.44441"><ele></ele><time>2024-11-27T13:35:1Z</time></trkpt>
<trkpt lat="46.75053" lon="6.4445"><ele></ele><time>2024-11-27T13:35:4Z</time></trkpt>
<trkpt lat="46.75055" lon="6.44453"><ele></ele><time>2024-11-27T13:35:7Z</time></trkpt>
<trkpt lat="46.75062" lon="6.44461"><ele></ele><time>2024-11-27T13:35:10Z</time></trkpt>
<trkpt lat="46.75069" lon="6.44471"><ele></ele><time>2024-11-27T13:35:13Z</time></trkpt>
<trkpt lat="46.75075" lon="6.44477"><ele></ele><time>2024-11-27T13:35:16Z</time></trkpt>
<trkpt lat="46.75084" lon="6.44487"><ele></ele><time>2024-11-27T13:35:19Z</time></trkpt>
<trkpt lat="46.75096" lon="6.44496"><ele></ele><time>2024-11-27T13:35:22Z</time></trkpt>
<trkpt lat="46.75098" lon="6.44497"><ele></ele><time>2024-11-27T13:35:25Z</time></trkpt>
<trkpt lat="46.75108" lon="6.44502"><ele></ele><time>2024-11-27T13:35:28Z</time></trkpt>
<trkpt lat="46.75116" lon="6.44507"><ele></ele><time>2024-11-27T13:35:31Z</time></trkpt>
<trkpt lat="46.75124" lon="6.4451"><ele></ele><time>2024-11-27T13:35:34Z</time></trkpt>
<trkpt lat="46.75133" lon="6.44516"><ele></ele><time>2024-11-27T13:35:37Z</time></trkpt>
<trkpt lat="46.75137" lon="6.44516"><ele></ele><time>2024-11-27T13:35:40Z</time></trkpt>
<trkpt lat="46.75147" lon="6.44521"><ele></ele><time>2024-11-27T13:35:43Z</time></trkpt>
<trkpt lat="46.75152" lon="6.44524"><ele></ele><time>2024-11-27T13:35:46Z</time></trkpt>
<trkpt lat="46.75163" lon="6.44528"><ele></ele><time>2024-11-27T13:35:49Z</time></trkpt>
<trkpt lat="46.75165" lon="6.44529"><ele></ele><time>2024-11-27T13:35:52Z</time></trkpt>
<trkpt lat="46.75174" lon="6.44535"><ele></ele><time>2024-11-27T13:35:55Z</time></trkpt>
<trkpt lat="46.75179" lon="6.4454"><ele></ele><time>2024-11-27T13:35:58Z</time></trkpt>
<trkpt lat="46.75184" lon="6.44545"><ele></ele><time>2024-11-27T13:36:1Z</time></trkpt>
<trkpt lat="46.75191" lon="6.44553"><ele></ele><time>2024-11-27T13:36:4Z</time></trkpt>
<trkpt lat="46.75193" lon="6.44555"><ele></ele><time>2024-11-27T13:36:7Z</time></trkpt>
<trkpt lat="46.75198" lon="6.44562"><ele></ele><time>2024-11-27T13:36:10Z</time></trkpt>
<trkpt lat="46.75205" lon="6.4457"><ele></ele><time>2024-11-27T13:36:13Z</time></trkpt>
<trkpt lat="46.75205" lon="6.44572"><ele></ele><time>2024-11-27T13:36:16Z</time></trkpt>
<trkpt lat="46.75212" lon="6.44584"><ele></ele><time>2024-11-27T13:36:19Z</time></trkpt>
<trkpt lat="46.7522" lon="6.44591"><ele></ele><time>2024-11-27T13:36:22Z</time></trkpt>
<trkpt lat="46.75221" lon="6.44593"><ele></ele><time>2024-11-27T13:36:25Z</time></trkpt>
<trkpt lat="46.75221" lon="6.44597"><ele></ele><time>2024-11-27T13:36:28Z</time></trkpt>
<trkpt lat="46.75222" lon="6.446"><ele></ele><time>2024-11-27T13:36:31Z</time></trkpt>
<trkpt lat="46.75223" lon="6.44601"><ele></ele><time>2024-11-27T13:36:34Z</time></trkpt>
<trkpt lat="46.75223" lon="6.44601"><ele></ele><time>2024-11-27T13:36:37Z</time></trkpt>
<trkpt lat="46.75222" lon="6.446"><ele></ele><time>2024-11-27T13:36:40Z</time></trkpt>
<trkpt lat="46.7522" lon="6.44601"><ele></ele><time>2024-11-27T13:36:43Z</time></trkpt>
<trkpt lat="46.75218" lon="6.44603"><ele></ele><time>2024-11-27T13:36:46Z</time></trkpt>
<trkpt lat="46.75218" lon="6.44603"><ele></ele><time>2024-11-27T13:36:49Z</time></trkpt>
<trkpt lat="46.75218" lon="6.44605"><ele></ele><time>2024-11-27T13:36:52Z</time></trkpt>
<trkpt lat="46.75219" lon="6.44604"><ele></ele><time>2024-11-27T13:36:55Z</time></trkpt>
<trkpt lat="46.75219" lon="6.44604"><ele></ele><time>2024-11-27T13:36:58Z</time></trkpt>
<trkpt lat="46.75219" lon="6.44604"><ele></ele><time>2024-11-27T13:37:1Z</time></trkpt>
<trkpt lat="46.75219" lon="6.44604"><ele></ele><time>2024-11-27T13:37:4Z</time></trkpt>
<trkpt lat="46.75219" lon="6.44604"><ele></ele><time>2024-11-27T13:37:7Z</time></trkpt>
<trkpt lat="46.75219" lon="6.44604"><ele></ele><time>2024-11-27T13:37:10Z</time></trkpt>
<trkpt lat="46.75219" lon="6.44604"><ele></ele><time>2024-11-27T13:37:13Z</time></trkpt>
<trkpt lat="46.75219" lon="6.44604"><ele></ele><time>2024-11-27T13:37:16Z</time></trkpt>
<trkpt lat="46.75219" lon="6.44604"><ele></ele><time>2024-11-27T13:37:19Z</time></trkpt>
<trkpt lat="46.75219" lon="6.44604"><ele></ele><time>2024-11-27T13:37:22Z</time></trkpt>
<trkpt lat="46.75219" lon="6.44602"><ele></ele><time>2024-11-27T13:37:25Z</time></trkpt>
<trkpt lat="46.75219" lon="6.44602"><ele></ele><time>2024-11-27T13:37:28Z</time></trkpt>
<trkpt lat="46.75219" lon="6.44602"><ele></ele><time>2024-11-27T13:37:31Z</time></trkpt>
<trkpt lat="46.75219" lon="6.44602"><ele></ele><time>2024-11-27T13:37:34Z</time></trkpt>
<trkpt lat="46.7522" lon="6.44606"><ele></ele><time>2024-11-27T13:37:37Z</time></trkpt>
<trkpt lat="46.7522" lon="6.44606"><ele></ele><time>2024-11-27T13:37:40Z</time></trkpt>
<trkpt lat="46.7522" lon="6.44606"><ele></ele><time>2024-11-27T13:37:43Z</time></trkpt>
<trkpt lat="46.7522" lon="6.44606"><ele></ele><time>2024-11-27T13:37:46Z</time></trkpt>
<trkpt lat="46.7522" lon="6.44606"><ele></ele><time>2024-11-27T13:37:49Z</time></trkpt>
<trkpt lat="46.7522" lon="6.44605"><ele></ele><time>2024-11-27T13:37:52Z</time></trkpt>
<trkpt lat="46.75219" lon="6.44604"><ele></ele><time>2024-11-27T13:37:55Z</time></trkpt>
<trkpt lat="46.75219" lon="6.44604"><ele></ele><time>2024-11-27T13:37:58Z</time></trkpt>
<trkpt lat="46.75219" lon="6.44604"><ele></ele><time>2024-11-27T13:38:1Z</time></trkpt>
<trkpt lat="46.75219" lon="6.44604"><ele></ele><time>2024-11-27T13:38:4Z</time></trkpt>
<trkpt lat="46.75219" lon="6.44604"><ele></ele><time>2024-11-27T13:38:7Z</time></trkpt>
<trkpt lat="46.75219" lon="6.44602"><ele></ele><time>2024-11-27T13:38:10Z</time></trkpt>
<trkpt lat="46.75219" lon="6.44602"><ele></ele><time>2024-11-27T13:38:13Z</time></trkpt>
<trkpt lat="46.75219" lon="6.44602"><ele></ele><time>2024-11-27T13:38:16Z</time></trkpt>
<trkpt lat="46.75219" lon="6.44602"><ele></ele><time>2024-11-27T13:38:19Z</time></trkpt>
<trkpt lat="46.75219" lon="6.44602"><ele></ele><time>2024-11-27T13:38:22Z</time></trkpt>
<trkpt lat="46.75219" lon="6.44602"><ele></ele><time>2024-11-27T13:38:25Z</time></trkpt>
<trkpt lat="46.75219" lon="6.44602"><ele></ele><time>2024-11-27T13:38:28Z</time></trkpt>
<trkpt lat="46.75219" lon="6.44602"><ele></ele><time>2024-11-27T13:38:31Z</time></trkpt>
<trkpt lat="46.75219" lon="6.44602"><ele></ele><time>2024-11-27T13:38:34Z</time></trkpt>
<trkpt lat="46.75219" lon="6.44602"><ele></ele><time>2024-11-27T13:38:37Z</time></trkpt>
<trkpt lat="46.75219" lon="6.44602"><ele></ele><time>2024-11-27T13:38:40Z</time></trkpt>
<trkpt lat="46.75219" lon="6.44602"><ele></ele><time>2024-11-27T13:38:43Z</time></trkpt>
<trkpt lat="46.75219" lon="6.44602"><ele></ele><time>2024-11-27T13:38:46Z</time></trkpt>
<trkpt lat="46.75219" lon="6.44602"><ele></ele><time>2024-11-27T13:38:49Z</time></trkpt>
<trkpt lat="46.75219" lon="6.44602"><ele></ele><time>2024-11-27T13:38:52Z</time></trkpt>
<trkpt lat="46.75219" lon="6.44602"><ele></ele><time>2024-11-27T13:38:55Z</time></trkpt>
<trkpt lat="46.75219" lon="6.44602"><ele></ele><time>2024-11-27T13:38:58Z</time></trkpt>
<trkpt lat="46.75219" lon="6.44602"><ele></ele><time>2024-11-27T13:39:1Z</time></trkpt>
<trkpt lat="46.75219" lon="6.44602"><ele></ele><time>2024-11-27T13:39:4Z</time></trkpt>
<trkpt lat="46.75219" lon="6.44602"><ele></ele><time>2024-11-27T13:39:7Z</time></trkpt>
<trkpt lat="46.75219" lon="6.44602"><ele></ele><time>2024-11-27T13:39:10Z</time></trkpt>
<trkpt lat="46.75219" lon="6.44602"><ele></ele><time>2024-11-27T13:39:13Z</time></trkpt>
<trkpt lat="46.75219" lon="6.44602"><ele></ele><time>2024-11-27T13:39:16Z</time></trkpt>
<trkpt lat="46.75219" lon="6.44602"><ele></ele><time>2024-11-27T13:39:19Z</time></trkpt>
<trkpt lat="46.75219" lon="6.44602"><ele></ele><time>2024-11-27T13:39:22Z</time></trkpt>
<trkpt lat="46.75219" lon="6.44602"><ele></ele><time>2024-11-27T13:39:25Z</time></trkpt>
<trkpt lat="46.75219" lon="6.44602"><ele></ele><time>2024-11-27T13:39:28Z</time></trkpt>
<trkpt lat="46.75219" lon="6.44602"><ele></ele><time>2024-11-27T13:39:31Z</time></trkpt>
<trkpt lat="46.75219" lon="6.44602"><ele></ele><time>2024-11-27T13:39:34Z</time></trkpt>
<trkpt lat="46.75219" lon="6.44603"><ele></ele><time>2024-11-27T13:39:37Z</time></trkpt>
<trkpt lat="46.75219" lon="6.44604"><ele></ele><time>2024-11-27T13:39:40Z</time></trkpt>
<trkpt lat="46.7522" lon="6.44604"><ele></ele><time>2024-11-27T13:39:43Z</time></trkpt>
<trkpt lat="46.75218" lon="6.44603"><ele></ele><time>2024-11-27T13:39:46Z</time></trkpt>
<trkpt lat="46.75219" lon="6.44605"><ele></ele><time>2024-11-27T13:39:49Z</time></trkpt>
<trkpt lat="46.75218" lon="6.44603"><ele></ele><time>2024-11-27T13:39:52Z</time></trkpt>
<trkpt lat="46.75218" lon="6.44603"><ele></ele><time>2024-11-27T13:39:55Z</time></trkpt>
<trkpt lat="46.75218" lon="6.44603"><ele></ele><time>2024-11-27T13:39:58Z</time></trkpt>
<trkpt lat="46.75219" lon="6.44601"><ele></ele><time>2024-11-27T13:40:1Z</time></trkpt>
<trkpt lat="46.75218" lon="6.44601"><ele></ele><time>2024-11-27T13:40:4Z</time></trkpt>
<trkpt lat="46.75218" lon="6.44601"><ele></ele><time>2024-11-27T13:40:7Z</time></trkpt>
<trkpt lat="46.75219" lon="6.446"><ele></ele><time>2024-11-27T13:40:10Z</time></trkpt>
<trkpt lat="46.75221" lon="6.44599"><ele></ele><time>2024-11-27T13:40:13Z</time></trkpt>
<trkpt lat="46.75222" lon="6.446"><ele></ele><time>2024-11-27T13:40:16Z</time></trkpt>
<trkpt lat="46.75222" lon="6.44601"><ele></ele><time>2024-11-27T13:40:19Z</time></trkpt>
<trkpt lat="46.75222" lon="6.44602"><ele></ele><time>2024-11-27T13:40:22Z</time></trkpt>
<trkpt lat="46.75222" lon="6.446"><ele></ele><time>2024-11-27T13:40:25Z</time></trkpt>
<trkpt lat="46.75222" lon="6.44601"><ele></ele><time>2024-11-27T13:40:28Z</time></trkpt>
<trkpt lat="46.75221" lon="6.44602"><ele></ele><time>2024-11-27T13:40:31Z</time></trkpt>
<trkpt lat="46.75221" lon="6.44603"><ele></ele><time>2024-11-27T13:40:34Z</time></trkpt>
<trkpt lat="46.75222" lon="6.44603"><ele></ele><time>2024-11-27T13:40:37Z</time></trkpt>
<trkpt lat="46.75221" lon="6.44601"><ele></ele><time>2024-11-27T13:40:40Z</time></trkpt>
<trkpt lat="46.75222" lon="6.44602"><ele></ele><time>2024-11-27T13:40:43Z</time></trkpt>
<trkpt lat="46.75224" lon="6.44601"><ele></ele><time>2024-11-27T13:40:46Z</time></trkpt>
<trkpt lat="46.75225" lon="6.44604"><ele></ele><time>2024-11-27T13:40:49Z</time></trkpt>
<trkpt lat="46.75226" lon="6.44606"><ele></ele><time>2024-11-27T13:40:52Z</time></trkpt>
<trkpt lat="46.75233" lon="6.44616"><ele></ele><time>2024-11-27T13:40:55Z</time></trkpt>
<trkpt lat="46.75239" lon="6.44623"><ele></ele><time>2024-11-27T13:40:58Z</time></trkpt>
<trkpt lat="46.75241" lon="6.44624"><ele></ele><time>2024-11-27T13:41:1Z</time></trkpt>
<trkpt lat="46.75244" lon="6.44627"><ele></ele><time>2024-11-27T13:41:4Z</time></trkpt>
<trkpt lat="46.75251" lon="6.44633"><ele></ele><time>2024-11-27T13:41:7Z</time></trkpt>
<trkpt lat="46.75252" lon="6.44634"><ele></ele><time>2024-11-27T13:41:10Z</time></trkpt>
<trkpt lat="46.7526" lon="6.4464"><ele></ele><time>2024-11-27T13:41:13Z</time></trkpt>
<trkpt lat="46.75262" lon="6.44642"><ele></ele><time>2024-11-27T13:41:16Z</time></trkpt>
<trkpt lat="46.75271" lon="6.44645"><ele></ele><time>2024-11-27T13:41:19Z</time></trkpt>
<trkpt lat="46.75275" lon="6.44647"><ele></ele><time>2024-11-27T13:41:22Z</time></trkpt>
<trkpt lat="46.75286" lon="6.44654"><ele></ele><time>2024-11-27T13:41:25Z</time></trkpt>
<trkpt lat="46.75288" lon="6.44655"><ele></ele><time>2024-11-27T13:41:28Z</time></trkpt>
<trkpt lat="46.75303" lon="6.44664"><ele></ele><time>2024-11-27T13:41:31Z</time></trkpt>
<trkpt lat="46.75307" lon="6.44667"><ele></ele><time>2024-11-27T13:41:34Z</time></trkpt>
<trkpt lat="46.75313" lon="6.44673"><ele></ele><time>2024-11-27T13:41:37Z</time></trkpt>
<trkpt lat="46.75316" lon="6.44678"><ele></ele><time>2024-11-27T13:41:40Z</time></trkpt>
<trkpt lat="46.75319" lon="6.44682"><ele></ele><time>2024-11-27T13:41:43Z</time></trkpt>
<trkpt lat="46.75326" lon="6.44693"><ele></ele><time>2024-11-27T13:41:46Z</time></trkpt>
<trkpt lat="46.7533" lon="6.44698"><ele></ele><time>2024-11-27T13:41:49Z</time></trkpt>
<trkpt lat="46.75332" lon="6.447"><ele></ele><time>2024-11-27T13:41:52Z</time></trkpt>
<trkpt lat="46.75337" lon="6.44711"><ele></ele><time>2024-11-27T13:41:55Z</time></trkpt>
<trkpt lat="46.7534" lon="6.44725"><ele></ele><time>2024-11-27T13:41:58Z</time></trkpt>
<trkpt lat="46.75339" lon="6.44738"><ele></ele><time>2024-11-27T13:42:1Z</time></trkpt>
<trkpt lat="46.75334" lon="6.44745"><ele></ele><time>2024-11-27T13:42:4Z</time></trkpt>
<trkpt lat="46.75333" lon="6.44747"><ele></ele><time>2024-11-27T13:42:7Z</time></trkpt>
<trkpt lat="46.75327" lon="6.44756"><ele></ele><time>2024-11-27T13:42:10Z</time></trkpt>
<trkpt lat="46.75326" lon="6.44757"><ele></ele><time>2024-11-27T13:42:13Z</time></trkpt>
<trkpt lat="46.75321" lon="6.44762"><ele></ele><time>2024-11-27T13:42:16Z</time></trkpt>
<trkpt lat="46.75318" lon="6.44766"><ele></ele><time>2024-11-27T13:42:19Z</time></trkpt>
<trkpt lat="46.75313" lon="6.44771"><ele></ele><time>2024-11-27T13:42:22Z</time></trkpt>
<trkpt lat="46.7531" lon="6.44777"><ele></ele><time>2024-11-27T13:42:25Z</time></trkpt>
<trkpt lat="46.75306" lon="6.44785"><ele></ele><time>2024-11-27T13:42:28Z</time></trkpt>
<trkpt lat="46.75304" lon="6.44792"><ele></ele><time>2024-11-27T13:42:31Z</time></trkpt>
<trkpt lat="46.75303" lon="6.44794"><ele></ele><time>2024-11-27T13:42:34Z</time></trkpt>
<trkpt lat="46.75296" lon="6.44809"><ele></ele><time>2024-11-27T13:42:37Z</time></trkpt>
<trkpt lat="46.75295" lon="6.44811"><ele></ele><time>2024-11-27T13:42:40Z</time></trkpt>
<trkpt lat="46.75292" lon="6.4482"><ele></ele><time>2024-11-27T13:42:43Z</time></trkpt>
<trkpt lat="46.75287" lon="6.44832"><ele></ele><time>2024-11-27T13:42:46Z</time></trkpt>
<trkpt lat="46.75283" lon="6.44841"><ele></ele><time>2024-11-27T13:42:49Z</time></trkpt>
<trkpt lat="46.75279" lon="6.44851"><ele></ele><time>2024-11-27T13:42:52Z</time></trkpt>
<trkpt lat="46.75277" lon="6.44858"><ele></ele><time>2024-11-27T13:42:55Z</time></trkpt>
<trkpt lat="46.75276" lon="6.44861"><ele></ele><time>2024-11-27T13:42:58Z</time></trkpt>
<trkpt lat="46.75271" lon="6.44877"><ele></ele><time>2024-11-27T13:43:1Z</time></trkpt>
<trkpt lat="46.7527" lon="6.44883"><ele></ele><time>2024-11-27T13:43:4Z</time></trkpt>
<trkpt lat="46.75266" lon="6.44893"><ele></ele><time>2024-11-27T13:43:7Z</time></trkpt>
<trkpt lat="46.75263" lon="6.44904"><ele></ele><time>2024-11-27T13:43:10Z</time></trkpt>
<trkpt lat="46.75261" lon="6.44916"><ele></ele><time>2024-11-27T13:43:13Z</time></trkpt>
<trkpt lat="46.75261" lon="6.44919"><ele></ele><time>2024-11-27T13:43:16Z</time></trkpt>
<trkpt lat="46.7526" lon="6.44925"><ele></ele><time>2024-11-27T13:43:19Z</time></trkpt>
<trkpt lat="46.7526" lon="6.44928"><ele></ele><time>2024-11-27T13:43:22Z</time></trkpt>
<trkpt lat="46.75259" lon="6.44942"><ele></ele><time>2024-11-27T13:43:25Z</time></trkpt>
<trkpt lat="46.75259" lon="6.44945"><ele></ele><time>2024-11-27T13:43:28Z</time></trkpt>
<trkpt lat="46.7526" lon="6.44962"><ele></ele><time>2024-11-27T13:43:31Z</time></trkpt>
<trkpt lat="46.7526" lon="6.44969"><ele></ele><time>2024-11-27T13:43:34Z</time></trkpt>
<trkpt lat="46.75263" lon="6.44985"><ele></ele><time>2024-11-27T13:43:37Z</time></trkpt>
<trkpt lat="46.75266" lon="6.44994"><ele></ele><time>2024-11-27T13:43:40Z</time></trkpt>
<trkpt lat="46.75269" lon="6.45003"><ele></ele><time>2024-11-27T13:43:43Z</time></trkpt>
<trkpt lat="46.75272" lon="6.45016"><ele></ele><time>2024-11-27T13:43:46Z</time></trkpt>
<trkpt lat="46.75274" lon="6.45019"><ele></ele><time>2024-11-27T13:43:49Z</time></trkpt>
<trkpt lat="46.7528" lon="6.45034"><ele></ele><time>2024-11-27T13:43:52Z</time></trkpt>
<trkpt lat="46.75285" lon="6.45049"><ele></ele><time>2024-11-27T13:43:55Z</time></trkpt>
<trkpt lat="46.75286" lon="6.45052"><ele></ele><time>2024-11-27T13:43:58Z</time></trkpt>
<trkpt lat="46.75293" lon="6.45067"><ele></ele><time>2024-11-27T13:44:1Z</time></trkpt>
<trkpt lat="46.75296" lon="6.45071"><ele></ele><time>2024-11-27T13:44:4Z</time></trkpt>
<trkpt lat="46.75302" lon="6.45082"><ele></ele><time>2024-11-27T13:44:7Z</time></trkpt>
<trkpt lat="46.75305" lon="6.45087"><ele></ele><time>2024-11-27T13:44:10Z</time></trkpt>
<trkpt lat="46.7531" lon="6.45096"><ele></ele><time>2024-11-27T13:44:13Z</time></trkpt>
<trkpt lat="46.75315" lon="6.45104"><ele></ele><time>2024-11-27T13:44:16Z</time></trkpt>
<trkpt lat="46.75319" lon="6.4511"><ele></ele><time>2024-11-27T13:44:19Z</time></trkpt>
<trkpt lat="46.75326" lon="6.4512"><ele></ele><time>2024-11-27T13:44:22Z</time></trkpt>
<trkpt lat="46.75327" lon="6.45122"><ele></ele><time>2024-11-27T13:44:25Z</time></trkpt>
<trkpt lat="46.75337" lon="6.4513"><ele></ele><time>2024-11-27T13:44:28Z</time></trkpt>
<trkpt lat="46.75346" lon="6.45135"><ele></ele><time>2024-11-27T13:44:31Z</time></trkpt>
<trkpt lat="46.75348" lon="6.45136"><ele></ele><time>2024-11-27T13:44:34Z</time></trkpt>
<trkpt lat="46.75359" lon="6.45143"><ele></ele><time>2024-11-27T13:44:37Z</time></trkpt>
<trkpt lat="46.75364" lon="6.45147"><ele></ele><time>2024-11-27T13:44:40Z</time></trkpt>
<trkpt lat="46.75371" lon="6.4515"><ele></ele><time>2024-11-27T13:44:43Z</time></trkpt>
<trkpt lat="46.75375" lon="6.45153"><ele></ele><time>2024-11-27T13:44:46Z</time></trkpt>
<trkpt lat="46.75381" lon="6.45155"><ele></ele><time>2024-11-27T13:44:49Z</time></trkpt>
<trkpt lat="46.7539" lon="6.45162"><ele></ele><time>2024-11-27T13:44:52Z</time></trkpt>
<trkpt lat="46.75395" lon="6.45164"><ele></ele><time>2024-11-27T13:44:55Z</time></trkpt>
<trkpt lat="46.75402" lon="6.45167"><ele></ele><time>2024-11-27T13:44:58Z</time></trkpt>
<trkpt lat="46.75406" lon="6.45169"><ele></ele><time>2024-11-27T13:45:1Z</time></trkpt>
<trkpt lat="46.75414" lon="6.45171"><ele></ele><time>2024-11-27T13:45:4Z</time></trkpt>
<trkpt lat="46.75421" lon="6.45175"><ele></ele><time>2024-11-27T13:45:7Z</time></trkpt>
<trkpt lat="46.75427" lon="6.45179"><ele></ele><time>2024-11-27T13:45:10Z</time></trkpt>
<trkpt lat="46.75433" lon="6.45184"><ele></ele><time>2024-11-27T13:45:13Z</time></trkpt>
<trkpt lat="46.7544" lon="6.45188"><ele></ele><time>2024-11-27T13:45:16Z</time></trkpt>
<trkpt lat="46.75445" lon="6.45191"><ele></ele><time>2024-11-27T13:45:19Z</time></trkpt>
<trkpt lat="46.7545" lon="6.45194"><ele></ele><time>2024-11-27T13:45:22Z</time></trkpt>
<trkpt lat="46.75457" lon="6.45199"><ele></ele><time>2024-11-27T13:45:25Z</time></trkpt>
<trkpt lat="46.75461" lon="6.45201"><ele></ele><time>2024-11-27T13:45:28Z</time></trkpt>
<trkpt lat="46.75473" lon="6.45207"><ele></ele><time>2024-11-27T13:45:31Z</time></trkpt>
<trkpt lat="46.75485" lon="6.45212"><ele></ele><time>2024-11-27T13:45:34Z</time></trkpt>
<trkpt lat="46.75487" lon="6.45213"><ele></ele><time>2024-11-27T13:45:37Z</time></trkpt>
<trkpt lat="46.75502" lon="6.45216"><ele></ele><time>2024-11-27T13:45:40Z</time></trkpt>
<trkpt lat="46.75506" lon="6.45217"><ele></ele><time>2024-11-27T13:45:43Z</time></trkpt>
<trkpt lat="46.75514" lon="6.45219"><ele></ele><time>2024-11-27T13:45:46Z</time></trkpt>
<trkpt lat="46.75522" lon="6.45221"><ele></ele><time>2024-11-27T13:45:49Z</time></trkpt>
<trkpt lat="46.75526" lon="6.45222"><ele></ele><time>2024-11-27T13:45:52Z</time></trkpt>
<trkpt lat="46.7554" lon="6.45224"><ele></ele><time>2024-11-27T13:45:55Z</time></trkpt>
<trkpt lat="46.75552" lon="6.45227"><ele></ele><time>2024-11-27T13:45:58Z</time></trkpt>
<trkpt lat="46.75554" lon="6.45227"><ele></ele><time>2024-11-27T13:46:1Z</time></trkpt>
<trkpt lat="46.75568" lon="6.4523"><ele></ele><time>2024-11-27T13:46:4Z</time></trkpt>
<trkpt lat="46.75579" lon="6.45231"><ele></ele><time>2024-11-27T13:46:7Z</time></trkpt>
<trkpt lat="46.75587" lon="6.45232"><ele></ele><time>2024-11-27T13:46:10Z</time></trkpt>
<trkpt lat="46.75595" lon="6.45233"><ele></ele><time>2024-11-27T13:46:13Z</time></trkpt>
<trkpt lat="46.75598" lon="6.45233"><ele></ele><time>2024-11-27T13:46:16Z</time></trkpt>
<trkpt lat="46.75605" lon="6.45233"><ele></ele><time>2024-11-27T13:46:19Z</time></trkpt>
<trkpt lat="46.75609" lon="6.45233"><ele></ele><time>2024-11-27T13:46:22Z</time></trkpt>
<trkpt lat="46.75616" lon="6.45235"><ele></ele><time>2024-11-27T13:46:25Z</time></trkpt>
<trkpt lat="46.75625" lon="6.45236"><ele></ele><time>2024-11-27T13:46:28Z</time></trkpt>
<trkpt lat="46.75629" lon="6.45236"><ele></ele><time>2024-11-27T13:46:31Z</time></trkpt>
<trkpt lat="46.7564" lon="6.45237"><ele></ele><time>2024-11-27T13:46:34Z</time></trkpt>
<trkpt lat="46.75642" lon="6.45238"><ele></ele><time>2024-11-27T13:46:37Z</time></trkpt>
<trkpt lat="46.75656" lon="6.45238"><ele></ele><time>2024-11-27T13:46:40Z</time></trkpt>
<trkpt lat="46.75673" lon="6.45239"><ele></ele><time>2024-11-27T13:46:43Z</time></trkpt>
<trkpt lat="46.75687" lon="6.4524"><ele></ele><time>2024-11-27T13:46:46Z</time></trkpt>
<trkpt lat="46.75691" lon="6.45241"><ele></ele><time>2024-11-27T13:46:49Z</time></trkpt>
<trkpt lat="46.75704" lon="6.4524"><ele></ele><time>2024-11-27T13:46:52Z</time></trkpt>
<trkpt lat="46.75706" lon="6.4524"><ele></ele><time>2024-11-27T13:46:55Z</time></trkpt>
<trkpt lat="46.75717" lon="6.45239"><ele></ele><time>2024-11-27T13:46:58Z</time></trkpt>
<trkpt lat="46.75723" lon="6.45238"><ele></ele><time>2024-11-27T13:47:1Z</time></trkpt>
<trkpt lat="46.75725" lon="6.45237"><ele></ele><time>2024-11-27T13:47:4Z</time></trkpt>
<trkpt lat="46.75735" lon="6.45229"><ele></ele><time>2024-11-27T13:47:7Z</time></trkpt>
<trkpt lat="46.7574" lon="6.45224"><ele></ele><time>2024-11-27T13:47:10Z</time></trkpt>
<trkpt lat="46.75743" lon="6.45217"><ele></ele><time>2024-11-27T13:47:13Z</time></trkpt>
<trkpt lat="46.75744" lon="6.45215"><ele></ele><time>2024-11-27T13:47:16Z</time></trkpt>
<trkpt lat="46.75748" lon="6.45211"><ele></ele><time>2024-11-27T13:47:19Z</time></trkpt>
<trkpt lat="46.75749" lon="6.45208"><ele></ele><time>2024-11-27T13:47:22Z</time></trkpt>
<trkpt lat="46.75751" lon="6.45201"><ele></ele><time>2024-11-27T13:47:25Z</time></trkpt>
<trkpt lat="46.75755" lon="6.45186"><ele></ele><time>2024-11-27T13:47:28Z</time></trkpt>
<trkpt lat="46.75755" lon="6.45184"><ele></ele><time>2024-11-27T13:47:31Z</time></trkpt>
<trkpt lat="46.75758" lon="6.45168"><ele></ele><time>2024-11-27T13:47:34Z</time></trkpt>
<trkpt lat="46.75758" lon="6.45163"><ele></ele><time>2024-11-27T13:47:37Z</time></trkpt>
<trkpt lat="46.75757" lon="6.4515"><ele></ele><time>2024-11-27T13:47:40Z</time></trkpt>
<trkpt lat="46.75756" lon="6.45142"><ele></ele><time>2024-11-27T13:47:43Z</time></trkpt>
<trkpt lat="46.75753" lon="6.4513"><ele></ele><time>2024-11-27T13:47:46Z</time></trkpt>
<trkpt lat="46.75751" lon="6.45125"><ele></ele><time>2024-11-27T13:47:49Z</time></trkpt>
<trkpt lat="46.75749" lon="6.45116"><ele></ele><time>2024-11-27T13:47:52Z</time></trkpt>
<trkpt lat="46.75747" lon="6.45106"><ele></ele><time>2024-11-27T13:47:55Z</time></trkpt>
<trkpt lat="46.75745" lon="6.45096"><ele></ele><time>2024-11-27T13:47:58Z</time></trkpt>
<trkpt lat="46.75742" lon="6.45086"><ele></ele><time>2024-11-27T13:48:1Z</time></trkpt>
<trkpt lat="46.7574" lon="6.45078"><ele></ele><time>2024-11-27T13:48:4Z</time></trkpt>
<trkpt lat="46.75738" lon="6.45071"><ele></ele><time>2024-11-27T13:48:7Z</time></trkpt>
<trkpt lat="46.75734" lon="6.45057"><ele></ele><time>2024-11-27T13:48:10Z</time></trkpt>
<trkpt lat="46.75733" lon="6.4505"><ele></ele><time>2024-11-27T13:48:13Z</time></trkpt>
<trkpt lat="46.7573" lon="6.4504"><ele></ele><time>2024-11-27T13:48:16Z</time></trkpt>
<trkpt lat="46.75729" lon="6.45035"><ele></ele><time>2024-11-27T13:48:19Z</time></trkpt>
<trkpt lat="46.75725" lon="6.45021"><ele></ele><time>2024-11-27T13:48:22Z</time></trkpt>
<trkpt lat="46.75725" lon="6.45018"><ele></ele><time>2024-11-27T13:48:25Z</time></trkpt>
<trkpt lat="46.75722" lon="6.45006"><ele></ele><time>2024-11-27T13:48:28Z</time></trkpt>
<trkpt lat="46.75721" lon="6.45004"><ele></ele><time>2024-11-27T13:48:31Z</time></trkpt>
<trkpt lat="46.75718" lon="6.44991"><ele></ele><time>2024-11-27T13:48:34Z</time></trkpt>
<trkpt lat="46.75717" lon="6.44984"><ele></ele><time>2024-11-27T13:48:37Z</time></trkpt>
<trkpt lat="46.75716" lon="6.44977"><ele></ele><time>2024-11-27T13:48:40Z</time></trkpt>
<trkpt lat="46.75715" lon="6.44966"><ele></ele><time>2024-11-27T13:48:43Z</time></trkpt>
<trkpt lat="46.75715" lon="6.44959"><ele></ele><time>2024-11-27T13:48:46Z</time></trkpt>
<trkpt lat="46.75716" lon="6.44951"><ele></ele><time>2024-11-27T13:48:49Z</time></trkpt>
<trkpt lat="46.75715" lon="6.44945"><ele></ele><time>2024-11-27T13:48:52Z</time></trkpt>
<trkpt lat="46.75715" lon="6.44939"><ele></ele><time>2024-11-27T13:48:55Z</time></trkpt>
<trkpt lat="46.75716" lon="6.44928"><ele></ele><time>2024-11-27T13:48:58Z</time></trkpt>
<trkpt lat="46.75716" lon="6.44926"><ele></ele><time>2024-11-27T13:49:1Z</time></trkpt>
<trkpt lat="46.75716" lon="6.44924"><ele></ele><time>2024-11-27T13:49:4Z</time></trkpt>
<trkpt lat="46.75719" lon="6.44918"><ele></ele><time>2024-11-27T13:49:7Z</time></trkpt>
<trkpt lat="46.75722" lon="6.4491"><ele></ele><time>2024-11-27T13:49:10Z</time></trkpt>
<trkpt lat="46.75728" lon="6.44902"><ele></ele><time>2024-11-27T13:49:13Z</time></trkpt>
<trkpt lat="46.75732" lon="6.44898"><ele></ele><time>2024-11-27T13:49:16Z</time></trkpt>
<trkpt lat="46.75739" lon="6.44894"><ele></ele><time>2024-11-27T13:49:19Z</time></trkpt>
<trkpt lat="46.75743" lon="6.44892"><ele></ele><time>2024-11-27T13:49:22Z</time></trkpt>
<trkpt lat="46.75752" lon="6.44889"><ele></ele><time>2024-11-27T13:49:25Z</time></trkpt>
<trkpt lat="46.75753" lon="6.44889"><ele></ele><time>2024-11-27T13:49:28Z</time></trkpt>
<trkpt lat="46.75761" lon="6.44888"><ele></ele><time>2024-11-27T13:49:31Z</time></trkpt>
<trkpt lat="46.75768" lon="6.44888"><ele></ele><time>2024-11-27T13:49:34Z</time></trkpt>
<trkpt lat="46.75774" lon="6.44887"><ele></ele><time>2024-11-27T13:49:37Z</time></trkpt>
<trkpt lat="46.75783" lon="6.44886"><ele></ele><time>2024-11-27T13:49:40Z</time></trkpt>
<trkpt lat="46.75787" lon="6.44886"><ele></ele><time>2024-11-27T13:49:43Z</time></trkpt>
<trkpt lat="46.75798" lon="6.44886"><ele></ele><time>2024-11-27T13:49:46Z</time></trkpt>
<trkpt lat="46.75799" lon="6.44886"><ele></ele><time>2024-11-27T13:49:49Z</time></trkpt>
<trkpt lat="46.75811" lon="6.44885"><ele></ele><time>2024-11-27T13:49:52Z</time></trkpt>
<trkpt lat="46.75815" lon="6.44885"><ele></ele><time>2024-11-27T13:49:55Z</time></trkpt>
<trkpt lat="46.75823" lon="6.44884"><ele></ele><time>2024-11-27T13:49:58Z</time></trkpt>
<trkpt lat="46.75832" lon="6.44883"><ele></ele><time>2024-11-27T13:50:1Z</time></trkpt>
<trkpt lat="46.75837" lon="6.44881"><ele></ele><time>2024-11-27T13:50:4Z</time></trkpt>
<trkpt lat="46.75845" lon="6.44877"><ele></ele><time>2024-11-27T13:50:7Z</time></trkpt>
<trkpt lat="46.7585" lon="6.44874"><ele></ele><time>2024-11-27T13:50:10Z</time></trkpt>
<trkpt lat="46.75859" lon="6.44868"><ele></ele><time>2024-11-27T13:50:13Z</time></trkpt>
<trkpt lat="46.75865" lon="6.44862"><ele></ele><time>2024-11-27T13:50:16Z</time></trkpt>
<trkpt lat="46.75872" lon="6.44851"><ele></ele><time>2024-11-27T13:50:19Z</time></trkpt>
<trkpt lat="46.75882" lon="6.44839"><ele></ele><time>2024-11-27T13:50:22Z</time></trkpt>
<trkpt lat="46.75888" lon="6.44834"><ele></ele><time>2024-11-27T13:50:25Z</time></trkpt>
<trkpt lat="46.75898" lon="6.44829"><ele></ele><time>2024-11-27T13:50:28Z</time></trkpt>
<trkpt lat="46.75916" lon="6.44828"><ele></ele><time>2024-11-27T13:50:31Z</time></trkpt>
<trkpt lat="46.75922" lon="6.44829"><ele></ele><time>2024-11-27T13:50:34Z</time></trkpt>
<trkpt lat="46.75937" lon="6.44834"><ele></ele><time>2024-11-27T13:50:37Z</time></trkpt>
<trkpt lat="46.75956" lon="6.44842"><ele></ele><time>2024-11-27T13:50:40Z</time></trkpt>
<trkpt lat="46.75979" lon="6.44853"><ele></ele><time>2024-11-27T13:50:43Z</time></trkpt>
<trkpt lat="46.75981" lon="6.44854"><ele></ele><time>2024-11-27T13:50:46Z</time></trkpt>
<trkpt lat="46.76004" lon="6.44861"><ele></ele><time>2024-11-27T13:50:49Z</time></trkpt>
<trkpt lat="46.7602" lon="6.44864"><ele></ele><time>2024-11-27T13:50:52Z</time></trkpt>
<trkpt lat="46.76031" lon="6.44869"><ele></ele><time>2024-11-27T13:50:55Z</time></trkpt>
<trkpt lat="46.76039" lon="6.44873"><ele></ele><time>2024-11-27T13:50:58Z</time></trkpt>
<trkpt lat="46.76046" lon="6.44879"><ele></ele><time>2024-11-27T13:51:1Z</time></trkpt>
<trkpt lat="46.76056" lon="6.44888"><ele></ele><time>2024-11-27T13:51:4Z</time></trkpt>
<trkpt lat="46.76061" lon="6.44893"><ele></ele><time>2024-11-27T13:51:7Z</time></trkpt>
<trkpt lat="46.76071" lon="6.44906"><ele></ele><time>2024-11-27T13:51:10Z</time></trkpt>
<trkpt lat="46.76084" lon="6.44925"><ele></ele><time>2024-11-27T13:51:13Z</time></trkpt>
<trkpt lat="46.76088" lon="6.44928"><ele></ele><time>2024-11-27T13:51:16Z</time></trkpt>
<trkpt lat="46.76093" lon="6.44935"><ele></ele><time>2024-11-27T13:51:19Z</time></trkpt>
<trkpt lat="46.76104" lon="6.44955"><ele></ele><time>2024-11-27T13:51:22Z</time></trkpt>
<trkpt lat="46.76106" lon="6.44958"><ele></ele><time>2024-11-27T13:51:25Z</time></trkpt>
<trkpt lat="46.76117" lon="6.44983"><ele></ele><time>2024-11-27T13:51:28Z</time></trkpt>
<trkpt lat="46.76121" lon="6.44994"><ele></ele><time>2024-11-27T13:51:31Z</time></trkpt>
<trkpt lat="46.76129" lon="6.45025"><ele></ele><time>2024-11-27T13:51:34Z</time></trkpt>
<trkpt lat="46.76136" lon="6.45052"><ele></ele><time>2024-11-27T13:51:37Z</time></trkpt>
<trkpt lat="46.76139" lon="6.45067"><ele></ele><time>2024-11-27T13:51:40Z</time></trkpt>
<trkpt lat="46.76144" lon="6.45104"><ele></ele><time>2024-11-27T13:51:43Z</time></trkpt>
<trkpt lat="46.76144" lon="6.45127"><ele></ele><time>2024-11-27T13:51:46Z</time></trkpt>
<trkpt lat="46.76142" lon="6.45144"><ele></ele><time>2024-11-27T13:51:49Z</time></trkpt>
<trkpt lat="46.76142" lon="6.45148"><ele></ele><time>2024-11-27T13:51:52Z</time></trkpt>
<trkpt lat="46.76139" lon="6.45174"><ele></ele><time>2024-11-27T13:51:55Z</time></trkpt>
<trkpt lat="46.76139" lon="6.45178"><ele></ele><time>2024-11-27T13:51:58Z</time></trkpt>
<trkpt lat="46.76138" lon="6.45187"><ele></ele><time>2024-11-27T13:52:1Z</time></trkpt>
<trkpt lat="46.76136" lon="6.452"><ele></ele><time>2024-11-27T13:52:4Z</time></trkpt>
<trkpt lat="46.76136" lon="6.452"><ele></ele><time>2024-11-27T13:52:7Z</time></trkpt>
<trkpt lat="46.76136" lon="6.452"><ele></ele><time>2024-11-27T13:52:10Z</time></trkpt>
<trkpt lat="46.76136" lon="6.452"><ele></ele><time>2024-11-27T13:52:13Z</time></trkpt>
<trkpt lat="46.76136" lon="6.452"><ele></ele><time>2024-11-27T13:52:16Z</time></trkpt>
<trkpt lat="46.76136" lon="6.452"><ele></ele><time>2024-11-27T13:52:19Z</time></trkpt>
<trkpt lat="46.76135" lon="6.45199"><ele></ele><time>2024-11-27T13:52:22Z</time></trkpt>
<trkpt lat="46.76135" lon="6.45199"><ele></ele><time>2024-11-27T13:52:25Z</time></trkpt>
<trkpt lat="46.76134" lon="6.45198"><ele></ele><time>2024-11-27T13:52:28Z</time></trkpt>
<trkpt lat="46.76134" lon="6.45198"><ele></ele><time>2024-11-27T13:52:31Z</time></trkpt>
<trkpt lat="46.76136" lon="6.45201"><ele></ele><time>2024-11-27T13:52:34Z</time></trkpt>
<trkpt lat="46.76136" lon="6.45203"><ele></ele><time>2024-11-27T13:52:37Z</time></trkpt>
<trkpt lat="46.76137" lon="6.45223"><ele></ele><time>2024-11-27T13:52:40Z</time></trkpt>
<trkpt lat="46.76137" lon="6.45227"><ele></ele><time>2024-11-27T13:52:43Z</time></trkpt>
<trkpt lat="46.76137" lon="6.45241"><ele></ele><time>2024-11-27T13:52:46Z</time></trkpt>
<trkpt lat="46.76137" lon="6.45247"><ele></ele><time>2024-11-27T13:52:49Z</time></trkpt>
<trkpt lat="46.76137" lon="6.45258"><ele></ele><time>2024-11-27T13:52:52Z</time></trkpt>
<trkpt lat="46.76138" lon="6.45266"><ele></ele><time>2024-11-27T13:52:55Z</time></trkpt>
<trkpt lat="46.76139" lon="6.45276"><ele></ele><time>2024-11-27T13:52:58Z</time></trkpt>
<trkpt lat="46.7614" lon="6.45279"><ele></ele><time>2024-11-27T13:53:1Z</time></trkpt>
<trkpt lat="46.76141" lon="6.45287"><ele></ele><time>2024-11-27T13:53:4Z</time></trkpt>
<trkpt lat="46.76142" lon="6.45292"><ele></ele><time>2024-11-27T13:53:7Z</time></trkpt>
<trkpt lat="46.76141" lon="6.45296"><ele></ele><time>2024-11-27T13:53:10Z</time></trkpt>
<trkpt lat="46.7614" lon="6.45302"><ele></ele><time>2024-11-27T13:53:13Z</time></trkpt>
<trkpt lat="46.76141" lon="6.45317"><ele></ele><time>2024-11-27T13:53:16Z</time></trkpt>
<trkpt lat="46.76147" lon="6.45336"><ele></ele><time>2024-11-27T13:53:19Z</time></trkpt>
<trkpt lat="46.7615" lon="6.45339"><ele></ele><time>2024-11-27T13:53:22Z</time></trkpt>
<trkpt lat="46.76153" lon="6.45341"><ele></ele><time>2024-11-27T13:53:25Z</time></trkpt>
<trkpt lat="46.76154" lon="6.45342"><ele></ele><time>2024-11-27T13:53:28Z</time></trkpt>
<trkpt lat="46.76155" lon="6.45342"><ele></ele><time>2024-11-27T13:53:31Z</time></trkpt>
<trkpt lat="46.7616" lon="6.45335"><ele></ele><time>2024-11-27T13:53:34Z</time></trkpt>
<trkpt lat="46.76171" lon="6.45332"><ele></ele><time>2024-11-27T13:53:37Z</time></trkpt>
<trkpt lat="46.76173" lon="6.45333"><ele></ele><time>2024-11-27T13:53:40Z</time></trkpt>
<trkpt lat="46.76172" lon="6.45333"><ele></ele><time>2024-11-27T13:53:43Z</time></trkpt>
<trkpt lat="46.76173" lon="6.45333"><ele></ele><time>2024-11-27T13:53:46Z</time></trkpt>
<trkpt lat="46.76175" lon="6.45332"><ele></ele><time>2024-11-27T13:53:49Z</time></trkpt>
<trkpt lat="46.76174" lon="6.45329"><ele></ele><time>2024-11-27T13:53:52Z</time></trkpt>
<trkpt lat="46.76171" lon="6.45329"><ele></ele><time>2024-11-27T13:53:55Z</time></trkpt>
<trkpt lat="46.76159" lon="6.45337"><ele></ele><time>2024-11-27T13:53:58Z</time></trkpt>
<trkpt lat="46.76148" lon="6.45337"><ele></ele><time>2024-11-27T13:54:1Z</time></trkpt>
<trkpt lat="46.76145" lon="6.45334"><ele></ele><time>2024-11-27T13:54:4Z</time></trkpt>
<trkpt lat="46.76143" lon="6.4533"><ele></ele><time>2024-11-27T13:54:7Z</time></trkpt>
<trkpt lat="46.76141" lon="6.45318"><ele></ele><time>2024-11-27T13:54:10Z</time></trkpt>
<trkpt lat="46.76141" lon="6.453"><ele></ele><time>2024-11-27T13:54:13Z</time></trkpt>
<trkpt lat="46.76142" lon="6.45298"><ele></ele><time>2024-11-27T13:54:16Z</time></trkpt>
<trkpt lat="46.76142" lon="6.45293"><ele></ele><time>2024-11-27T13:54:19Z</time></trkpt>
<trkpt lat="46.7614" lon="6.45282"><ele></ele><time>2024-11-27T13:54:22Z</time></trkpt>
<trkpt lat="46.76138" lon="6.45263"><ele></ele><time>2024-11-27T13:54:25Z</time></trkpt>
<trkpt lat="46.76137" lon="6.45256"><ele></ele><time>2024-11-27T13:54:28Z</time></trkpt>
<trkpt lat="46.76137" lon="6.45253"><ele></ele><time>2024-11-27T13:54:31Z</time></trkpt>
<trkpt lat="46.76137" lon="6.45241"><ele></ele><time>2024-11-27T13:54:34Z</time></trkpt>
<trkpt lat="46.76136" lon="6.45238"><ele></ele><time>2024-11-27T13:54:37Z</time></trkpt>
<trkpt lat="46.76135" lon="6.4521"><ele></ele><time>2024-11-27T13:54:40Z</time></trkpt>
<trkpt lat="46.76135" lon="6.45205"><ele></ele><time>2024-11-27T13:54:43Z</time></trkpt>
<trkpt lat="46.76139" lon="6.45178"><ele></ele><time>2024-11-27T13:54:46Z</time></trkpt>
<trkpt lat="46.76142" lon="6.45158"><ele></ele><time>2024-11-27T13:54:49Z</time></trkpt>
<trkpt lat="46.76144" lon="6.45146"><ele></ele><time>2024-11-27T13:54:52Z</time></trkpt>
<trkpt lat="46.76145" lon="6.4513"><ele></ele><time>2024-11-27T13:54:55Z</time></trkpt>
<trkpt lat="46.76146" lon="6.45115"><ele></ele><time>2024-11-27T13:54:58Z</time></trkpt>
<trkpt lat="46.76146" lon="6.45111"><ele></ele><time>2024-11-27T13:55:1Z</time></trkpt>
<trkpt lat="46.76146" lon="6.45103"><ele></ele><time>2024-11-27T13:55:4Z</time></trkpt>
<trkpt lat="46.7614" lon="6.45068"><ele></ele><time>2024-11-27T13:55:7Z</time></trkpt>
<trkpt lat="46.7613" lon="6.45022"><ele></ele><time>2024-11-27T13:55:10Z</time></trkpt>
<trkpt lat="46.76119" lon="6.44989"><ele></ele><time>2024-11-27T13:55:13Z</time></trkpt>
<trkpt lat="46.76116" lon="6.44983"><ele></ele><time>2024-11-27T13:55:16Z</time></trkpt>
<trkpt lat="46.76095" lon="6.44938"><ele></ele><time>2024-11-27T13:55:19Z</time></trkpt>
<trkpt lat="46.76063" lon="6.44895"><ele></ele><time>2024-11-27T13:55:22Z</time></trkpt>
<trkpt lat="46.76048" lon="6.44878"><ele></ele><time>2024-11-27T13:55:25Z</time></trkpt>
<trkpt lat="46.76038" lon="6.44869"><ele></ele><time>2024-11-27T13:55:28Z</time></trkpt>
<trkpt lat="46.76033" lon="6.44867"><ele></ele><time>2024-11-27T13:55:31Z</time></trkpt>
<trkpt lat="46.76027" lon="6.44864"><ele></ele><time>2024-11-27T13:55:34Z</time></trkpt>
<trkpt lat="46.76011" lon="6.44862"><ele></ele><time>2024-11-27T13:55:37Z</time></trkpt>
<trkpt lat="46.76005" lon="6.44861"><ele></ele><time>2024-11-27T13:55:40Z</time></trkpt>
<trkpt lat="46.75987" lon="6.44855"><ele></ele><time>2024-11-27T13:55:43Z</time></trkpt>
<trkpt lat="46.7597" lon="6.44848"><ele></ele><time>2024-11-27T13:55:46Z</time></trkpt>
<trkpt lat="46.75964" lon="6.44846"><ele></ele><time>2024-11-27T13:55:49Z</time></trkpt>
<trkpt lat="46.75953" lon="6.44841"><ele></ele><time>2024-11-27T13:55:52Z</time></trkpt>
<trkpt lat="46.75941" lon="6.44835"><ele></ele><time>2024-11-27T13:55:55Z</time></trkpt>
<trkpt lat="46.75931" lon="6.44832"><ele></ele><time>2024-11-27T13:55:58Z</time></trkpt>
<trkpt lat="46.75926" lon="6.4483"><ele></ele><time>2024-11-27T13:56:1Z</time></trkpt>
<trkpt lat="46.75912" lon="6.44827"><ele></ele><time>2024-11-27T13:56:4Z</time></trkpt>
<trkpt lat="46.75903" lon="6.44826"><ele></ele><time>2024-11-27T13:56:7Z</time></trkpt>
<trkpt lat="46.75899" lon="6.44824"><ele></ele><time>2024-11-27T13:56:10Z</time></trkpt>
<trkpt lat="46.75892" lon="6.44815"><ele></ele><time>2024-11-27T13:56:13Z</time></trkpt>
<trkpt lat="46.75893" lon="6.448"><ele></ele><time>2024-11-27T13:56:16Z</time></trkpt>
<trkpt lat="46.75892" lon="6.44782"><ele></ele><time>2024-11-27T13:56:19Z</time></trkpt>
<trkpt lat="46.75887" lon="6.44765"><ele></ele><time>2024-11-27T13:56:22Z</time></trkpt>
<trkpt lat="46.75884" lon="6.44759"><ele></ele><time>2024-11-27T13:56:25Z</time></trkpt>
<trkpt lat="46.75874" lon="6.44748"><ele></ele><time>2024-11-27T13:56:28Z</time></trkpt>
<trkpt lat="46.75872" lon="6.44746"><ele></ele><time>2024-11-27T13:56:31Z</time></trkpt>
<trkpt lat="46.7587" lon="6.44745"><ele></ele><time>2024-11-27T13:56:34Z</time></trkpt>
<trkpt lat="46.75856" lon="6.44737"><ele></ele><time>2024-11-27T13:56:37Z</time></trkpt>
<trkpt lat="46.75848" lon="6.44735"><ele></ele><time>2024-11-27T13:56:40Z</time></trkpt>
<trkpt lat="46.75838" lon="6.44733"><ele></ele><time>2024-11-27T13:56:43Z</time></trkpt>
<trkpt lat="46.75833" lon="6.44733"><ele></ele><time>2024-11-27T13:56:46Z</time></trkpt>
<trkpt lat="46.75816" lon="6.44728"><ele></ele><time>2024-11-27T13:56:49Z</time></trkpt>
<trkpt lat="46.75797" lon="6.44715"><ele></ele><time>2024-11-27T13:56:52Z</time></trkpt>
<trkpt lat="46.75789" lon="6.4471"><ele></ele><time>2024-11-27T13:56:55Z</time></trkpt>
<trkpt lat="46.75781" lon="6.44704"><ele></ele><time>2024-11-27T13:56:58Z</time></trkpt>
<trkpt lat="46.75777" lon="6.447"><ele></ele><time>2024-11-27T13:57:1Z</time></trkpt>
<trkpt lat="46.75759" lon="6.44685"><ele></ele><time>2024-11-27T13:57:4Z</time></trkpt>
<trkpt lat="46.75737" lon="6.44665"><ele></ele><time>2024-11-27T13:57:7Z</time></trkpt>
<trkpt lat="46.75725" lon="6.44645"><ele></ele><time>2024-11-27T13:57:10Z</time></trkpt>
<trkpt lat="46.75721" lon="6.4464"><ele></ele><time>2024-11-27T13:57:13Z</time></trkpt>
<trkpt lat="46.75716" lon="6.44638"><ele></ele><time>2024-11-27T13:57:16Z</time></trkpt>
<trkpt lat="46.7571" lon="6.44637"><ele></ele><time>2024-11-27T13:57:19Z</time></trkpt>
<trkpt lat="46.75699" lon="6.44641"><ele></ele><time>2024-11-27T13:57:22Z</time></trkpt>
<trkpt lat="46.75689" lon="6.4465"><ele></ele><time>2024-11-27T13:57:25Z</time></trkpt>
<trkpt lat="46.75676" lon="6.44664"><ele></ele><time>2024-11-27T13:57:28Z</time></trkpt>
<trkpt lat="46.75654" lon="6.44683"><ele></ele><time>2024-11-27T13:57:31Z</time></trkpt>
<trkpt lat="46.75649" lon="6.44686"><ele></ele><time>2024-11-27T13:57:34Z</time></trkpt>
<trkpt lat="46.75631" lon="6.44699"><ele></ele><time>2024-11-27T13:57:37Z</time></trkpt>
<trkpt lat="46.75626" lon="6.447"><ele></ele><time>2024-11-27T13:57:40Z</time></trkpt>
<trkpt lat="46.75621" lon="6.447"><ele></ele><time>2024-11-27T13:57:43Z</time></trkpt>
<trkpt lat="46.75607" lon="6.44694"><ele></ele><time>2024-11-27T13:57:46Z</time></trkpt>
<trkpt lat="46.75602" lon="6.44692"><ele></ele><time>2024-11-27T13:57:49Z</time></trkpt>
<trkpt lat="46.75583" lon="6.4468"><ele></ele><time>2024-11-27T13:57:52Z</time></trkpt>
<trkpt lat="46.75579" lon="6.44676"><ele></ele><time>2024-11-27T13:57:55Z</time></trkpt>
<trkpt lat="46.75574" lon="6.44672"><ele></ele><time>2024-11-27T13:57:58Z</time></trkpt>
<trkpt lat="46.75569" lon="6.44667"><ele></ele><time>2024-11-27T13:58:1Z</time></trkpt>
<trkpt lat="46.75559" lon="6.44655"><ele></ele><time>2024-11-27T13:58:4Z</time></trkpt>
<trkpt lat="46.75555" lon="6.44649"><ele></ele><time>2024-11-27T13:58:7Z</time></trkpt>
<trkpt lat="46.75545" lon="6.44636"><ele></ele><time>2024-11-27T13:58:10Z</time></trkpt>
<trkpt lat="46.75528" lon="6.44607"><ele></ele><time>2024-11-27T13:58:13Z</time></trkpt>
<trkpt lat="46.75523" lon="6.446"><ele></ele><time>2024-11-27T13:58:16Z</time></trkpt>
<trkpt lat="46.75519" lon="6.44594"><ele></ele><time>2024-11-27T13:58:19Z</time></trkpt>
<trkpt lat="46.75501" lon="6.44577"><ele></ele><time>2024-11-27T13:58:22Z</time></trkpt>
<trkpt lat="46.75495" lon="6.44572"><ele></ele><time>2024-11-27T13:58:25Z</time></trkpt>
<trkpt lat="46.75489" lon="6.44567"><ele></ele><time>2024-11-27T13:58:28Z</time></trkpt>
<trkpt lat="46.75477" lon="6.44558"><ele></ele><time>2024-11-27T13:58:31Z</time></trkpt>
<trkpt lat="46.75466" lon="6.44547"><ele></ele><time>2024-11-27T13:58:34Z</time></trkpt>
<trkpt lat="46.75449" lon="6.44527"><ele></ele><time>2024-11-27T13:58:37Z</time></trkpt>
<trkpt lat="46.75437" lon="6.44507"><ele></ele><time>2024-11-27T13:58:40Z</time></trkpt>
<trkpt lat="46.75428" lon="6.44492"><ele></ele><time>2024-11-27T13:58:43Z</time></trkpt>
<trkpt lat="46.75425" lon="6.44489"><ele></ele><time>2024-11-27T13:58:46Z</time></trkpt>
<trkpt lat="46.75419" lon="6.44481"><ele></ele><time>2024-11-27T13:58:49Z</time></trkpt>
<trkpt lat="46.75418" lon="6.44479"><ele></ele><time>2024-11-27T13:58:52Z</time></trkpt>
<trkpt lat="46.75413" lon="6.44467"><ele></ele><time>2024-11-27T13:58:55Z</time></trkpt>
<trkpt lat="46.75411" lon="6.44463"><ele></ele><time>2024-11-27T13:58:58Z</time></trkpt>
<trkpt lat="46.75411" lon="6.44461"><ele></ele><time>2024-11-27T13:59:1Z</time></trkpt>
<trkpt lat="46.75411" lon="6.44459"><ele></ele><time>2024-11-27T13:59:4Z</time></trkpt>
<trkpt lat="46.75411" lon="6.44457"><ele></ele><time>2024-11-27T13:59:7Z</time></trkpt>
<trkpt lat="46.75409" lon="6.44452"><ele></ele><time>2024-11-27T13:59:10Z</time></trkpt>
<trkpt lat="46.75407" lon="6.44444"><ele></ele><time>2024-11-27T13:59:13Z</time></trkpt>
<trkpt lat="46.75406" lon="6.44439"><ele></ele><time>2024-11-27T13:59:16Z</time></trkpt>
<trkpt lat="46.75406" lon="6.44438"><ele></ele><time>2024-11-27T13:59:19Z</time></trkpt>
<trkpt lat="46.75403" lon="6.44427"><ele></ele><time>2024-11-27T13:59:22Z</time></trkpt>
<trkpt lat="46.75402" lon="6.44426"><ele></ele><time>2024-11-27T13:59:25Z</time></trkpt>
<trkpt lat="46.75401" lon="6.44422"><ele></ele><time>2024-11-27T13:59:28Z</time></trkpt>
<trkpt lat="46.75401" lon="6.44421"><ele></ele><time>2024-11-27T13:59:31Z</time></trkpt>
<trkpt lat="46.75399" lon="6.44416"><ele></ele><time>2024-11-27T13:59:34Z</time></trkpt>
<trkpt lat="46.75399" lon="6.44412"><ele></ele><time>2024-11-27T13:59:37Z</time></trkpt>
<trkpt lat="46.75398" lon="6.4441"><ele></ele><time>2024-11-27T13:59:40Z</time></trkpt>
<trkpt lat="46.75394" lon="6.44401"><ele></ele><time>2024-11-27T13:59:43Z</time></trkpt>
<trkpt lat="46.75394" lon="6.44399"><ele></ele><time>2024-11-27T13:59:46Z</time></trkpt>
<trkpt lat="46.75392" lon="6.44391"><ele></ele><time>2024-11-27T13:59:49Z</time></trkpt>
<trkpt lat="46.75392" lon="6.44389"><ele></ele><time>2024-11-27T13:59:52Z</time></trkpt>
<trkpt lat="46.75389" lon="6.44379"><ele></ele><time>2024-11-27T13:59:55Z</time></trkpt>
<trkpt lat="46.75389" lon="6.44377"><ele></ele><time>2024-11-27T13:59:58Z</time></trkpt>
<trkpt lat="46.75388" lon="6.4437"><ele></ele><time>2024-11-27T14:0:1Z</time></trkpt>
<trkpt lat="46.75389" lon="6.44367"><ele></ele><time>2024-11-27T14:0:4Z</time></trkpt>
<trkpt lat="46.75389" lon="6.44363"><ele></ele><time>2024-11-27T14:0:7Z</time></trkpt>
<trkpt lat="46.75388" lon="6.44359"><ele></ele><time>2024-11-27T14:0:10Z</time></trkpt>
<trkpt lat="46.75388" lon="6.44358"><ele></ele><time>2024-11-27T14:0:13Z</time></trkpt>
<trkpt lat="46.75387" lon="6.44356"><ele></ele><time>2024-11-27T14:0:16Z</time></trkpt>
<trkpt lat="46.75387" lon="6.44354"><ele></ele><time>2024-11-27T14:0:19Z</time></trkpt>
<trkpt lat="46.75386" lon="6.44351"><ele></ele><time>2024-11-27T14:0:22Z</time></trkpt>
<trkpt lat="46.75386" lon="6.44348"><ele></ele><time>2024-11-27T14:0:25Z</time></trkpt>
<trkpt lat="46.75384" lon="6.44339"><ele></ele><time>2024-11-27T14:0:28Z</time></trkpt>
<trkpt lat="46.75384" lon="6.44337"><ele></ele><time>2024-11-27T14:0:31Z</time></trkpt>
<trkpt lat="46.75383" lon="6.44329"><ele></ele><time>2024-11-27T14:0:34Z</time></trkpt>
<trkpt lat="46.7538" lon="6.44324"><ele></ele><time>2024-11-27T14:0:37Z</time></trkpt>
<trkpt lat="46.75379" lon="6.44318"><ele></ele><time>2024-11-27T14:0:40Z</time></trkpt>
<trkpt lat="46.75378" lon="6.44317"><ele></ele><time>2024-11-27T14:0:43Z</time></trkpt>
<trkpt lat="46.75378" lon="6.44311"><ele></ele><time>2024-11-27T14:0:46Z</time></trkpt>
<trkpt lat="46.75379" lon="6.44305"><ele></ele><time>2024-11-27T14:0:49Z</time></trkpt>
<trkpt lat="46.75378" lon="6.44299"><ele></ele><time>2024-11-27T14:0:52Z</time></trkpt>
<trkpt lat="46.75378" lon="6.44297"><ele></ele><time>2024-11-27T14:0:55Z</time></trkpt>
<trkpt lat="46.75377" lon="6.44287"><ele></ele><time>2024-11-27T14:0:58Z</time></trkpt>
<trkpt lat="46.75377" lon="6.44286"><ele></ele><time>2024-11-27T14:1:1Z</time></trkpt>
<trkpt lat="46.75375" lon="6.44277"><ele></ele><time>2024-11-27T14:1:4Z</time></trkpt>
<trkpt lat="46.75374" lon="6.44273"><ele></ele><time>2024-11-27T14:1:7Z</time></trkpt>
<trkpt lat="46.7537" lon="6.44265"><ele></ele><time>2024-11-27T14:1:10Z</time></trkpt>
<trkpt lat="46.75368" lon="6.44258"><ele></ele><time>2024-11-27T14:1:13Z</time></trkpt>
<trkpt lat="46.75364" lon="6.44249"><ele></ele><time>2024-11-27T14:1:16Z</time></trkpt>
<trkpt lat="46.75361" lon="6.44244"><ele></ele><time>2024-11-27T14:1:19Z</time></trkpt>
<trkpt lat="46.75358" lon="6.4424"><ele></ele><time>2024-11-27T14:1:22Z</time></trkpt>
<trkpt lat="46.75356" lon="6.44238"><ele></ele><time>2024-11-27T14:1:25Z</time></trkpt>
<trkpt lat="46.7535" lon="6.4423"><ele></ele><time>2024-11-27T14:1:28Z</time></trkpt>
<trkpt lat="46.75345" lon="6.4422"><ele></ele><time>2024-11-27T14:1:31Z</time></trkpt>
<trkpt lat="46.75339" lon="6.4421"><ele></ele><time>2024-11-27T14:1:34Z</time></trkpt>
<trkpt lat="46.75337" lon="6.44204"><ele></ele><time>2024-11-27T14:1:37Z</time></trkpt>
<trkpt lat="46.75332" lon="6.44187"><ele></ele><time>2024-11-27T14:1:40Z</time></trkpt>
<trkpt lat="46.75324" lon="6.4416"><ele></ele><time>2024-11-27T14:1:43Z</time></trkpt>
<trkpt lat="46.75321" lon="6.44131"><ele></ele><time>2024-11-27T14:1:46Z</time></trkpt>
<trkpt lat="46.75321" lon="6.44103"><ele></ele><time>2024-11-27T14:1:49Z</time></trkpt>
<trkpt lat="46.75321" lon="6.44098"><ele></ele><time>2024-11-27T14:1:52Z</time></trkpt>
<trkpt lat="46.75321" lon="6.44077"><ele></ele><time>2024-11-27T14:1:55Z</time></trkpt>
<trkpt lat="46.75321" lon="6.44062"><ele></ele><time>2024-11-27T14:1:58Z</time></trkpt>
<trkpt lat="46.75319" lon="6.44036"><ele></ele><time>2024-11-27T14:2:1Z</time></trkpt>
<trkpt lat="46.75317" lon="6.44025"><ele></ele><time>2024-11-27T14:2:4Z</time></trkpt>
<trkpt lat="46.75314" lon="6.4401"><ele></ele><time>2024-11-27T14:2:7Z</time></trkpt>
<trkpt lat="46.75312" lon="6.44004"><ele></ele><time>2024-11-27T14:2:10Z</time></trkpt>
<trkpt lat="46.75308" lon="6.43989"><ele></ele><time>2024-11-27T14:2:13Z</time></trkpt>
<trkpt lat="46.75307" lon="6.43983"><ele></ele><time>2024-11-27T14:2:16Z</time></trkpt>
<trkpt lat="46.75305" lon="6.43974"><ele></ele><time>2024-11-27T14:2:19Z</time></trkpt>
<trkpt lat="46.75303" lon="6.43966"><ele></ele><time>2024-11-27T14:2:22Z</time></trkpt>
<trkpt lat="46.75298" lon="6.43952"><ele></ele><time>2024-11-27T14:2:25Z</time></trkpt>
<trkpt lat="46.75297" lon="6.43951"><ele></ele><time>2024-11-27T14:2:28Z</time></trkpt>
<trkpt lat="46.75298" lon="6.43952"><ele></ele><time>2024-11-27T14:2:31Z</time></trkpt>
<trkpt lat="46.75301" lon="6.43949"><ele></ele><time>2024-11-27T14:2:34Z</time></trkpt>
<trkpt lat="46.75299" lon="6.43949"><ele></ele><time>2024-11-27T14:2:37Z</time></trkpt>
<trkpt lat="46.75299" lon="6.43949"><ele></ele><time>2024-11-27T14:2:40Z</time></trkpt>
<trkpt lat="46.75299" lon="6.43949"><ele></ele><time>2024-11-27T14:2:43Z</time></trkpt>
<trkpt lat="46.753" lon="6.43949"><ele></ele><time>2024-11-27T14:2:46Z</time></trkpt>
<trkpt lat="46.753" lon="6.43949"><ele></ele><time>2024-11-27T14:2:49Z</time></trkpt>
<trkpt lat="46.75301" lon="6.43948"><ele></ele><time>2024-11-27T14:2:52Z</time></trkpt>
<trkpt lat="46.75299" lon="6.43949"><ele></ele><time>2024-11-27T14:2:55Z</time></trkpt>
<trkpt lat="46.75298" lon="6.4395"><ele></ele><time>2024-11-27T14:2:58Z</time></trkpt>
<trkpt lat="46.75299" lon="6.4395"><ele></ele><time>2024-11-27T14:3:1Z</time></trkpt>
<trkpt lat="46.75299" lon="6.43951"><ele></ele><time>2024-11-27T14:3:4Z</time></trkpt>
<trkpt lat="46.75298" lon="6.43951"><ele></ele><time>2024-11-27T14:3:7Z</time></trkpt>
<trkpt lat="46.753" lon="6.43951"><ele></ele><time>2024-11-27T14:3:10Z</time></trkpt>
<trkpt lat="46.753" lon="6.43951"><ele></ele><time>2024-11-27T14:3:13Z</time></trkpt>
<trkpt lat="46.753" lon="6.43951"><ele></ele><time>2024-11-27T14:3:16Z</time></trkpt>
<trkpt lat="46.753" lon="6.43951"><ele></ele><time>2024-11-27T14:3:19Z</time></trkpt>
<trkpt lat="46.75299" lon="6.4395"><ele></ele><time>2024-11-27T14:3:22Z</time></trkpt>
<trkpt lat="46.75298" lon="6.4395"><ele></ele><time>2024-11-27T14:3:25Z</time></trkpt>
<trkpt lat="46.75298" lon="6.43949"><ele></ele><time>2024-11-27T14:3:28Z</time></trkpt>
<trkpt lat="46.75298" lon="6.4395"><ele></ele><time>2024-11-27T14:3:31Z</time></trkpt>
<trkpt lat="46.753" lon="6.43952"><ele></ele><time>2024-11-27T14:3:34Z</time></trkpt>
<trkpt lat="46.75299" lon="6.43953"><ele></ele><time>2024-11-27T14:3:37Z</time></trkpt>
<trkpt lat="46.75298" lon="6.43952"><ele></ele><time>2024-11-27T14:3:40Z</time></trkpt>
<trkpt lat="46.75298" lon="6.43951"><ele></ele><time>2024-11-27T14:3:43Z</time></trkpt>
<trkpt lat="46.75299" lon="6.43951"><ele></ele><time>2024-11-27T14:3:46Z</time></trkpt>
<trkpt lat="46.75299" lon="6.43951"><ele></ele><time>2024-11-27T14:3:49Z</time></trkpt>
<trkpt lat="46.75299" lon="6.43953"><ele></ele><time>2024-11-27T14:3:52Z</time></trkpt>
<trkpt lat="46.75301" lon="6.43958"><ele></ele><time>2024-11-27T14:3:55Z</time></trkpt>
<trkpt lat="46.75302" lon="6.43965"><ele></ele><time>2024-11-27T14:3:58Z</time></trkpt>
<trkpt lat="46.75303" lon="6.43967"><ele></ele><time>2024-11-27T14:4:1Z</time></trkpt>
<trkpt lat="46.75303" lon="6.4397"><ele></ele><time>2024-11-27T14:4:4Z</time></trkpt>
<trkpt lat="46.75306" lon="6.43974"><ele></ele><time>2024-11-27T14:4:7Z</time></trkpt>
<trkpt lat="46.75308" lon="6.43982"><ele></ele><time>2024-11-27T14:4:10Z</time></trkpt>
<trkpt lat="46.75313" lon="6.43998"><ele></ele><time>2024-11-27T14:4:13Z</time></trkpt>
<trkpt lat="46.75313" lon="6.43998"><ele></ele><time>2024-11-27T14:4:16Z</time></trkpt>
<trkpt lat="46.75314" lon="6.43999"><ele></ele><time>2024-11-27T14:4:19Z</time></trkpt>
<trkpt lat="46.75316" lon="6.44013"><ele></ele><time>2024-11-27T14:4:22Z</time></trkpt>
<trkpt lat="46.7532" lon="6.44046"><ele></ele><time>2024-11-27T14:4:25Z</time></trkpt>
<trkpt lat="46.7532" lon="6.44082"><ele></ele><time>2024-11-27T14:4:28Z</time></trkpt>
<trkpt lat="46.75321" lon="6.44087"><ele></ele><time>2024-11-27T14:4:31Z</time></trkpt>
<trkpt lat="46.7532" lon="6.441"><ele></ele><time>2024-11-27T14:4:34Z</time></trkpt>
<trkpt lat="46.7532" lon="6.44118"><ele></ele><time>2024-11-27T14:4:37Z</time></trkpt>
<trkpt lat="46.75321" lon="6.44141"><ele></ele><time>2024-11-27T14:4:40Z</time></trkpt>
<trkpt lat="46.75322" lon="6.44151"><ele></ele><time>2024-11-27T14:4:43Z</time></trkpt>
<trkpt lat="46.75325" lon="6.44166"><ele></ele><time>2024-11-27T14:4:46Z</time></trkpt>
<trkpt lat="46.75335" lon="6.44197"><ele></ele><time>2024-11-27T14:4:49Z</time></trkpt>
<trkpt lat="46.75343" lon="6.44217"><ele></ele><time>2024-11-27T14:4:52Z</time></trkpt>
<trkpt lat="46.75357" lon="6.44243"><ele></ele><time>2024-11-27T14:4:55Z</time></trkpt>
<trkpt lat="46.75365" lon="6.44258"><ele></ele><time>2024-11-27T14:4:58Z</time></trkpt>
<trkpt lat="46.7537" lon="6.4427"><ele></ele><time>2024-11-27T14:5:1Z</time></trkpt>
<trkpt lat="46.75372" lon="6.44275"><ele></ele><time>2024-11-27T14:5:4Z</time></trkpt>
<trkpt lat="46.75374" lon="6.44288"><ele></ele><time>2024-11-27T14:5:7Z</time></trkpt>
<trkpt lat="46.75378" lon="6.44301"><ele></ele><time>2024-11-27T14:5:10Z</time></trkpt>
<trkpt lat="46.75379" lon="6.44308"><ele></ele><time>2024-11-27T14:5:13Z</time></trkpt>
<trkpt lat="46.75382" lon="6.4432"><ele></ele><time>2024-11-27T14:5:16Z</time></trkpt>
<trkpt lat="46.75384" lon="6.44333"><ele></ele><time>2024-11-27T14:5:19Z</time></trkpt>
<trkpt lat="46.75386" lon="6.44344"><ele></ele><time>2024-11-27T14:5:22Z</time></trkpt>
<trkpt lat="46.75388" lon="6.44349"><ele></ele><time>2024-11-27T14:5:25Z</time></trkpt>
<trkpt lat="46.75392" lon="6.44365"><ele></ele><time>2024-11-27T14:5:28Z</time></trkpt>
<trkpt lat="46.75394" lon="6.44382"><ele></ele><time>2024-11-27T14:5:31Z</time></trkpt>
<trkpt lat="46.75395" lon="6.44389"><ele></ele><time>2024-11-27T14:5:34Z</time></trkpt>
<trkpt lat="46.75399" lon="6.44404"><ele></ele><time>2024-11-27T14:5:37Z</time></trkpt>
<trkpt lat="46.75403" lon="6.44419"><ele></ele><time>2024-11-27T14:5:40Z</time></trkpt>
<trkpt lat="46.75405" lon="6.44427"><ele></ele><time>2024-11-27T14:5:43Z</time></trkpt>
<trkpt lat="46.75411" lon="6.44447"><ele></ele><time>2024-11-27T14:5:46Z</time></trkpt>
<trkpt lat="46.75412" lon="6.44453"><ele></ele><time>2024-11-27T14:5:49Z</time></trkpt>
<trkpt lat="46.75415" lon="6.44462"><ele></ele><time>2024-11-27T14:5:52Z</time></trkpt>
<trkpt lat="46.75421" lon="6.44473"><ele></ele><time>2024-11-27T14:5:55Z</time></trkpt>
<trkpt lat="46.75431" lon="6.44489"><ele></ele><time>2024-11-27T14:5:58Z</time></trkpt>
<trkpt lat="46.75438" lon="6.44501"><ele></ele><time>2024-11-27T14:6:1Z</time></trkpt>
<trkpt lat="46.75454" lon="6.44524"><ele></ele><time>2024-11-27T14:6:4Z</time></trkpt>
<trkpt lat="46.75463" lon="6.44538"><ele></ele><time>2024-11-27T14:6:7Z</time></trkpt>
<trkpt lat="46.75478" lon="6.44553"><ele></ele><time>2024-11-27T14:6:10Z</time></trkpt>
<trkpt lat="46.75484" lon="6.4456"><ele></ele><time>2024-11-27T14:6:13Z</time></trkpt>
<trkpt lat="46.7549" lon="6.44565"><ele></ele><time>2024-11-27T14:6:16Z</time></trkpt>
<trkpt lat="46.75499" lon="6.44576"><ele></ele><time>2024-11-27T14:6:19Z</time></trkpt>
<trkpt lat="46.75504" lon="6.44582"><ele></ele><time>2024-11-27T14:6:22Z</time></trkpt>
<trkpt lat="46.7551" lon="6.44587"><ele></ele><time>2024-11-27T14:6:25Z</time></trkpt>
<trkpt lat="46.75513" lon="6.44591"><ele></ele><time>2024-11-27T14:6:28Z</time></trkpt>
<trkpt lat="46.75517" lon="6.44595"><ele></ele><time>2024-11-27T14:6:31Z</time></trkpt>
<trkpt lat="46.75523" lon="6.44601"><ele></ele><time>2024-11-27T14:6:34Z</time></trkpt>
<trkpt lat="46.75525" lon="6.44604"><ele></ele><time>2024-11-27T14:6:37Z</time></trkpt>
<trkpt lat="46.7553" lon="6.44611"><ele></ele><time>2024-11-27T14:6:40Z</time></trkpt>
<trkpt lat="46.75531" lon="6.44612"><ele></ele><time>2024-11-27T14:6:43Z</time></trkpt>
<trkpt lat="46.75532" lon="6.44614"><ele></ele><time>2024-11-27T14:6:46Z</time></trkpt>
<trkpt lat="46.75533" lon="6.44616"><ele></ele><time>2024-11-27T14:6:49Z</time></trkpt>
<trkpt lat="46.75534" lon="6.44618"><ele></ele><time>2024-11-27T14:6:52Z</time></trkpt>
<trkpt lat="46.75536" lon="6.44622"><ele></ele><time>2024-11-27T14:6:55Z</time></trkpt>
<trkpt lat="46.75539" lon="6.44628"><ele></ele><time>2024-11-27T14:6:58Z</time></trkpt>
<trkpt lat="46.75542" lon="6.44632"><ele></ele><time>2024-11-27T14:7:1Z</time></trkpt>
<trkpt lat="46.75545" lon="6.44638"><ele></ele><time>2024-11-27T14:7:4Z</time></trkpt>
<trkpt lat="46.75549" lon="6.44643"><ele></ele><time>2024-11-27T14:7:7Z</time></trkpt>
<trkpt lat="46.75553" lon="6.44649"><ele></ele><time>2024-11-27T14:7:10Z</time></trkpt>
<trkpt lat="46.75565" lon="6.44663"><ele></ele><time>2024-11-27T14:7:13Z</time></trkpt>
<trkpt lat="46.75567" lon="6.44666"><ele></ele><time>2024-11-27T14:7:16Z</time></trkpt>
<trkpt lat="46.75579" lon="6.44678"><ele></ele><time>2024-11-27T14:7:19Z</time></trkpt>
<trkpt lat="46.75583" lon="6.44682"><ele></ele><time>2024-11-27T14:7:22Z</time></trkpt>
<trkpt lat="46.75591" lon="6.44688"><ele></ele><time>2024-11-27T14:7:25Z</time></trkpt>
<trkpt lat="46.75595" lon="6.4469"><ele></ele><time>2024-11-27T14:7:28Z</time></trkpt>
<trkpt lat="46.7561" lon="6.44699"><ele></ele><time>2024-11-27T14:7:31Z</time></trkpt>
<trkpt lat="46.75625" lon="6.44702"><ele></ele><time>2024-11-27T14:7:34Z</time></trkpt>
<trkpt lat="46.75628" lon="6.44702"><ele></ele><time>2024-11-27T14:7:37Z</time></trkpt>
<trkpt lat="46.75645" lon="6.44694"><ele></ele><time>2024-11-27T14:7:40Z</time></trkpt>
<trkpt lat="46.75659" lon="6.44681"><ele></ele><time>2024-11-27T14:7:43Z</time></trkpt>
<trkpt lat="46.75663" lon="6.44676"><ele></ele><time>2024-11-27T14:7:46Z</time></trkpt>
<trkpt lat="46.7567" lon="6.4467"><ele></ele><time>2024-11-27T14:7:49Z</time></trkpt>
<trkpt lat="46.75683" lon="6.44659"><ele></ele><time>2024-11-27T14:7:52Z</time></trkpt>
<trkpt lat="46.75697" lon="6.44646"><ele></ele><time>2024-11-27T14:7:55Z</time></trkpt>
<trkpt lat="46.75702" lon="6.44642"><ele></ele><time>2024-11-27T14:7:58Z</time></trkpt>
<trkpt lat="46.75708" lon="6.44639"><ele></ele><time>2024-11-27T14:8:1Z</time></trkpt>
<trkpt lat="46.75714" lon="6.4464"><ele></ele><time>2024-11-27T14:8:4Z</time></trkpt>
<trkpt lat="46.75721" lon="6.44643"><ele></ele><time>2024-11-27T14:8:7Z</time></trkpt>
<trkpt lat="46.75726" lon="6.44648"><ele></ele><time>2024-11-27T14:8:10Z</time></trkpt>
<trkpt lat="46.75727" lon="6.4465"><ele></ele><time>2024-11-27T14:8:13Z</time></trkpt>
<trkpt lat="46.75733" lon="6.44658"><ele></ele><time>2024-11-27T14:8:16Z</time></trkpt>
<trkpt lat="46.75736" lon="6.44661"><ele></ele><time>2024-11-27T14:8:19Z</time></trkpt>
<trkpt lat="46.75743" lon="6.44671"><ele></ele><time>2024-11-27T14:8:22Z</time></trkpt>
<trkpt lat="46.75749" lon="6.44676"><ele></ele><time>2024-11-27T14:8:25Z</time></trkpt>
<trkpt lat="46.75758" lon="6.44686"><ele></ele><time>2024-11-27T14:8:28Z</time></trkpt>
<trkpt lat="46.75762" lon="6.4469"><ele></ele><time>2024-11-27T14:8:31Z</time></trkpt>
<trkpt lat="46.75765" lon="6.44693"><ele></ele><time>2024-11-27T14:8:34Z</time></trkpt>
<trkpt lat="46.75771" lon="6.44697"><ele></ele><time>2024-11-27T14:8:37Z</time></trkpt>
<trkpt lat="46.75773" lon="6.44698"><ele></ele><time>2024-11-27T14:8:40Z</time></trkpt>
<trkpt lat="46.75782" lon="6.44703"><ele></ele><time>2024-11-27T14:8:43Z</time></trkpt>
<trkpt lat="46.75787" lon="6.44706"><ele></ele><time>2024-11-27T14:8:46Z</time></trkpt>
<trkpt lat="46.75795" lon="6.44712"><ele></ele><time>2024-11-27T14:8:49Z</time></trkpt>
<trkpt lat="46.75798" lon="6.44714"><ele></ele><time>2024-11-27T14:8:52Z</time></trkpt>
<trkpt lat="46.75807" lon="6.44721"><ele></ele><time>2024-11-27T14:8:55Z</time></trkpt>
<trkpt lat="46.75809" lon="6.44722"><ele></ele><time>2024-11-27T14:8:58Z</time></trkpt>
<trkpt lat="46.75813" lon="6.44725"><ele></ele><time>2024-11-27T14:9:1Z</time></trkpt>
<trkpt lat="46.75821" lon="6.44729"><ele></ele><time>2024-11-27T14:9:4Z</time></trkpt>
<trkpt lat="46.75835" lon="6.44732"><ele></ele><time>2024-11-27T14:9:7Z</time></trkpt>
<trkpt lat="46.75853" lon="6.44736"><ele></ele><time>2024-11-27T14:9:10Z</time></trkpt>
<trkpt lat="46.75864" lon="6.44741"><ele></ele><time>2024-11-27T14:9:13Z</time></trkpt>
<trkpt lat="46.75873" lon="6.44746"><ele></ele><time>2024-11-27T14:9:16Z</time></trkpt>
<trkpt lat="46.75877" lon="6.4475"><ele></ele><time>2024-11-27T14:9:19Z</time></trkpt>
<trkpt lat="46.75885" lon="6.44759"><ele></ele><time>2024-11-27T14:9:22Z</time></trkpt>
<trkpt lat="46.75892" lon="6.44771"><ele></ele><time>2024-11-27T14:9:25Z</time></trkpt>
<trkpt lat="46.75895" lon="6.44785"><ele></ele><time>2024-11-27T14:9:28Z</time></trkpt>
<trkpt lat="46.75894" lon="6.44799"><ele></ele><time>2024-11-27T14:9:31Z</time></trkpt>
<trkpt lat="46.7589" lon="6.44812"><ele></ele><time>2024-11-27T14:9:34Z</time></trkpt>
<trkpt lat="46.75883" lon="6.44832"><ele></ele><time>2024-11-27T14:9:37Z</time></trkpt>
<trkpt lat="46.75861" lon="6.44869"><ele></ele><time>2024-11-27T14:9:40Z</time></trkpt>
<trkpt lat="46.7585" lon="6.44875"><ele></ele><time>2024-11-27T14:9:43Z</time></trkpt>
<trkpt lat="46.75836" lon="6.44879"><ele></ele><time>2024-11-27T14:9:46Z</time></trkpt>
<trkpt lat="46.7581" lon="6.44882"><ele></ele><time>2024-11-27T14:9:49Z</time></trkpt>
<trkpt lat="46.75792" lon="6.44883"><ele></ele><time>2024-11-27T14:9:52Z</time></trkpt>
<trkpt lat="46.75775" lon="6.44882"><ele></ele><time>2024-11-27T14:9:55Z</time></trkpt>
<trkpt lat="46.75759" lon="6.44884"><ele></ele><time>2024-11-27T14:9:58Z</time></trkpt>
<trkpt lat="46.75752" lon="6.44886"><ele></ele><time>2024-11-27T14:10:1Z</time></trkpt>
<trkpt lat="46.75744" lon="6.44889"><ele></ele><time>2024-11-27T14:10:4Z</time></trkpt>
<trkpt lat="46.75729" lon="6.44896"><ele></ele><time>2024-11-27T14:10:7Z</time></trkpt>
<trkpt lat="46.75719" lon="6.44908"><ele></ele><time>2024-11-27T14:10:10Z</time></trkpt>
<trkpt lat="46.75714" lon="6.4493"><ele></ele><time>2024-11-27T14:10:13Z</time></trkpt>
<trkpt lat="46.75713" lon="6.44943"><ele></ele><time>2024-11-27T14:10:16Z</time></trkpt>
<trkpt lat="46.75714" lon="6.44955"><ele></ele><time>2024-11-27T14:10:19Z</time></trkpt>
<trkpt lat="46.75715" lon="6.44969"><ele></ele><time>2024-11-27T14:10:22Z</time></trkpt>
<trkpt lat="46.75718" lon="6.44982"><ele></ele><time>2024-11-27T14:10:25Z</time></trkpt>
<trkpt lat="46.75721" lon="6.44996"><ele></ele><time>2024-11-27T14:10:28Z</time></trkpt>
<trkpt lat="46.75728" lon="6.45026"><ele></ele><time>2024-11-27T14:10:31Z</time></trkpt>
<trkpt lat="46.75737" lon="6.45057"><ele></ele><time>2024-11-27T14:10:34Z</time></trkpt>
<trkpt lat="46.75741" lon="6.45072"><ele></ele><time>2024-11-27T14:10:37Z</time></trkpt>
<trkpt lat="46.75745" lon="6.45089"><ele></ele><time>2024-11-27T14:10:40Z</time></trkpt>
<trkpt lat="46.75749" lon="6.45107"><ele></ele><time>2024-11-27T14:10:43Z</time></trkpt>
<trkpt lat="46.75753" lon="6.45124"><ele></ele><time>2024-11-27T14:10:46Z</time></trkpt>
<trkpt lat="46.75759" lon="6.4516"><ele></ele><time>2024-11-27T14:10:49Z</time></trkpt>
<trkpt lat="46.75759" lon="6.45176"><ele></ele><time>2024-11-27T14:10:52Z</time></trkpt>
<trkpt lat="46.75756" lon="6.4519"><ele></ele><time>2024-11-27T14:10:55Z</time></trkpt>
<trkpt lat="46.75753" lon="6.45202"><ele></ele><time>2024-11-27T14:10:58Z</time></trkpt>
<trkpt lat="46.75748" lon="6.45211"><ele></ele><time>2024-11-27T14:11:1Z</time></trkpt>
<trkpt lat="46.75737" lon="6.45228"><ele></ele><time>2024-11-27T14:11:4Z</time></trkpt>
<trkpt lat="46.75732" lon="6.45233"><ele></ele><time>2024-11-27T14:11:7Z</time></trkpt>
<trkpt lat="46.75728" lon="6.45238"><ele></ele><time>2024-11-27T14:11:10Z</time></trkpt>
<trkpt lat="46.75722" lon="6.4524"><ele></ele><time>2024-11-27T14:11:13Z</time></trkpt>
<trkpt lat="46.75716" lon="6.45241"><ele></ele><time>2024-11-27T14:11:16Z</time></trkpt>
<trkpt lat="46.7571" lon="6.45241"><ele></ele><time>2024-11-27T14:11:19Z</time></trkpt>
<trkpt lat="46.75697" lon="6.45243"><ele></ele><time>2024-11-27T14:11:22Z</time></trkpt>
<trkpt lat="46.75673" lon="6.45241"><ele></ele><time>2024-11-27T14:11:25Z</time></trkpt>
<trkpt lat="46.75665" lon="6.45239"><ele></ele><time>2024-11-27T14:11:28Z</time></trkpt>
<trkpt lat="46.75656" lon="6.45238"><ele></ele><time>2024-11-27T14:11:31Z</time></trkpt>
<trkpt lat="46.75617" lon="6.45232"><ele></ele><time>2024-11-27T14:11:34Z</time></trkpt>
<trkpt lat="46.75607" lon="6.45231"><ele></ele><time>2024-11-27T14:11:37Z</time></trkpt>
<trkpt lat="46.75596" lon="6.4523"><ele></ele><time>2024-11-27T14:11:40Z</time></trkpt>
<trkpt lat="46.75585" lon="6.45229"><ele></ele><time>2024-11-27T14:11:43Z</time></trkpt>
<trkpt lat="46.75562" lon="6.45226"><ele></ele><time>2024-11-27T14:11:46Z</time></trkpt>
<trkpt lat="46.7555" lon="6.45225"><ele></ele><time>2024-11-27T14:11:49Z</time></trkpt>
<trkpt lat="46.75538" lon="6.45223"><ele></ele><time>2024-11-27T14:11:52Z</time></trkpt>
<trkpt lat="46.75514" lon="6.45216"><ele></ele><time>2024-11-27T14:11:55Z</time></trkpt>
<trkpt lat="46.75491" lon="6.4521"><ele></ele><time>2024-11-27T14:11:58Z</time></trkpt>
<trkpt lat="46.75479" lon="6.45206"><ele></ele><time>2024-11-27T14:12:1Z</time></trkpt>
<trkpt lat="46.75468" lon="6.452"><ele></ele><time>2024-11-27T14:12:4Z</time></trkpt>
<trkpt lat="46.75445" lon="6.45188"><ele></ele><time>2024-11-27T14:12:7Z</time></trkpt>
<trkpt lat="46.75433" lon="6.45181"><ele></ele><time>2024-11-27T14:12:10Z</time></trkpt>
<trkpt lat="46.7541" lon="6.45168"><ele></ele><time>2024-11-27T14:12:13Z</time></trkpt>
<trkpt lat="46.75386" lon="6.45156"><ele></ele><time>2024-11-27T14:12:16Z</time></trkpt>
<trkpt lat="46.75363" lon="6.45143"><ele></ele><time>2024-11-27T14:12:19Z</time></trkpt>
<trkpt lat="46.75342" lon="6.4513"><ele></ele><time>2024-11-27T14:12:22Z</time></trkpt>
<trkpt lat="46.75332" lon="6.45123"><ele></ele><time>2024-11-27T14:12:25Z</time></trkpt>
<trkpt lat="46.75324" lon="6.45115"><ele></ele><time>2024-11-27T14:12:28Z</time></trkpt>
<trkpt lat="46.75316" lon="6.45106"><ele></ele><time>2024-11-27T14:12:31Z</time></trkpt>
<trkpt lat="46.75309" lon="6.45097"><ele></ele><time>2024-11-27T14:12:34Z</time></trkpt>
<trkpt lat="46.75302" lon="6.45085"><ele></ele><time>2024-11-27T14:12:37Z</time></trkpt>
<trkpt lat="46.75295" lon="6.45073"><ele></ele><time>2024-11-27T14:12:40Z</time></trkpt>
<trkpt lat="46.75289" lon="6.45061"><ele></ele><time>2024-11-27T14:12:43Z</time></trkpt>
<trkpt lat="46.75282" lon="6.45047"><ele></ele><time>2024-11-27T14:12:46Z</time></trkpt>
<trkpt lat="46.75266" lon="6.45004"><ele></ele><time>2024-11-27T14:12:49Z</time></trkpt>
<trkpt lat="46.75263" lon="6.4499"><ele></ele><time>2024-11-27T14:12:52Z</time></trkpt>
<trkpt lat="46.75261" lon="6.44975"><ele></ele><time>2024-11-27T14:12:55Z</time></trkpt>
<trkpt lat="46.7526" lon="6.44961"><ele></ele><time>2024-11-27T14:12:58Z</time></trkpt>
<trkpt lat="46.75259" lon="6.44948"><ele></ele><time>2024-11-27T14:13:1Z</time></trkpt>
<trkpt lat="46.75259" lon="6.44921"><ele></ele><time>2024-11-27T14:13:4Z</time></trkpt>
<trkpt lat="46.75264" lon="6.44895"><ele></ele><time>2024-11-27T14:13:7Z</time></trkpt>
<trkpt lat="46.75271" lon="6.4487"><ele></ele><time>2024-11-27T14:13:10Z</time></trkpt>
<trkpt lat="46.75283" lon="6.44834"><ele></ele><time>2024-11-27T14:13:13Z</time></trkpt>
<trkpt lat="46.75293" lon="6.44809"><ele></ele><time>2024-11-27T14:13:16Z</time></trkpt>
<trkpt lat="46.75304" lon="6.44785"><ele></ele><time>2024-11-27T14:13:19Z</time></trkpt>
<trkpt lat="46.75311" lon="6.44775"><ele></ele><time>2024-11-27T14:13:22Z</time></trkpt>
<trkpt lat="46.75318" lon="6.44766"><ele></ele><time>2024-11-27T14:13:25Z</time></trkpt>
<trkpt lat="46.75326" lon="6.44758"><ele></ele><time>2024-11-27T14:13:28Z</time></trkpt>
<trkpt lat="46.75342" lon="6.44744"><ele></ele><time>2024-11-27T14:13:31Z</time></trkpt>
<trkpt lat="46.75345" lon="6.44734"><ele></ele><time>2024-11-27T14:13:34Z</time></trkpt>
<trkpt lat="46.75344" lon="6.44723"><ele></ele><time>2024-11-27T14:13:37Z</time></trkpt>
<trkpt lat="46.75341" lon="6.44714"><ele></ele><time>2024-11-27T14:13:40Z</time></trkpt>
<trkpt lat="46.75331" lon="6.44698"><ele></ele><time>2024-11-27T14:13:43Z</time></trkpt>
<trkpt lat="46.75326" lon="6.44691"><ele></ele><time>2024-11-27T14:13:46Z</time></trkpt>
<trkpt lat="46.75314" lon="6.44675"><ele></ele><time>2024-11-27T14:13:49Z</time></trkpt>
<trkpt lat="46.75301" lon="6.44662"><ele></ele><time>2024-11-27T14:13:52Z</time></trkpt>
<trkpt lat="46.75293" lon="6.44658"><ele></ele><time>2024-11-27T14:13:55Z</time></trkpt>
<trkpt lat="46.75284" lon="6.44656"><ele></ele><time>2024-11-27T14:13:58Z</time></trkpt>
<trkpt lat="46.75276" lon="6.44654"><ele></ele><time>2024-11-27T14:14:1Z</time></trkpt>
<trkpt lat="46.75269" lon="6.44651"><ele></ele><time>2024-11-27T14:14:4Z</time></trkpt>
<trkpt lat="46.75262" lon="6.44647"><ele></ele><time>2024-11-27T14:14:7Z</time></trkpt>
<trkpt lat="46.7525" lon="6.44634"><ele></ele><time>2024-11-27T14:14:10Z</time></trkpt>
<trkpt lat="46.75244" lon="6.44626"><ele></ele><time>2024-11-27T14:14:13Z</time></trkpt>
<trkpt lat="46.7523" lon="6.44608"><ele></ele><time>2024-11-27T14:14:16Z</time></trkpt>
<trkpt lat="46.75223" lon="6.44597"><ele></ele><time>2024-11-27T14:14:19Z</time></trkpt>
<trkpt lat="46.75208" lon="6.44574"><ele></ele><time>2024-11-27T14:14:22Z</time></trkpt>
<trkpt lat="46.7519" lon="6.44549"><ele></ele><time>2024-11-27T14:14:25Z</time></trkpt>
<trkpt lat="46.75181" lon="6.44538"><ele></ele><time>2024-11-27T14:14:28Z</time></trkpt>
<trkpt lat="46.7517" lon="6.4453"><ele></ele><time>2024-11-27T14:14:31Z</time></trkpt>
<trkpt lat="46.75158" lon="6.44524"><ele></ele><time>2024-11-27T14:14:34Z</time></trkpt>
<trkpt lat="46.75145" lon="6.44519"><ele></ele><time>2024-11-27T14:14:37Z</time></trkpt>
<trkpt lat="46.75133" lon="6.44515"><ele></ele><time>2024-11-27T14:14:40Z</time></trkpt>
<trkpt lat="46.75121" lon="6.4451"><ele></ele><time>2024-11-27T14:14:43Z</time></trkpt>
<trkpt lat="46.75109" lon="6.44504"><ele></ele><time>2024-11-27T14:14:46Z</time></trkpt>
<trkpt lat="46.75097" lon="6.44497"><ele></ele><time>2024-11-27T14:14:49Z</time></trkpt>
<trkpt lat="46.75085" lon="6.44488"><ele></ele><time>2024-11-27T14:14:52Z</time></trkpt>
<trkpt lat="46.75065" lon="6.44465"><ele></ele><time>2024-11-27T14:14:55Z</time></trkpt>
<trkpt lat="46.75045" lon="6.4444"><ele></ele><time>2024-11-27T14:14:58Z</time></trkpt>
<trkpt lat="46.75034" lon="6.44429"><ele></ele><time>2024-11-27T14:15:1Z</time></trkpt>
<trkpt lat="46.75023" lon="6.4442"><ele></ele><time>2024-11-27T14:15:4Z</time></trkpt>
<trkpt lat="46.75011" lon="6.44412"><ele></ele><time>2024-11-27T14:15:7Z</time></trkpt>
<trkpt lat="46.74989" lon="6.44393"><ele></ele><time>2024-11-27T14:15:10Z</time></trkpt>
<trkpt lat="46.7498" lon="6.4438"><ele></ele><time>2024-11-27T14:15:13Z</time></trkpt>
<trkpt lat="46.74974" lon="6.44366"><ele></ele><time>2024-11-27T14:15:16Z</time></trkpt>
<trkpt lat="46.74968" lon="6.44351"><ele></ele><time>2024-11-27T14:15:19Z</time></trkpt>
<trkpt lat="46.74959" lon="6.44321"><ele></ele><time>2024-11-27T14:15:22Z</time></trkpt>
<trkpt lat="46.74944" lon="6.44276"><ele></ele><time>2024-11-27T14:15:25Z</time></trkpt>
<trkpt lat="46.74934" lon="6.44246"><ele></ele><time>2024-11-27T14:15:28Z</time></trkpt>
<trkpt lat="46.74929" lon="6.4423"><ele></ele><time>2024-11-27T14:15:31Z</time></trkpt>
<trkpt lat="46.74924" lon="6.44215"><ele></ele><time>2024-11-27T14:15:34Z</time></trkpt>
<trkpt lat="46.7492" lon="6.44201"><ele></ele><time>2024-11-27T14:15:37Z</time></trkpt>
<trkpt lat="46.74915" lon="6.44187"><ele></ele><time>2024-11-27T14:15:40Z</time></trkpt>
<trkpt lat="46.74909" lon="6.44173"><ele></ele><time>2024-11-27T14:15:43Z</time></trkpt>
<trkpt lat="46.74889" lon="6.44134"><ele></ele><time>2024-11-27T14:15:46Z</time></trkpt>
<trkpt lat="46.74867" lon="6.44096"><ele></ele><time>2024-11-27T14:15:49Z</time></trkpt>
<trkpt lat="46.74859" lon="6.44084"><ele></ele><time>2024-11-27T14:15:52Z</time></trkpt>
<trkpt lat="46.74852" lon="6.44072"><ele></ele><time>2024-11-27T14:15:55Z</time></trkpt>
<trkpt lat="46.74845" lon="6.4406"><ele></ele><time>2024-11-27T14:15:58Z</time></trkpt>
<trkpt lat="46.74838" lon="6.44048"><ele></ele><time>2024-11-27T14:16:1Z</time></trkpt>
<trkpt lat="46.74832" lon="6.44035"><ele></ele><time>2024-11-27T14:16:4Z</time></trkpt>
<trkpt lat="46.74827" lon="6.44021"><ele></ele><time>2024-11-27T14:16:7Z</time></trkpt>
<trkpt lat="46.74819" lon="6.43991"><ele></ele><time>2024-11-27T14:16:10Z</time></trkpt>
<trkpt lat="46.74817" lon="6.43975"><ele></ele><time>2024-11-27T14:16:13Z</time></trkpt>
<trkpt lat="46.74805" lon="6.43909"><ele></ele><time>2024-11-27T14:16:16Z</time></trkpt>
<trkpt lat="46.74803" lon="6.43892"><ele></ele><time>2024-11-27T14:16:19Z</time></trkpt>
<trkpt lat="46.748" lon="6.43875"><ele></ele><time>2024-11-27T14:16:22Z</time></trkpt>
<trkpt lat="46.74797" lon="6.43858"><ele></ele><time>2024-11-27T14:16:25Z</time></trkpt>
<trkpt lat="46.74795" lon="6.43841"><ele></ele><time>2024-11-27T14:16:28Z</time></trkpt>
<trkpt lat="46.74787" lon="6.4379"><ele></ele><time>2024-11-27T14:16:31Z</time></trkpt>
<trkpt lat="46.74778" lon="6.43739"><ele></ele><time>2024-11-27T14:16:34Z</time></trkpt>
<trkpt lat="46.74777" lon="6.43722"><ele></ele><time>2024-11-27T14:16:37Z</time></trkpt>
<trkpt lat="46.74777" lon="6.43688"><ele></ele><time>2024-11-27T14:16:40Z</time></trkpt>
<trkpt lat="46.74778" lon="6.43671"><ele></ele><time>2024-11-27T14:16:43Z</time></trkpt>
<trkpt lat="46.74779" lon="6.43655"><ele></ele><time>2024-11-27T14:16:46Z</time></trkpt>
<trkpt lat="46.74778" lon="6.43608"><ele></ele><time>2024-11-27T14:16:49Z</time></trkpt>
<trkpt lat="46.74777" lon="6.43593"><ele></ele><time>2024-11-27T14:16:52Z</time></trkpt>
<trkpt lat="46.74775" lon="6.43579"><ele></ele><time>2024-11-27T14:16:55Z</time></trkpt>
<trkpt lat="46.74767" lon="6.43551"><ele></ele><time>2024-11-27T14:16:58Z</time></trkpt>
<trkpt lat="46.74754" lon="6.4351"><ele></ele><time>2024-11-27T14:17:1Z</time></trkpt>
<trkpt lat="46.74744" lon="6.43484"><ele></ele><time>2024-11-27T14:17:4Z</time></trkpt>
<trkpt lat="46.74739" lon="6.43471"><ele></ele><time>2024-11-27T14:17:7Z</time></trkpt>
<trkpt lat="46.74736" lon="6.43456"><ele></ele><time>2024-11-27T14:17:10Z</time></trkpt>
<trkpt lat="46.74729" lon="6.43411"><ele></ele><time>2024-11-27T14:17:13Z</time></trkpt>
<trkpt lat="46.74722" lon="6.4338"><ele></ele><time>2024-11-27T14:17:16Z</time></trkpt>
<trkpt lat="46.74718" lon="6.43364"><ele></ele><time>2024-11-27T14:17:19Z</time></trkpt>
<trkpt lat="46.74712" lon="6.43348"><ele></ele><time>2024-11-27T14:17:22Z</time></trkpt>
<trkpt lat="46.747" lon="6.43317"><ele></ele><time>2024-11-27T14:17:25Z</time></trkpt>
<trkpt lat="46.74687" lon="6.43284"><ele></ele><time>2024-11-27T14:17:28Z</time></trkpt>
<trkpt lat="46.7468" lon="6.43268"><ele></ele><time>2024-11-27T14:17:31Z</time></trkpt>
<trkpt lat="46.74674" lon="6.43252"><ele></ele><time>2024-11-27T14:17:34Z</time></trkpt>
<trkpt lat="46.74668" lon="6.43235"><ele></ele><time>2024-11-27T14:17:37Z</time></trkpt>
<trkpt lat="46.74658" lon="6.43199"><ele></ele><time>2024-11-27T14:17:40Z</time></trkpt>
<trkpt lat="46.74653" lon="6.43181"><ele></ele><time>2024-11-27T14:17:43Z</time></trkpt>
<trkpt lat="46.74643" lon="6.43147"><ele></ele><time>2024-11-27T14:17:46Z</time></trkpt>
<trkpt lat="46.74638" lon="6.43133"><ele></ele><time>2024-11-27T14:17:49Z</time></trkpt>
<trkpt lat="46.74631" lon="6.4312"><ele></ele><time>2024-11-27T14:17:52Z</time></trkpt>
<trkpt lat="46.74623" lon="6.43108"><ele></ele><time>2024-11-27T14:17:55Z</time></trkpt>
<trkpt lat="46.74615" lon="6.43097"><ele></ele><time>2024-11-27T14:17:58Z</time></trkpt>
<trkpt lat="46.74606" lon="6.43086"><ele></ele><time>2024-11-27T14:18:1Z</time></trkpt>
<trkpt lat="46.74587" lon="6.43066"><ele></ele><time>2024-11-27T14:18:4Z</time></trkpt>
<trkpt lat="46.74568" lon="6.43043"><ele></ele><time>2024-11-27T14:18:7Z</time></trkpt>
<trkpt lat="46.7456" lon="6.43032"><ele></ele><time>2024-11-27T14:18:10Z</time></trkpt>
<trkpt lat="46.74545" lon="6.43008"><ele></ele><time>2024-11-27T14:18:13Z</time></trkpt>
<trkpt lat="46.74538" lon="6.42996"><ele></ele><time>2024-11-27T14:18:16Z</time></trkpt>
<trkpt lat="46.74532" lon="6.42985"><ele></ele><time>2024-11-27T14:18:19Z</time></trkpt>
<trkpt lat="46.7452" lon="6.42961"><ele></ele><time>2024-11-27T14:18:22Z</time></trkpt>
<trkpt lat="46.74511" lon="6.42939"><ele></ele><time>2024-11-27T14:18:25Z</time></trkpt>
<trkpt lat="46.74499" lon="6.42907"><ele></ele><time>2024-11-27T14:18:28Z</time></trkpt>
<trkpt lat="46.74493" lon="6.429"><ele></ele><time>2024-11-27T14:18:31Z</time></trkpt>
<trkpt lat="46.74488" lon="6.42898"><ele></ele><time>2024-11-27T14:18:34Z</time></trkpt>
<trkpt lat="46.74483" lon="6.429"><ele></ele><time>2024-11-27T14:18:37Z</time></trkpt>
<trkpt lat="46.74479" lon="6.42901"><ele></ele><time>2024-11-27T14:18:40Z</time></trkpt>
<trkpt lat="46.74471" lon="6.42904"><ele></ele><time>2024-11-27T14:18:43Z</time></trkpt>
<trkpt lat="46.74476" lon="6.42923"><ele></ele><time>2024-11-27T14:18:46Z</time></trkpt>
<trkpt lat="46.74479" lon="6.42938"><ele></ele><time>2024-11-27T14:18:49Z</time></trkpt>
<trkpt lat="46.74481" lon="6.42957"><ele></ele><time>2024-11-27T14:18:52Z</time></trkpt>
<trkpt lat="46.74481" lon="6.42968"><ele></ele><time>2024-11-27T14:18:55Z</time></trkpt>
<trkpt lat="46.7448" lon="6.42979"><ele></ele><time>2024-11-27T14:18:58Z</time></trkpt>
<trkpt lat="46.74478" lon="6.43001"><ele></ele><time>2024-11-27T14:19:1Z</time></trkpt>
<trkpt lat="46.74477" lon="6.43013"><ele></ele><time>2024-11-27T14:19:4Z</time></trkpt>
<trkpt lat="46.74476" lon="6.43024"><ele></ele><time>2024-11-27T14:19:7Z</time></trkpt>
<trkpt lat="46.74474" lon="6.43036"><ele></ele><time>2024-11-27T14:19:10Z</time></trkpt>
<trkpt lat="46.74473" lon="6.43048"><ele></ele><time>2024-11-27T14:19:13Z</time></trkpt>
<trkpt lat="46.74472" lon="6.43059"><ele></ele><time>2024-11-27T14:19:16Z</time></trkpt>
<trkpt lat="46.74472" lon="6.43083"><ele></ele><time>2024-11-27T14:19:19Z</time></trkpt>
<trkpt lat="46.74473" lon="6.43108"><ele></ele><time>2024-11-27T14:19:22Z</time></trkpt>
<trkpt lat="46.74474" lon="6.4312"><ele></ele><time>2024-11-27T14:19:25Z</time></trkpt>
<trkpt lat="46.74475" lon="6.43143"><ele></ele><time>2024-11-27T14:19:28Z</time></trkpt>
<trkpt lat="46.74475" lon="6.43154"><ele></ele><time>2024-11-27T14:19:31Z</time></trkpt>
<trkpt lat="46.74473" lon="6.43165"><ele></ele><time>2024-11-27T14:19:34Z</time></trkpt>
<trkpt lat="46.7447" lon="6.43176"><ele></ele><time>2024-11-27T14:19:37Z</time></trkpt>
<trkpt lat="46.74467" lon="6.43188"><ele></ele><time>2024-11-27T14:19:40Z</time></trkpt>
<trkpt lat="46.74464" lon="6.43199"><ele></ele><time>2024-11-27T14:19:43Z</time></trkpt>
<trkpt lat="46.74461" lon="6.4321"><ele></ele><time>2024-11-27T14:19:46Z</time></trkpt>
<trkpt lat="46.74458" lon="6.4322"><ele></ele><time>2024-11-27T14:19:49Z</time></trkpt>
<trkpt lat="46.74454" lon="6.43229"><ele></ele><time>2024-11-27T14:19:52Z</time></trkpt>
<trkpt lat="46.74451" lon="6.43239"><ele></ele><time>2024-11-27T14:19:55Z</time></trkpt>
<trkpt lat="46.74441" lon="6.43257"><ele></ele><time>2024-11-27T14:19:58Z</time></trkpt>
<trkpt lat="46.74427" lon="6.43266"><ele></ele><time>2024-11-27T14:20:1Z</time></trkpt>
<trkpt lat="46.74419" lon="6.43267"><ele></ele><time>2024-11-27T14:20:4Z</time></trkpt>
<trkpt lat="46.74411" lon="6.43268"><ele></ele><time>2024-11-27T14:20:7Z</time></trkpt>
<trkpt lat="46.74394" lon="6.43269"><ele></ele><time>2024-11-27T14:20:10Z</time></trkpt>
<trkpt lat="46.74385" lon="6.4327"><ele></ele><time>2024-11-27T14:20:13Z</time></trkpt>
<trkpt lat="46.74376" lon="6.4327"><ele></ele><time>2024-11-27T14:20:16Z</time></trkpt>
<trkpt lat="46.74368" lon="6.43269"><ele></ele><time>2024-11-27T14:20:19Z</time></trkpt>
<trkpt lat="46.7436" lon="6.43267"><ele></ele><time>2024-11-27T14:20:22Z</time></trkpt>
<trkpt lat="46.74353" lon="6.43265"><ele></ele><time>2024-11-27T14:20:25Z</time></trkpt>
<trkpt lat="46.74346" lon="6.43263"><ele></ele><time>2024-11-27T14:20:28Z</time></trkpt>
<trkpt lat="46.74339" lon="6.43263"><ele></ele><time>2024-11-27T14:20:31Z</time></trkpt>
<trkpt lat="46.74332" lon="6.43264"><ele></ele><time>2024-11-27T14:20:34Z</time></trkpt>
<trkpt lat="46.74318" lon="6.43272"><ele></ele><time>2024-11-27T14:20:37Z</time></trkpt>
<trkpt lat="46.74311" lon="6.43276"><ele></ele><time>2024-11-27T14:20:40Z</time></trkpt>
<trkpt lat="46.74296" lon="6.43285"><ele></ele><time>2024-11-27T14:20:43Z</time></trkpt>
<trkpt lat="46.7428" lon="6.43297"><ele></ele><time>2024-11-27T14:20:46Z</time></trkpt>
<trkpt lat="46.74271" lon="6.43303"><ele></ele><time>2024-11-27T14:20:49Z</time></trkpt>
<trkpt lat="46.74262" lon="6.43308"><ele></ele><time>2024-11-27T14:20:52Z</time></trkpt>
<trkpt lat="46.74245" lon="6.43317"><ele></ele><time>2024-11-27T14:20:55Z</time></trkpt>
<trkpt lat="46.74237" lon="6.43322"><ele></ele><time>2024-11-27T14:20:58Z</time></trkpt>
<trkpt lat="46.74229" lon="6.43327"><ele></ele><time>2024-11-27T14:21:1Z</time></trkpt>
<trkpt lat="46.74216" lon="6.43338"><ele></ele><time>2024-11-27T14:21:4Z</time></trkpt>
<trkpt lat="46.74209" lon="6.43345"><ele></ele><time>2024-11-27T14:21:7Z</time></trkpt>
<trkpt lat="46.74204" lon="6.43353"><ele></ele><time>2024-11-27T14:21:10Z</time></trkpt>
<trkpt lat="46.74196" lon="6.43373"><ele></ele><time>2024-11-27T14:21:13Z</time></trkpt>
<trkpt lat="46.74191" lon="6.43385"><ele></ele><time>2024-11-27T14:21:16Z</time></trkpt>
<trkpt lat="46.74187" lon="6.43395"><ele></ele><time>2024-11-27T14:21:19Z</time></trkpt>
<trkpt lat="46.74182" lon="6.43406"><ele></ele><time>2024-11-27T14:21:22Z</time></trkpt>
<trkpt lat="46.74177" lon="6.43415"><ele></ele><time>2024-11-27T14:21:25Z</time></trkpt>
<trkpt lat="46.74171" lon="6.43426"><ele></ele><time>2024-11-27T14:21:28Z</time></trkpt>
<trkpt lat="46.74166" lon="6.43437"><ele></ele><time>2024-11-27T14:21:31Z</time></trkpt>
<trkpt lat="46.74161" lon="6.43447"><ele></ele><time>2024-11-27T14:21:34Z</time></trkpt>
<trkpt lat="46.74155" lon="6.43459"><ele></ele><time>2024-11-27T14:21:37Z</time></trkpt>
<trkpt lat="46.7415" lon="6.43471"><ele></ele><time>2024-11-27T14:21:40Z</time></trkpt>
<trkpt lat="46.7414" lon="6.43497"><ele></ele><time>2024-11-27T14:21:43Z</time></trkpt>
<trkpt lat="46.74134" lon="6.43509"><ele></ele><time>2024-11-27T14:21:46Z</time></trkpt>
<trkpt lat="46.74129" lon="6.43521"><ele></ele><time>2024-11-27T14:21:49Z</time></trkpt>
<trkpt lat="46.74125" lon="6.43534"><ele></ele><time>2024-11-27T14:21:52Z</time></trkpt>
<trkpt lat="46.7412" lon="6.43546"><ele></ele><time>2024-11-27T14:21:55Z</time></trkpt>
<trkpt lat="46.74115" lon="6.43558"><ele></ele><time>2024-11-27T14:21:58Z</time></trkpt>
<trkpt lat="46.74109" lon="6.43568"><ele></ele><time>2024-11-27T14:22:1Z</time></trkpt>
<trkpt lat="46.74103" lon="6.43578"><ele></ele><time>2024-11-27T14:22:4Z</time></trkpt>
<trkpt lat="46.74098" lon="6.43587"><ele></ele><time>2024-11-27T14:22:7Z</time></trkpt>
<trkpt lat="46.74092" lon="6.43596"><ele></ele><time>2024-11-27T14:22:10Z</time></trkpt>
<trkpt lat="46.74083" lon="6.43615"><ele></ele><time>2024-11-27T14:22:13Z</time></trkpt>
<trkpt lat="46.74074" lon="6.43635"><ele></ele><time>2024-11-27T14:22:16Z</time></trkpt>
<trkpt lat="46.7407" lon="6.43645"><ele></ele><time>2024-11-27T14:22:19Z</time></trkpt>
<trkpt lat="46.74065" lon="6.43654"><ele></ele><time>2024-11-27T14:22:22Z</time></trkpt>
<trkpt lat="46.7406" lon="6.43663"><ele></ele><time>2024-11-27T14:22:25Z</time></trkpt>
<trkpt lat="46.74056" lon="6.43671"><ele></ele><time>2024-11-27T14:22:28Z</time></trkpt>
<trkpt lat="46.74046" lon="6.43688"><ele></ele><time>2024-11-27T14:22:31Z</time></trkpt>
<trkpt lat="46.74041" lon="6.43697"><ele></ele><time>2024-11-27T14:22:34Z</time></trkpt>
<trkpt lat="46.74036" lon="6.43706"><ele></ele><time>2024-11-27T14:22:37Z</time></trkpt>
<trkpt lat="46.74031" lon="6.43716"><ele></ele><time>2024-11-27T14:22:40Z</time></trkpt>
<trkpt lat="46.74025" lon="6.43725"><ele></ele><time>2024-11-27T14:22:43Z</time></trkpt>
<trkpt lat="46.7402" lon="6.43734"><ele></ele><time>2024-11-27T14:22:46Z</time></trkpt>
<trkpt lat="46.74015" lon="6.43742"><ele></ele><time>2024-11-27T14:22:49Z</time></trkpt>
<trkpt lat="46.7401" lon="6.4375"><ele></ele><time>2024-11-27T14:22:52Z</time></trkpt>
<trkpt lat="46.74006" lon="6.43758"><ele></ele><time>2024-11-27T14:22:55Z</time></trkpt>
<trkpt lat="46.74002" lon="6.43766"><ele></ele><time>2024-11-27T14:22:58Z</time></trkpt>
<trkpt lat="46.73998" lon="6.43773"><ele></ele><time>2024-11-27T14:23:1Z</time></trkpt>
<trkpt lat="46.73994" lon="6.4378"><ele></ele><time>2024-11-27T14:23:4Z</time></trkpt>
<trkpt lat="46.73991" lon="6.43786"><ele></ele><time>2024-11-27T14:23:7Z</time></trkpt>
<trkpt lat="46.73989" lon="6.43793"><ele></ele><time>2024-11-27T14:23:10Z</time></trkpt>
<trkpt lat="46.73988" lon="6.43802"><ele></ele><time>2024-11-27T14:23:13Z</time></trkpt>
<trkpt lat="46.73987" lon="6.43811"><ele></ele><time>2024-11-27T14:23:16Z</time></trkpt>
<trkpt lat="46.73986" lon="6.43822"><ele></ele><time>2024-11-27T14:23:19Z</time></trkpt>
<trkpt lat="46.73986" lon="6.43834"><ele></ele><time>2024-11-27T14:23:22Z</time></trkpt>
<trkpt lat="46.73984" lon="6.43856"><ele></ele><time>2024-11-27T14:23:25Z</time></trkpt>
<trkpt lat="46.73983" lon="6.43866"><ele></ele><time>2024-11-27T14:23:28Z</time></trkpt>
<trkpt lat="46.73983" lon="6.43877"><ele></ele><time>2024-11-27T14:23:31Z</time></trkpt>
<trkpt lat="46.73984" lon="6.43889"><ele></ele><time>2024-11-27T14:23:34Z</time></trkpt>
<trkpt lat="46.73985" lon="6.439"><ele></ele><time>2024-11-27T14:23:37Z</time></trkpt>
<trkpt lat="46.73986" lon="6.43913"><ele></ele><time>2024-11-27T14:23:40Z</time></trkpt>
<trkpt lat="46.73987" lon="6.43926"><ele></ele><time>2024-11-27T14:23:43Z</time></trkpt>
<trkpt lat="46.73988" lon="6.43939"><ele></ele><time>2024-11-27T14:23:46Z</time></trkpt>
<trkpt lat="46.73989" lon="6.43953"><ele></ele><time>2024-11-27T14:23:49Z</time></trkpt>
<trkpt lat="46.73992" lon="6.43979"><ele></ele><time>2024-11-27T14:23:52Z</time></trkpt>
<trkpt lat="46.73994" lon="6.43991"><ele></ele><time>2024-11-27T14:23:55Z</time></trkpt>
<trkpt lat="46.73996" lon="6.44003"><ele></ele><time>2024-11-27T14:23:58Z</time></trkpt>
<trkpt lat="46.73998" lon="6.44028"><ele></ele><time>2024-11-27T14:24:1Z</time></trkpt>
<trkpt lat="46.74001" lon="6.44042"><ele></ele><time>2024-11-27T14:24:4Z</time></trkpt>
<trkpt lat="46.74003" lon="6.44056"><ele></ele><time>2024-11-27T14:24:7Z</time></trkpt>
<trkpt lat="46.74005" lon="6.44071"><ele></ele><time>2024-11-27T14:24:10Z</time></trkpt>
<trkpt lat="46.74006" lon="6.44085"><ele></ele><time>2024-11-27T14:24:13Z</time></trkpt>
<trkpt lat="46.74007" lon="6.441"><ele></ele><time>2024-11-27T14:24:16Z</time></trkpt>
<trkpt lat="46.74008" lon="6.44114"><ele></ele><time>2024-11-27T14:24:19Z</time></trkpt>
<trkpt lat="46.74009" lon="6.44129"><ele></ele><time>2024-11-27T14:24:22Z</time></trkpt>
<trkpt lat="46.74011" lon="6.44157"><ele></ele><time>2024-11-27T14:24:25Z</time></trkpt>
<trkpt lat="46.74013" lon="6.44187"><ele></ele><time>2024-11-27T14:24:28Z</time></trkpt>
<trkpt lat="46.74015" lon="6.44201"><ele></ele><time>2024-11-27T14:24:31Z</time></trkpt>
<trkpt lat="46.74016" lon="6.44215"><ele></ele><time>2024-11-27T14:24:34Z</time></trkpt>
<trkpt lat="46.74018" lon="6.44229"><ele></ele><time>2024-11-27T14:24:37Z</time></trkpt>
<trkpt lat="46.74018" lon="6.44243"><ele></ele><time>2024-11-27T14:24:40Z</time></trkpt>
<trkpt lat="46.74019" lon="6.44257"><ele></ele><time>2024-11-27T14:24:43Z</time></trkpt>
<trkpt lat="46.74019" lon="6.4427"><ele></ele><time>2024-11-27T14:24:46Z</time></trkpt>
<trkpt lat="46.74018" lon="6.44285"><ele></ele><time>2024-11-27T14:24:49Z</time></trkpt>
<trkpt lat="46.74019" lon="6.44299"><ele></ele><time>2024-11-27T14:24:52Z</time></trkpt>
<trkpt lat="46.7402" lon="6.44314"><ele></ele><time>2024-11-27T14:24:55Z</time></trkpt>
<trkpt lat="46.74022" lon="6.44329"><ele></ele><time>2024-11-27T14:24:58Z</time></trkpt>
<trkpt lat="46.74024" lon="6.44344"><ele></ele><time>2024-11-27T14:25:1Z</time></trkpt>
<trkpt lat="46.74027" lon="6.44358"><ele></ele><time>2024-11-27T14:25:4Z</time></trkpt>
<trkpt lat="46.74029" lon="6.4437"><ele></ele><time>2024-11-27T14:25:7Z</time></trkpt>
<trkpt lat="46.74032" lon="6.44382"><ele></ele><time>2024-11-27T14:25:10Z</time></trkpt>
<trkpt lat="46.74036" lon="6.44394"><ele></ele><time>2024-11-27T14:25:13Z</time></trkpt>
<trkpt lat="46.74039" lon="6.44406"><ele></ele><time>2024-11-27T14:25:16Z</time></trkpt>
<trkpt lat="46.74042" lon="6.4442"><ele></ele><time>2024-11-27T14:25:19Z</time></trkpt>
<trkpt lat="46.74044" lon="6.44433"><ele></ele><time>2024-11-27T14:25:22Z</time></trkpt>
<trkpt lat="46.74045" lon="6.44447"><ele></ele><time>2024-11-27T14:25:25Z</time></trkpt>
<trkpt lat="46.74046" lon="6.4446"><ele></ele><time>2024-11-27T14:25:28Z</time></trkpt>
<trkpt lat="46.74047" lon="6.44473"><ele></ele><time>2024-11-27T14:25:31Z</time></trkpt>
<trkpt lat="46.74047" lon="6.44485"><ele></ele><time>2024-11-27T14:25:34Z</time></trkpt>
<trkpt lat="46.74047" lon="6.44496"><ele></ele><time>2024-11-27T14:25:37Z</time></trkpt>
<trkpt lat="46.74047" lon="6.44505"><ele></ele><time>2024-11-27T14:25:40Z</time></trkpt>
<trkpt lat="46.74047" lon="6.44515"><ele></ele><time>2024-11-27T14:25:43Z</time></trkpt>
<trkpt lat="46.74048" lon="6.44524"><ele></ele><time>2024-11-27T14:25:46Z</time></trkpt>
<trkpt lat="46.7405" lon="6.44533"><ele></ele><time>2024-11-27T14:25:49Z</time></trkpt>
<trkpt lat="46.74053" lon="6.44543"><ele></ele><time>2024-11-27T14:25:52Z</time></trkpt>
<trkpt lat="46.74057" lon="6.44555"><ele></ele><time>2024-11-27T14:25:55Z</time></trkpt>
<trkpt lat="46.74061" lon="6.44567"><ele></ele><time>2024-11-27T14:25:58Z</time></trkpt>
<trkpt lat="46.74066" lon="6.44578"><ele></ele><time>2024-11-27T14:26:1Z</time></trkpt>
<trkpt lat="46.74071" lon="6.44591"><ele></ele><time>2024-11-27T14:26:4Z</time></trkpt>
<trkpt lat="46.7408" lon="6.44616"><ele></ele><time>2024-11-27T14:26:7Z</time></trkpt>
<trkpt lat="46.74089" lon="6.4464"><ele></ele><time>2024-11-27T14:26:10Z</time></trkpt>
<trkpt lat="46.74093" lon="6.4465"><ele></ele><time>2024-11-27T14:26:13Z</time></trkpt>
<trkpt lat="46.74098" lon="6.44661"><ele></ele><time>2024-11-27T14:26:16Z</time></trkpt>
<trkpt lat="46.74106" lon="6.44682"><ele></ele><time>2024-11-27T14:26:19Z</time></trkpt>
<trkpt lat="46.7411" lon="6.44693"><ele></ele><time>2024-11-27T14:26:22Z</time></trkpt>
<trkpt lat="46.74112" lon="6.44704"><ele></ele><time>2024-11-27T14:26:25Z</time></trkpt>
<trkpt lat="46.74114" lon="6.44716"><ele></ele><time>2024-11-27T14:26:28Z</time></trkpt>
<trkpt lat="46.74114" lon="6.44728"><ele></ele><time>2024-11-27T14:26:31Z</time></trkpt>
<trkpt lat="46.74116" lon="6.44751"><ele></ele><time>2024-11-27T14:26:34Z</time></trkpt>
<trkpt lat="46.74118" lon="6.44762"><ele></ele><time>2024-11-27T14:26:37Z</time></trkpt>
<trkpt lat="46.74121" lon="6.44771"><ele></ele><time>2024-11-27T14:26:40Z</time></trkpt>
<trkpt lat="46.74124" lon="6.44781"><ele></ele><time>2024-11-27T14:26:43Z</time></trkpt>
<trkpt lat="46.74126" lon="6.4479"><ele></ele><time>2024-11-27T14:26:46Z</time></trkpt>
<trkpt lat="46.74129" lon="6.448"><ele></ele><time>2024-11-27T14:26:49Z</time></trkpt>
<trkpt lat="46.74131" lon="6.44811"><ele></ele><time>2024-11-27T14:26:52Z</time></trkpt>
<trkpt lat="46.74135" lon="6.44833"><ele></ele><time>2024-11-27T14:26:55Z</time></trkpt>
<trkpt lat="46.74137" lon="6.44844"><ele></ele><time>2024-11-27T14:26:58Z</time></trkpt>
<trkpt lat="46.74138" lon="6.44855"><ele></ele><time>2024-11-27T14:27:1Z</time></trkpt>
<trkpt lat="46.7414" lon="6.44867"><ele></ele><time>2024-11-27T14:27:4Z</time></trkpt>
<trkpt lat="46.74144" lon="6.4488"><ele></ele><time>2024-11-27T14:27:7Z</time></trkpt>
<trkpt lat="46.74148" lon="6.44892"><ele></ele><time>2024-11-27T14:27:10Z</time></trkpt>
<trkpt lat="46.74153" lon="6.44905"><ele></ele><time>2024-11-27T14:27:13Z</time></trkpt>
<trkpt lat="46.74162" lon="6.44934"><ele></ele><time>2024-11-27T14:27:16Z</time></trkpt>
<trkpt lat="46.74166" lon="6.44948"><ele></ele><time>2024-11-27T14:27:19Z</time></trkpt>
<trkpt lat="46.74169" lon="6.44963"><ele></ele><time>2024-11-27T14:27:22Z</time></trkpt>
<trkpt lat="46.74174" lon="6.44995"><ele></ele><time>2024-11-27T14:27:25Z</time></trkpt>
<trkpt lat="46.74182" lon="6.45028"><ele></ele><time>2024-11-27T14:27:28Z</time></trkpt>
<trkpt lat="46.7419" lon="6.4506"><ele></ele><time>2024-11-27T14:27:31Z</time></trkpt>
<trkpt lat="46.74198" lon="6.45093"><ele></ele><time>2024-11-27T14:27:34Z</time></trkpt>
<trkpt lat="46.74201" lon="6.45111"><ele></ele><time>2024-11-27T14:27:37Z</time></trkpt>
<trkpt lat="46.74205" lon="6.45128"><ele></ele><time>2024-11-27T14:27:40Z</time></trkpt>
<trkpt lat="46.74211" lon="6.45163"><ele></ele><time>2024-11-27T14:27:43Z</time></trkpt>
<trkpt lat="46.74213" lon="6.4518"><ele></ele><time>2024-11-27T14:27:46Z</time></trkpt>
<trkpt lat="46.74215" lon="6.45197"><ele></ele><time>2024-11-27T14:27:49Z</time></trkpt>
<trkpt lat="46.74216" lon="6.45214"><ele></ele><time>2024-11-27T14:27:52Z</time></trkpt>
<trkpt lat="46.74217" lon="6.45251"><ele></ele><time>2024-11-27T14:27:55Z</time></trkpt>
<trkpt lat="46.74217" lon="6.45269"><ele></ele><time>2024-11-27T14:27:58Z</time></trkpt>
<trkpt lat="46.74218" lon="6.45286"><ele></ele><time>2024-11-27T14:28:1Z</time></trkpt>
<trkpt lat="46.74217" lon="6.45304"><ele></ele><time>2024-11-27T14:28:4Z</time></trkpt>
<trkpt lat="46.74217" lon="6.4532"><ele></ele><time>2024-11-27T14:28:7Z</time></trkpt>
<trkpt lat="46.74216" lon="6.45337"><ele></ele><time>2024-11-27T14:28:10Z</time></trkpt>
<trkpt lat="46.74215" lon="6.45367"><ele></ele><time>2024-11-27T14:28:13Z</time></trkpt>
<trkpt lat="46.74215" lon="6.45381"><ele></ele><time>2024-11-27T14:28:16Z</time></trkpt>
<trkpt lat="46.74216" lon="6.45393"><ele></ele><time>2024-11-27T14:28:19Z</time></trkpt>
<trkpt lat="46.74216" lon="6.45419"><ele></ele><time>2024-11-27T14:28:22Z</time></trkpt>
<trkpt lat="46.74214" lon="6.45444"><ele></ele><time>2024-11-27T14:28:25Z</time></trkpt>
<trkpt lat="46.74212" lon="6.45467"><ele></ele><time>2024-11-27T14:28:28Z</time></trkpt>
<trkpt lat="46.74211" lon="6.4548"><ele></ele><time>2024-11-27T14:28:31Z</time></trkpt>
<trkpt lat="46.74209" lon="6.45491"><ele></ele><time>2024-11-27T14:28:34Z</time></trkpt>
<trkpt lat="46.74206" lon="6.45514"><ele></ele><time>2024-11-27T14:28:37Z</time></trkpt>
<trkpt lat="46.74203" lon="6.45537"><ele></ele><time>2024-11-27T14:28:40Z</time></trkpt>
<trkpt lat="46.74201" lon="6.45559"><ele></ele><time>2024-11-27T14:28:43Z</time></trkpt>
<trkpt lat="46.74199" lon="6.45581"><ele></ele><time>2024-11-27T14:28:46Z</time></trkpt>
<trkpt lat="46.74198" lon="6.45593"><ele></ele><time>2024-11-27T14:28:49Z</time></trkpt>
<trkpt lat="46.74196" lon="6.45614"><ele></ele><time>2024-11-27T14:28:52Z</time></trkpt>
<trkpt lat="46.74195" lon="6.45623"><ele></ele><time>2024-11-27T14:28:55Z</time></trkpt>
<trkpt lat="46.74195" lon="6.45638"><ele></ele><time>2024-11-27T14:28:58Z</time></trkpt>
<trkpt lat="46.74195" lon="6.4565"><ele></ele><time>2024-11-27T14:29:1Z</time></trkpt>
<trkpt lat="46.74193" lon="6.45656"><ele></ele><time>2024-11-27T14:29:4Z</time></trkpt>
<trkpt lat="46.74191" lon="6.45662"><ele></ele><time>2024-11-27T14:29:7Z</time></trkpt>
<trkpt lat="46.74187" lon="6.45667"><ele></ele><time>2024-11-27T14:29:10Z</time></trkpt>
<trkpt lat="46.74178" lon="6.45677"><ele></ele><time>2024-11-27T14:29:13Z</time></trkpt>
<trkpt lat="46.74175" lon="6.45684"><ele></ele><time>2024-11-27T14:29:16Z</time></trkpt>
<trkpt lat="46.74166" lon="6.45694"><ele></ele><time>2024-11-27T14:29:19Z</time></trkpt>
<trkpt lat="46.74155" lon="6.45693"><ele></ele><time>2024-11-27T14:29:22Z</time></trkpt>
<trkpt lat="46.74151" lon="6.4569"><ele></ele><time>2024-11-27T14:29:25Z</time></trkpt>
<trkpt lat="46.74146" lon="6.45686"><ele></ele><time>2024-11-27T14:29:28Z</time></trkpt>
<trkpt lat="46.74142" lon="6.4568"><ele></ele><time>2024-11-27T14:29:31Z</time></trkpt>
<trkpt lat="46.74138" lon="6.45672"><ele></ele><time>2024-11-27T14:29:34Z</time></trkpt>
<trkpt lat="46.74131" lon="6.45656"><ele></ele><time>2024-11-27T14:29:37Z</time></trkpt>
<trkpt lat="46.74127" lon="6.45651"><ele></ele><time>2024-11-27T14:29:40Z</time></trkpt>
<trkpt lat="46.74122" lon="6.45647"><ele></ele><time>2024-11-27T14:29:43Z</time></trkpt>
<trkpt lat="46.74115" lon="6.45646"><ele></ele><time>2024-11-27T14:29:46Z</time></trkpt>
<trkpt lat="46.74108" lon="6.45647"><ele></ele><time>2024-11-27T14:29:49Z</time></trkpt>
<trkpt lat="46.74101" lon="6.45649"><ele></ele><time>2024-11-27T14:29:52Z</time></trkpt>
<trkpt lat="46.74093" lon="6.45651"><ele></ele><time>2024-11-27T14:29:55Z</time></trkpt>
<trkpt lat="46.74079" lon="6.45657"><ele></ele><time>2024-11-27T14:29:58Z</time></trkpt>
<trkpt lat="46.74073" lon="6.45659"><ele></ele><time>2024-11-27T14:30:1Z</time></trkpt>
<trkpt lat="46.74063" lon="6.45663"><ele></ele><time>2024-11-27T14:30:4Z</time></trkpt>
<trkpt lat="46.74059" lon="6.45663"><ele></ele><time>2024-11-27T14:30:7Z</time></trkpt>
<trkpt lat="46.74055" lon="6.45662"><ele></ele><time>2024-11-27T14:30:10Z</time></trkpt>
<trkpt lat="46.74048" lon="6.45659"><ele></ele><time>2024-11-27T14:30:13Z</time></trkpt>
<trkpt lat="46.74045" lon="6.45656"><ele></ele><time>2024-11-27T14:30:16Z</time></trkpt>
<trkpt lat="46.74038" lon="6.45651"><ele></ele><time>2024-11-27T14:30:19Z</time></trkpt>
<trkpt lat="46.74031" lon="6.4565"><ele></ele><time>2024-11-27T14:30:22Z</time></trkpt>
<trkpt lat="46.74028" lon="6.45652"><ele></ele><time>2024-11-27T14:30:25Z</time></trkpt>
<trkpt lat="46.74025" lon="6.45654"><ele></ele><time>2024-11-27T14:30:28Z</time></trkpt>
<trkpt lat="46.74013" lon="6.45656"><ele></ele><time>2024-11-27T14:30:31Z</time></trkpt>
<trkpt lat="46.74003" lon="6.45654"><ele></ele><time>2024-11-27T14:30:34Z</time></trkpt>
<trkpt lat="46.74" lon="6.45653"><ele></ele><time>2024-11-27T14:30:37Z</time></trkpt>
<trkpt lat="46.73998" lon="6.45652"><ele></ele><time>2024-11-27T14:30:40Z</time></trkpt>
<trkpt lat="46.73996" lon="6.45652"><ele></ele><time>2024-11-27T14:30:43Z</time></trkpt>
<trkpt lat="46.7399" lon="6.45658"><ele></ele><time>2024-11-27T14:30:46Z</time></trkpt>
<trkpt lat="46.73988" lon="6.45663"><ele></ele><time>2024-11-27T14:30:49Z</time></trkpt>
<trkpt lat="46.73987" lon="6.4567"><ele></ele><time>2024-11-27T14:30:52Z</time></trkpt>
<trkpt lat="46.73986" lon="6.45686"><ele></ele><time>2024-11-27T14:30:55Z</time></trkpt>
<trkpt lat="46.73985" lon="6.45694"><ele></ele><time>2024-11-27T14:30:58Z</time></trkpt>
<trkpt lat="46.7398" lon="6.45722"><ele></ele><time>2024-11-27T14:31:1Z</time></trkpt>
<trkpt lat="46.73977" lon="6.45746"><ele></ele><time>2024-11-27T14:31:4Z</time></trkpt>
<trkpt lat="46.73984" lon="6.45752"><ele></ele><time>2024-11-27T14:31:7Z</time></trkpt>
<trkpt lat="46.74" lon="6.45745"><ele></ele><time>2024-11-27T14:31:10Z</time></trkpt>
<trkpt lat="46.74005" lon="6.45743"><ele></ele><time>2024-11-27T14:31:13Z</time></trkpt>
<trkpt lat="46.74006" lon="6.45742"><ele></ele><time>2024-11-27T14:31:16Z</time></trkpt>
<trkpt lat="46.74005" lon="6.4574"><ele></ele><time>2024-11-27T14:31:19Z</time></trkpt>
<trkpt lat="46.74006" lon="6.4574"><ele></ele><time>2024-11-27T14:31:22Z</time></trkpt>
</trkseg></trk></gpx>